Wetterdaten: Samstag, 19.05.2018
Datum Zeit Temp. A. Pool Temp. Feuchte A. Luftdruck Regen Wind Richtung Richtung Sonnenschein ET UV Solar Taupunkt Windchill Windben Empfang
19.05.2018 00:00 11,4 C 16,7 C 91 % 1017,5 hPa 0,0 l/m 1,9 km/h (1 Bft) S-SW 194 0 min 0,000 mm 0,0 UV-I 0 W/m 10,0 C 11,4 C 3,2 km/h (1 Bft) 95,65 %
19.05.2018 00:02 11,3 C 16,7 C 91 % 1017,6 hPa 0,0 l/m 2,7 km/h (1 Bft) S-SW 194 0 min 0,000 mm 0,0 UV-I 0 W/m 9,9 C 11,3 C 3,2 km/h (1 Bft) 95,00 %
19.05.2018 00:03 11,2 C 16,7 C 92 % 1017,6 hPa 0,0 l/m 3,0 km/h (1 Bft) S-SW 194 0 min 0,000 mm 0,0 UV-I 0 W/m 9,9 C 11,2 C 4,8 km/h (1 Bft) 95,83 %
19.05.2018 00:04 11,2 C 16,7 C 92 % 1017,6 hPa 0,0 l/m 2,7 km/h (1 Bft) S-SW 194 0 min 0,000 mm 0,0 UV-I 0 W/m 9,9 C 11,2 C 3,2 km/h (1 Bft) 100,00 %
19.05.2018 00:05 11,3 C 16,7 C 92 % 1017,7 hPa 0,0 l/m 2,7 km/h (1 Bft) S-SW 194 0 min 0,000 mm 0,0 UV-I 0 W/m 10,0 C 11,3 C 3,2 km/h (1 Bft) 91,67 %
19.05.2018 00:06 11,4 C 16,7 C 92 % 1017,7 hPa 0,0 l/m 2,2 km/h (1 Bft) S-SW 194 0 min 0,000 mm 0,0 UV-I 0 W/m 10,1 C 11,4 C 3,2 km/h (1 Bft) 100,00 %
19.05.2018 00:07 11,5 C 16,7 C 92 % 1017,6 hPa 0,0 l/m 2,3 km/h (1 Bft) S-SW 194 0 min 0,000 mm 0,0 UV-I 0 W/m 10,2 C 11,5 C 3,2 km/h (1 Bft) 95,65 %
19.05.2018 00:08 11,6 C 16,7 C 92 % 1017,6 hPa 0,0 l/m 1,3 km/h (1 Bft) S-SW 194 0 min 0,000 mm 0,0 UV-I 0 W/m 10,3 C 11,6 C 3,2 km/h (1 Bft) 95,83 %
19.05.2018 00:09 11,7 C 16,7 C 92 % 1017,6 hPa 0,0 l/m 0,1 km/h (0 Bft) S-SW 194 0 min 0,000 mm 0,0 UV-I 0 W/m 10,4 C 11,7 C 1,6 km/h (1 Bft) 95,65 %
19.05.2018 00:10 11,7 C 16,7 C 91 % 1017,6 hPa 0,0 l/m 0,0 km/h (0 Bft) S-SW 194 0 min 0,000 mm 0,0 UV-I 0 W/m 10,3 C 11,7 C 0,0 km/h (0 Bft) 95,83 %
19.05.2018 00:11 11,7 C 16,7 C 91 % 1017,6 hPa 0,0 l/m 0,0 km/h (0 Bft) S-SW 194 0 min 0,000 mm 0,0 UV-I 0 W/m 10,3 C 11,7 C 0,0 km/h (0 Bft) 95,65 %
19.05.2018 00:12 11,7 C 16,7 C 91 % 1017,6 hPa 0,0 l/m 0,0 km/h (0 Bft) S-SW 194 0 min 0,000 mm 0,0 UV-I 0 W/m 10,3 C 11,7 C 0,0 km/h (0 Bft) 95,83 %
19.05.2018 00:13 11,7 C 16,7 C 91 % 1017,6 hPa 0,0 l/m 0,0 km/h (0 Bft) S-SW 194 0 min 0,000 mm 0,0 UV-I 0 W/m 10,3 C 11,7 C 0,0 km/h (0 Bft) 100,00 %
19.05.2018 00:14 11,7 C 16,7 C 91 % 1017,7 hPa 0,0 l/m 0,0 km/h (0 Bft) S-SW 194 0 min 0,000 mm 0,0 UV-I 0 W/m 10,3 C 11,7 C 0,0 km/h (0 Bft) 95,83 %
19.05.2018 00:15 11,6 C 16,7 C 91 % 1017,7 hPa 0,0 l/m 0,0 km/h (0 Bft) S-SW 194 0 min 0,000 mm 0,0 UV-I 0 W/m 10,2 C 11,6 C 0,0 km/h (0 Bft) 95,65 %
19.05.2018 00:16 11,5 C 16,7 C 91 % 1017,7 hPa 0,0 l/m 0,8 km/h (0 Bft) S-SW 194 0 min 0,000 mm 0,0 UV-I 0 W/m 10,1 C 11,5 C 3,2 km/h (1 Bft) 95,83 %
19.05.2018 00:17 11,4 C 16,7 C 92 % 1017,7 hPa 0,0 l/m 4,6 km/h (1 Bft) N-NO 32 0 min 0,000 mm 0,0 UV-I 0 W/m 10,1 C 11,4 C 6,4 km/h (2 Bft) 91,30 %
19.05.2018 00:18 11,3 C 16,7 C 92 % 1017,7 hPa 0,0 l/m 4,4 km/h (1 Bft) NO 34 0 min 0,000 mm 0,0 UV-I 0 W/m 10,0 C 11,3 C 6,4 km/h (2 Bft) 95,83 %
19.05.2018 00:19 11,2 C 16,7 C 92 % 1017,7 hPa 0,0 l/m 4,0 km/h (1 Bft) NO 35 0 min 0,000 mm 0,0 UV-I 0 W/m 9,9 C 11,2 C 4,8 km/h (1 Bft) 91,30 %
19.05.2018 00:20 11,2 C 16,7 C 92 % 1017,7 hPa 0,0 l/m 4,7 km/h (1 Bft) O-NO 61 0 min 0,000 mm 0,0 UV-I 0 W/m 9,9 C 11,2 C 6,4 km/h (2 Bft) 100,00 %
19.05.2018 00:21 11,2 C 16,7 C 93 % 1017,7 hPa 0,0 l/m 5,0 km/h (1 Bft) O-NO 61 0 min 0,000 mm 0,0 UV-I 0 W/m 10,1 C 11,2 C 6,4 km/h (2 Bft) 91,30 %
19.05.2018 00:22 11,2 C 16,7 C 93 % 1017,7 hPa 0,0 l/m 4,8 km/h (1 Bft) O-NO 62 0 min 0,000 mm 0,0 UV-I 0 W/m 10,1 C 11,2 C 6,4 km/h (2 Bft) 100,00 %
19.05.2018 00:23 11,3 C 16,7 C 93 % 1017,7 hPa 0,0 l/m 3,9 km/h (1 Bft) O-NO 65 0 min 0,000 mm 0,0 UV-I 0 W/m 10,2 C 11,3 C 4,8 km/h (1 Bft) 100,00 %
19.05.2018 00:24 11,3 C 16,7 C 93 % 1017,7 hPa 0,0 l/m 2,5 km/h (1 Bft) O-NO 65 0 min 0,000 mm 0,0 UV-I 0 W/m 10,2 C 11,3 C 3,2 km/h (1 Bft) 95,65 %
19.05.2018 00:25 11,3 C 16,7 C 93 % 1017,6 hPa 0,0 l/m 2,2 km/h (1 Bft) O-NO 65 0 min 0,000 mm 0,0 UV-I 0 W/m 10,2 C 11,3 C 3,2 km/h (1 Bft) 95,83 %
19.05.2018 00:26 11,3 C 16,7 C 93 % 1017,7 hPa 0,0 l/m 0,3 km/h (0 Bft) O-NO 65 0 min 0,000 mm 0,0 UV-I 0 W/m 10,2 C 11,3 C 1,6 km/h (1 Bft) 100,00 %
19.05.2018 00:27 11,3 C 16,7 C 93 % 1017,6 hPa 0,0 l/m 0,0 km/h (0 Bft) O-NO 65 0 min 0,000 mm 0,0 UV-I 0 W/m 10,2 C 11,3 C 0,0 km/h (0 Bft) 100,00 %
19.05.2018 00:28 11,3 C 16,7 C 93 % 1017,6 hPa 0,0 l/m 0,0 km/h (0 Bft) O-NO 65 0 min 0,000 mm 0,0 UV-I 0 W/m 10,2 C 11,3 C 0,0 km/h (0 Bft) 100,00 %
19.05.2018 00:29 11,3 C 16,7 C 93 % 1017,7 hPa 0,0 l/m 0,0 km/h (0 Bft) O-NO 65 0 min 0,000 mm 0,0 UV-I 0 W/m 10,2 C 11,3 C 0,0 km/h (0 Bft) 100,00 %
19.05.2018 00:30 11,3 C 16,7 C 93 % 1017,6 hPa 0,0 l/m 0,0 km/h (0 Bft) O-NO 65 0 min 0,000 mm 0,0 UV-I 0 W/m 10,2 C 11,3 C 0,0 km/h (0 Bft) 95,65 %
19.05.2018 00:31 11,3 C 16,7 C 93 % 1017,6 hPa 0,0 l/m 0,0 km/h (0 Bft) O-NO 65 0 min 0,000 mm 0,0 UV-I 0 W/m 10,2 C 11,3 C 0,0 km/h (0 Bft) 100,00 %
19.05.2018 00:32 11,4 C 16,7 C 93 % 1017,6 hPa 0,0 l/m 0,0 km/h (0 Bft) O-NO 65 0 min 0,000 mm 0,0 UV-I 0 W/m 10,3 C 11,4 C 0,0 km/h (0 Bft) 95,83 %
19.05.2018 00:33 11,4 C 16,7 C 93 % 1017,6 hPa 0,0 l/m 0,0 km/h (0 Bft) O-NO 65 0 min 0,000 mm 0,0 UV-I 0 W/m 10,3 C 11,4 C 0,0 km/h (0 Bft) 95,83 %
19.05.2018 00:34 11,4 C 16,7 C 92 % 1017,6 hPa 0,0 l/m 0,0 km/h (0 Bft) O-NO 65 0 min 0,000 mm 0,0 UV-I 0 W/m 10,1 C 11,4 C 0,0 km/h (0 Bft) 100,00 %
19.05.2018 00:35 11,4 C 16,7 C 92 % 1017,6 hPa 0,0 l/m 0,0 km/h (0 Bft) O-NO 65 0 min 0,000 mm 0,0 UV-I 0 W/m 10,1 C 11,4 C 0,0 km/h (0 Bft) 100,00 %
19.05.2018 00:36 11,4 C 16,7 C 92 % 1017,6 hPa 0,0 l/m 0,0 km/h (0 Bft) O-NO 65 0 min 0,000 mm 0,0 UV-I 0 W/m 10,1 C 11,4 C 0,0 km/h (0 Bft) 91,30 %
19.05.2018 00:37 11,4 C 16,7 C 92 % 1017,6 hPa 0,0 l/m 0,0 km/h (0 Bft) O-NO 65 0 min 0,000 mm 0,0 UV-I 0 W/m 10,1 C 11,4 C 0,0 km/h (0 Bft) 95,83 %
19.05.2018 00:38 11,4 C 16,7 C 92 % 1017,6 hPa 0,0 l/m 0,0 km/h (0 Bft) O-NO 65 0 min 0,000 mm 0,0 UV-I 0 W/m 10,1 C 11,4 C 0,0 km/h (0 Bft) 100,00 %
19.05.2018 00:39 11,4 C 16,7 C 92 % 1017,6 hPa 0,0 l/m 0,1 km/h (0 Bft) O-NO 65 0 min 0,000 mm 0,0 UV-I 0 W/m 10,1 C 11,4 C 1,6 km/h (1 Bft) 100,00 %
19.05.2018 00:40 11,3 C 16,7 C 92 % 1017,6 hPa 0,0 l/m 2,1 km/h (1 Bft) O-NO 65 0 min 0,000 mm 0,0 UV-I 0 W/m 10,0 C 11,3 C 3,2 km/h (1 Bft) 100,00 %
19.05.2018 00:41 11,3 C 16,7 C 92 % 1017,6 hPa 0,0 l/m 2,2 km/h (1 Bft) O-NO 65 0 min 0,000 mm 0,0 UV-I 0 W/m 10,0 C 11,3 C 3,2 km/h (1 Bft) 100,00 %
19.05.2018 00:42 11,3 C 16,7 C 92 % 1017,5 hPa 0,0 l/m 2,3 km/h (1 Bft) O-NO 65 0 min 0,000 mm 0,0 UV-I 0 W/m 10,0 C 11,3 C 3,2 km/h (1 Bft) 100,00 %
19.05.2018 00:43 11,2 C 16,7 C 92 % 1017,5 hPa 0,0 l/m 2,5 km/h (1 Bft) O-NO 65 0 min 0,000 mm 0,0 UV-I 0 W/m 9,9 C 11,2 C 3,2 km/h (1 Bft) 100,00 %
19.05.2018 00:44 11,2 C 16,7 C 92 % 1017,5 hPa 0,0 l/m 2,4 km/h (1 Bft) O-NO 65 0 min 0,000 mm 0,0 UV-I 0 W/m 9,9 C 11,2 C 3,2 km/h (1 Bft) 100,00 %
19.05.2018 00:45 11,2 C 16,7 C 93 % 1017,5 hPa 0,0 l/m 2,0 km/h (1 Bft) O-NO 65 0 min 0,000 mm 0,0 UV-I 0 W/m 10,1 C 11,2 C 3,2 km/h (1 Bft) 95,65 %
19.05.2018 00:46 11,2 C 16,7 C 93 % 1017,4 hPa 0,0 l/m 2,3 km/h (1 Bft) O-NO 65 0 min 0,000 mm 0,0 UV-I 0 W/m 10,1 C 11,2 C 3,2 km/h (1 Bft) 100,00 %
19.05.2018 00:47 11,2 C 16,7 C 93 % 1017,5 hPa 0,0 l/m 2,3 km/h (1 Bft) O-NO 65 0 min 0,000 mm 0,0 UV-I 0 W/m 10,1 C 11,2 C 3,2 km/h (1 Bft) 91,30 %
19.05.2018 00:48 11,2 C 16,7 C 93 % 1017,4 hPa 0,0 l/m 1,7 km/h (1 Bft) O-NO 65 0 min 0,000 mm 0,0 UV-I 0 W/m 10,1 C 11,2 C 3,2 km/h (1 Bft) 95,83 %
19.05.2018 00:49 11,2 C 16,7 C 93 % 1017,4 hPa 0,0 l/m 2,1 km/h (1 Bft) O 86 0 min 0,000 mm 0,0 UV-I 0 W/m 10,1 C 11,2 C 3,2 km/h (1 Bft) 91,30 %
19.05.2018 00:50 11,2 C 16,7 C 93 % 1017,4 hPa 0,0 l/m 2,8 km/h (1 Bft) S-SO 151 0 min 0,000 mm 0,0 UV-I 0 W/m 10,1 C 11,2 C 3,2 km/h (1 Bft) 100,00 %
19.05.2018 00:51 11,2 C 16,7 C 93 % 1017,4 hPa 0,0 l/m 3,3 km/h (1 Bft) S-SO 151 0 min 0,000 mm 0,0 UV-I 0 W/m 10,1 C 11,2 C 4,8 km/h (1 Bft) 100,00 %
19.05.2018 00:52 11,1 C 16,7 C 93 % 1017,4 hPa 0,0 l/m 3,3 km/h (1 Bft) S 173 0 min 0,000 mm 0,0 UV-I 0 W/m 10,0 C 11,1 C 4,8 km/h (1 Bft) 100,00 %
19.05.2018 00:53 11,1 C 16,7 C 93 % 1017,4 hPa 0,0 l/m 3,4 km/h (1 Bft) S 173 0 min 0,000 mm 0,0 UV-I 0 W/m 10,0 C 11,1 C 4,8 km/h (1 Bft) 95,65 %
19.05.2018 00:54 11,1 C 16,7 C 93 % 1017,3 hPa 0,0 l/m 3,1 km/h (1 Bft) S 173 0 min 0,000 mm 0,0 UV-I 0 W/m 10,0 C 11,1 C 4,8 km/h (1 Bft) 100,00 %
19.05.2018 00:55 11,1 C 16,7 C 93 % 1017,3 hPa 0,0 l/m 3,6 km/h (1 Bft) S 173 0 min 0,000 mm 0,0 UV-I 0 W/m 10,0 C 11,1 C 4,8 km/h (1 Bft) 100,00 %
19.05.2018 00:56 11,2 C 16,7 C 93 % 1017,3 hPa 0,0 l/m 3,6 km/h (1 Bft) S 173 0 min 0,000 mm 0,0 UV-I 0 W/m 10,1 C 11,2 C 4,8 km/h (1 Bft) 100,00 %
19.05.2018 00:57 11,2 C 16,7 C 93 % 1017,3 hPa 0,0 l/m 3,6 km/h (1 Bft) S 174 0 min 0,000 mm 0,0 UV-I 0 W/m 10,1 C 11,2 C 4,8 km/h (1 Bft) 100,00 %
19.05.2018 00:58 11,2 C 16,7 C 93 % 1017,2 hPa 0,0 l/m 1,9 km/h (1 Bft) S 174 0 min 0,000 mm 0,0 UV-I 0 W/m 10,1 C 11,2 C 3,2 km/h (1 Bft) 100,00 %
19.05.2018 00:59 11,1 C 16,7 C 93 % 1017,2 hPa 0,0 l/m 3,0 km/h (1 Bft) S 174 0 min 0,000 mm 0,0 UV-I 0 W/m 10,0 C 11,1 C 4,8 km/h (1 Bft) 95,65 %
19.05.2018 01:00 11,1 C 16,7 C 93 % 1017,2 hPa 0,0 l/m 3,7 km/h (1 Bft) S 174 0 min 0,000 mm 0,0 UV-I 0 W/m 10,0 C 11,1 C 4,8 km/h (1 Bft) 100,00 %
19.05.2018 01:01 11,1 C 16,7 C 93 % 1017,3 hPa 0,0 l/m 2,1 km/h (1 Bft) S 174 0 min 0,000 mm 0,0 UV-I 0 W/m 10,0 C 11,1 C 4,8 km/h (1 Bft) 95,83 %
19.05.2018 01:02 11,1 C 16,7 C 93 % 1017,3 hPa 0,0 l/m 2,9 km/h (1 Bft) S 174 0 min 0,000 mm 0,0 UV-I 0 W/m 10,0 C 11,1 C 4,8 km/h (1 Bft) 95,65 %
19.05.2018 01:03 11,0 C 16,7 C 93 % 1017,3 hPa 0,0 l/m 3,4 km/h (1 Bft) S 174 0 min 0,000 mm 0,0 UV-I 0 W/m 9,9 C 11,0 C 4,8 km/h (1 Bft) 100,00 %
19.05.2018 01:04 10,9 C 16,7 C 93 % 1017,3 hPa 0,0 l/m 3,7 km/h (1 Bft) S 174 0 min 0,000 mm 0,0 UV-I 0 W/m 9,8 C 10,9 C 4,8 km/h (1 Bft) 100,00 %
19.05.2018 01:05 10,8 C 16,7 C 93 % 1017,3 hPa 0,0 l/m 3,6 km/h (1 Bft) S 174 0 min 0,000 mm 0,0 UV-I 0 W/m 9,7 C 10,8 C 4,8 km/h (1 Bft) 100,00 %
19.05.2018 01:06 10,8 C 16,7 C 93 % 1017,3 hPa 0,0 l/m 3,5 km/h (1 Bft) S 174 0 min 0,000 mm 0,0 UV-I 0 W/m 9,7 C 10,8 C 4,8 km/h (1 Bft) 100,00 %
19.05.2018 01:07 10,8 C 16,7 C 93 % 1017,3 hPa 0,0 l/m 3,1 km/h (1 Bft) S 174 0 min 0,000 mm 0,0 UV-I 0 W/m 9,7 C 10,8 C 3,2 km/h (1 Bft) 100,00 %
19.05.2018 01:08 10,9 C 16,7 C 94 % 1017,2 hPa 0,0 l/m 4,2 km/h (1 Bft) S 174 0 min 0,000 mm 0,0 UV-I 0 W/m 10,0 C 10,9 C 4,8 km/h (1 Bft) 95,83 %
19.05.2018 01:09 11,0 C 16,7 C 94 % 1017,2 hPa 0,0 l/m 5,1 km/h (1 Bft) S-SO 165 0 min 0,000 mm 0,0 UV-I 0 W/m 10,1 C 11,0 C 8,0 km/h (2 Bft) 100,00 %
19.05.2018 01:10 11,0 C 16,7 C 93 % 1017,2 hPa 0,0 l/m 6,2 km/h (2 Bft) SO 141 0 min 0,000 mm 0,0 UV-I 0 W/m 9,9 C 11,0 C 8,0 km/h (2 Bft) 100,00 %
19.05.2018 01:11 10,9 C 16,7 C 93 % 1017,2 hPa 0,0 l/m 4,6 km/h (1 Bft) SO 141 0 min 0,000 mm 0,0 UV-I 0 W/m 9,8 C 10,9 C 4,8 km/h (1 Bft) 100,00 %
19.05.2018 01:12 10,9 C 16,7 C 93 % 1017,2 hPa 0,0 l/m 5,5 km/h (1 Bft) SO 142 0 min 0,000 mm 0,0 UV-I 0 W/m 9,8 C 10,9 C 6,4 km/h (2 Bft) 100,00 %
19.05.2018 01:13 10,8 C 16,7 C 93 % 1017,2 hPa 0,0 l/m 5,0 km/h (1 Bft) SO 144 0 min 0,000 mm 0,0 UV-I 0 W/m 9,7 C 10,8 C 6,4 km/h (2 Bft) 100,00 %
19.05.2018 01:14 10,8 C 16,7 C 93 % 1017,2 hPa 0,0 l/m 5,0 km/h (1 Bft) SO 144 0 min 0,000 mm 0,0 UV-I 0 W/m 9,7 C 10,8 C 6,4 km/h (2 Bft) 100,00 %
19.05.2018 01:15 10,8 C 16,7 C 93 % 1017,2 hPa 0,0 l/m 4,2 km/h (1 Bft) SO 146 0 min 0,000 mm 0,0 UV-I 0 W/m 9,7 C 10,8 C 4,8 km/h (1 Bft) 100,00 %
19.05.2018 01:16 10,7 C 16,7 C 93 % 1017,3 hPa 0,0 l/m 3,7 km/h (1 Bft) SO 146 0 min 0,000 mm 0,0 UV-I 0 W/m 9,6 C 10,7 C 4,8 km/h (1 Bft) 100,00 %
19.05.2018 01:17 10,7 C 16,7 C 93 % 1017,3 hPa 0,0 l/m 3,1 km/h (1 Bft) S-SO 147 0 min 0,000 mm 0,0 UV-I 0 W/m 9,6 C 10,7 C 4,8 km/h (1 Bft) 91,67 %
19.05.2018 01:18 10,7 C 16,7 C 93 % 1017,3 hPa 0,0 l/m 3,0 km/h (1 Bft) S-SO 149 0 min 0,000 mm 0,0 UV-I 0 W/m 9,6 C 10,7 C 4,8 km/h (1 Bft) 100,00 %
19.05.2018 01:19 10,7 C 16,7 C 93 % 1017,3 hPa 0,0 l/m 2,5 km/h (1 Bft) S-SO 166 0 min 0,000 mm 0,0 UV-I 0 W/m 9,6 C 10,7 C 4,8 km/h (1 Bft) 95,65 %
19.05.2018 01:20 10,8 C 16,7 C 93 % 1017,3 hPa 0,0 l/m 4,2 km/h (1 Bft) S 171 0 min 0,000 mm 0,0 UV-I 0 W/m 9,7 C 10,8 C 6,4 km/h (2 Bft) 95,83 %
19.05.2018 01:21 10,8 C 16,7 C 93 % 1017,3 hPa 0,0 l/m 3,8 km/h (1 Bft) S-SW 198 0 min 0,000 mm 0,0 UV-I 0 W/m 9,7 C 10,8 C 6,4 km/h (2 Bft) 100,00 %
19.05.2018 01:22 10,8 C 16,7 C 93 % 1017,3 hPa 0,0 l/m 4,2 km/h (1 Bft) S-SW 201 0 min 0,000 mm 0,0 UV-I 0 W/m 9,7 C 10,8 C 4,8 km/h (1 Bft) 95,83 %
19.05.2018 01:23 10,8 C 16,7 C 93 % 1017,2 hPa 0,0 l/m 3,6 km/h (1 Bft) S-SW 201 0 min 0,000 mm 0,0 UV-I 0 W/m 9,7 C 10,8 C 4,8 km/h (1 Bft) 95,65 %
19.05.2018 01:24 10,8 C 16,7 C 93 % 1017,3 hPa 0,0 l/m 2,7 km/h (1 Bft) S-SW 201 0 min 0,000 mm 0,0 UV-I 0 W/m 9,7 C 10,8 C 3,2 km/h (1 Bft) 95,83 %
19.05.2018 01:25 10,8 C 16,7 C 93 % 1017,3 hPa 0,0 l/m 4,0 km/h (1 Bft) S-SW 201 0 min 0,000 mm 0,0 UV-I 0 W/m 9,7 C 10,8 C 4,8 km/h (1 Bft) 95,65 %
19.05.2018 01:26 10,8 C 16,7 C 93 % 1017,2 hPa 0,0 l/m 4,6 km/h (1 Bft) S-SW 202 0 min 0,000 mm 0,0 UV-I 0 W/m 9,7 C 10,8 C 4,8 km/h (1 Bft) 96,00 %
19.05.2018 01:27 10,8 C 16,7 C 93 % 1017,2 hPa 0,0 l/m 3,8 km/h (1 Bft) S-SW 202 0 min 0,000 mm 0,0 UV-I 0 W/m 9,7 C 10,8 C 4,8 km/h (1 Bft) 100,00 %
19.05.2018 01:28 10,8 C 16,7 C 93 % 1017,2 hPa 0,0 l/m 3,4 km/h (1 Bft) S-SW 203 0 min 0,000 mm 0,0 UV-I 0 W/m 9,7 C 10,8 C 4,8 km/h (1 Bft) 96,30 %
19.05.2018 01:29 10,7 C 16,7 C 93 % 1017,2 hPa 0,0 l/m 4,3 km/h (1 Bft) S-SW 203 0 min 0,000 mm 0,0 UV-I 0 W/m 9,6 C 10,7 C 4,8 km/h (1 Bft) 91,30 %
19.05.2018 01:30 10,7 C 16,7 C 93 % 1017,2 hPa 0,0 l/m 4,1 km/h (1 Bft) S-SW 204 0 min 0,000 mm 0,0 UV-I 0 W/m 9,6 C 10,7 C 6,4 km/h (2 Bft) 100,00 %
19.05.2018 01:31 10,7 C 16,7 C 93 % 1017,3 hPa 0,0 l/m 4,2 km/h (1 Bft) S-SW 213 0 min 0,000 mm 0,0 UV-I 0 W/m 9,6 C 10,7 C 6,4 km/h (2 Bft) 95,65 %
19.05.2018 01:32 10,7 C 16,7 C 93 % 1017,3 hPa 0,0 l/m 4,4 km/h (1 Bft) S-SW 213 0 min 0,000 mm 0,0 UV-I 0 W/m 9,6 C 10,7 C 6,4 km/h (2 Bft) 100,00 %
19.05.2018 01:33 10,7 C 16,7 C 93 % 1017,2 hPa 0,0 l/m 3,4 km/h (1 Bft) S-SW 213 0 min 0,000 mm 0,0 UV-I 0 W/m 9,6 C 10,7 C 4,8 km/h (1 Bft) 95,65 %
19.05.2018 01:34 10,7 C 16,7 C 93 % 1017,2 hPa 0,0 l/m 4,6 km/h (1 Bft) S 188 0 min 0,000 mm 0,0 UV-I 0 W/m 9,6 C 10,7 C 6,4 km/h (2 Bft) 96,30 %
19.05.2018 01:35 10,6 C 16,7 C 93 % 1017,2 hPa 0,0 l/m 4,6 km/h (1 Bft) S-SW 192 0 min 0,000 mm 0,0 UV-I 0 W/m 9,5 C 10,6 C 6,4 km/h (2 Bft) 100,00 %
19.05.2018 01:36 10,6 C 16,7 C 93 % 1017,2 hPa 0,0 l/m 4,7 km/h (1 Bft) S-SW 192 0 min 0,000 mm 0,0 UV-I 0 W/m 9,5 C 10,6 C 6,4 km/h (2 Bft) 100,00 %
19.05.2018 01:37 10,6 C 16,7 C 93 % 1017,2 hPa 0,0 l/m 5,2 km/h (1 Bft) S-SW 192 0 min 0,000 mm 0,0 UV-I 0 W/m 9,5 C 10,6 C 6,4 km/h (2 Bft) 95,83 %
19.05.2018 01:38 10,7 C 16,7 C 93 % 1017,2 hPa 0,0 l/m 5,4 km/h (1 Bft) S 190 0 min 0,000 mm 0,0 UV-I 0 W/m 9,6 C 10,7 C 6,4 km/h (2 Bft) 100,00 %
19.05.2018 01:39 10,7 C 16,7 C 93 % 1017,2 hPa 0,0 l/m 5,2 km/h (1 Bft) S-SW 202 0 min 0,000 mm 0,0 UV-I 0 W/m 9,6 C 10,7 C 6,4 km/h (2 Bft) 95,83 %
19.05.2018 01:40 10,7 C 16,7 C 93 % 1017,2 hPa 0,0 l/m 4,8 km/h (1 Bft) S-SW 203 0 min 0,000 mm 0,0 UV-I 0 W/m 9,6 C 10,7 C 6,4 km/h (2 Bft) 95,65 %
19.05.2018 01:41 10,8 C 16,7 C 93 % 1017,2 hPa 0,0 l/m 3,4 km/h (1 Bft) S-SW 205 0 min 0,000 mm 0,0 UV-I 0 W/m 9,7 C 10,8 C 4,8 km/h (1 Bft) 95,83 %
19.05.2018 01:42 10,8 C 16,7 C 94 % 1017,2 hPa 0,0 l/m 3,3 km/h (1 Bft) S-SW 205 0 min 0,000 mm 0,0 UV-I 0 W/m 9,9 C 10,8 C 4,8 km/h (1 Bft) 91,30 %
19.05.2018 01:43 10,9 C 16,7 C 93 % 1017,2 hPa 0,0 l/m 3,3 km/h (1 Bft) S-SW 210 0 min 0,000 mm 0,0 UV-I 0 W/m 9,8 C 10,9 C 4,8 km/h (1 Bft) 100,00 %
19.05.2018 01:44 10,9 C 16,7 C 93 % 1017,2 hPa 0,0 l/m 3,7 km/h (1 Bft) S-SW 212 0 min 0,000 mm 0,0 UV-I 0 W/m 9,8 C 10,9 C 4,8 km/h (1 Bft) 95,65 %
19.05.2018 01:45 11,0 C 16,7 C 93 % 1017,2 hPa 0,0 l/m 1,5 km/h (1 Bft) S-SW 212 0 min 0,000 mm 0,0 UV-I 0 W/m 9,9 C 11,0 C 1,6 km/h (1 Bft) 100,00 %
19.05.2018 01:46 11,1 C 16,7 C 93 % 1017,1 hPa 0,0 l/m 3,5 km/h (1 Bft) S-SW 213 0 min 0,000 mm 0,0 UV-I 0 W/m 10,0 C 11,1 C 4,8 km/h (1 Bft) 95,65 %
19.05.2018 01:47 11,1 C 16,7 C 93 % 1017,2 hPa 0,0 l/m 3,8 km/h (1 Bft) S-SW 213 0 min 0,000 mm 0,0 UV-I 0 W/m 10,0 C 11,1 C 6,4 km/h (2 Bft) 91,67 %
19.05.2018 01:48 11,1 C 16,7 C 93 % 1017,1 hPa 0,0 l/m 0,9 km/h (0 Bft) S-SW 213 0 min 0,000 mm 0,0 UV-I 0 W/m 10,0 C 11,1 C 3,2 km/h (1 Bft) 95,65 %
19.05.2018 01:49 11,2 C 16,7 C 92 % 1017,1 hPa 0,0 l/m 0,8 km/h (0 Bft) S-SW 213 0 min 0,000 mm 0,0 UV-I 0 W/m 9,9 C 11,2 C 3,2 km/h (1 Bft) 91,67 %
19.05.2018 01:50 11,2 C 16,7 C 92 % 1017,1 hPa 0,0 l/m 1,3 km/h (1 Bft) S-SW 213 0 min 0,000 mm 0,0 UV-I 0 W/m 9,9 C 11,2 C 3,2 km/h (1 Bft) 100,00 %
19.05.2018 01:51 11,2 C 16,7 C 92 % 1017,2 hPa 0,0 l/m 0,1 km/h (0 Bft) S-SW 213 0 min 0,000 mm 0,0 UV-I 0 W/m 9,9 C 11,2 C 1,6 km/h (1 Bft) 91,67 %
19.05.2018 01:52 11,3 C 16,7 C 92 % 1017,1 hPa 0,0 l/m 0,9 km/h (0 Bft) S-SW 213 0 min 0,000 mm 0,0 UV-I 0 W/m 10,0 C 11,3 C 1,6 km/h (1 Bft) 100,00 %
19.05.2018 01:53 11,3 C 16,7 C 92 % 1017,1 hPa 0,0 l/m 0,4 km/h (0 Bft) S-SW 213 0 min 0,000 mm 0,0 UV-I 0 W/m 10,0 C 11,3 C 1,6 km/h (1 Bft) 100,00 %
19.05.2018 01:54 11,3 C 16,7 C 92 % 1017,1 hPa 0,0 l/m 0,8 km/h (0 Bft) S-SW 213 0 min 0,000 mm 0,0 UV-I 0 W/m 10,0 C 11,3 C 1,6 km/h (1 Bft) 96,15 %
19.05.2018 01:55 11,2 C 16,7 C 92 % 1017,1 hPa 0,0 l/m 0,4 km/h (0 Bft) S-SW 213 0 min 0,000 mm 0,0 UV-I 0 W/m 9,9 C 11,2 C 1,6 km/h (1 Bft) 100,00 %
19.05.2018 01:56 11,2 C 16,7 C 92 % 1017,2 hPa 0,0 l/m 2,5 km/h (1 Bft) S-SW 212 0 min 0,000 mm 0,0 UV-I 0 W/m 9,9 C 11,2 C 3,2 km/h (1 Bft) 95,65 %
19.05.2018 01:57 11,2 C 16,7 C 92 % 1017,2 hPa 0,0 l/m 1,7 km/h (1 Bft) S-SW 213 0 min 0,000 mm 0,0 UV-I 0 W/m 9,9 C 11,2 C 3,2 km/h (1 Bft) 100,00 %
19.05.2018 01:58 11,3 C 16,7 C 92 % 1017,2 hPa 0,0 l/m 1,3 km/h (1 Bft) S-SW 213 0 min 0,000 mm 0,0 UV-I 0 W/m 10,0 C 11,3 C 3,2 km/h (1 Bft) 100,00 %
19.05.2018 01:59 11,3 C 16,7 C 92 % 1017,2 hPa 0,0 l/m 0,5 km/h (0 Bft) S-SW 213 0 min 0,000 mm 0,0 UV-I 0 W/m 10,0 C 11,3 C 1,6 km/h (1 Bft) 100,00 %
19.05.2018 02:00 11,3 C 16,7 C 91 % 1017,2 hPa 0,0 l/m 0,1 km/h (0 Bft) S-SW 213 0 min 0,000 mm 0,0 UV-I 0 W/m 9,9 C 11,3 C 1,6 km/h (1 Bft) 100,00 %
19.05.2018 02:01 11,3 C 16,7 C 91 % 1017,2 hPa 0,0 l/m 0,0 km/h (0 Bft) S-SW 213 0 min 0,000 mm 0,0 UV-I 0 W/m 9,9 C 11,3 C 0,0 km/h (0 Bft) 95,65 %
19.05.2018 02:02 11,3 C 16,7 C 91 % 1017,2 hPa 0,0 l/m 0,0 km/h (0 Bft) S-SW 213 0 min 0,000 mm 0,0 UV-I 0 W/m 9,9 C 11,3 C 0,0 km/h (0 Bft) 100,00 %
19.05.2018 02:03 11,3 C 16,7 C 91 % 1017,1 hPa 0,0 l/m 0,0 km/h (0 Bft) S-SW 213 0 min 0,000 mm 0,0 UV-I 0 W/m 9,9 C 11,3 C 0,0 km/h (0 Bft) 95,65 %
19.05.2018 02:04 11,2 C 16,7 C 91 % 1017,1 hPa 0,0 l/m 0,0 km/h (0 Bft) S-SW 213 0 min 0,000 mm 0,0 UV-I 0 W/m 9,8 C 11,2 C 0,0 km/h (0 Bft) 100,00 %
19.05.2018 02:05 11,2 C 16,7 C 91 % 1017,1 hPa 0,0 l/m 0,0 km/h (0 Bft) S-SW 213 0 min 0,000 mm 0,0 UV-I 0 W/m 9,8 C 11,2 C 0,0 km/h (0 Bft) 100,00 %
19.05.2018 02:06 11,2 C 16,7 C 92 % 1017,1 hPa 0,0 l/m 1,7 km/h (1 Bft) S-SW 213 0 min 0,000 mm 0,0 UV-I 0 W/m 9,9 C 11,2 C 3,2 km/h (1 Bft) 100,00 %
19.05.2018 02:07 11,2 C 16,7 C 92 % 1017,1 hPa 0,0 l/m 2,8 km/h (1 Bft) S-SW 213 0 min 0,000 mm 0,0 UV-I 0 W/m 9,9 C 11,2 C 3,2 km/h (1 Bft) 100,00 %
19.05.2018 02:08 11,3 C 16,7 C 92 % 1017,1 hPa 0,0 l/m 3,3 km/h (1 Bft) S-SW 213 0 min 0,000 mm 0,0 UV-I 0 W/m 10,0 C 11,3 C 4,8 km/h (1 Bft) 100,00 %
19.05.2018 02:09 11,3 C 16,7 C 92 % 1017,1 hPa 0,0 l/m 3,7 km/h (1 Bft) S-SW 213 0 min 0,000 mm 0,0 UV-I 0 W/m 10,0 C 11,3 C 4,8 km/h (1 Bft) 100,00 %
19.05.2018 02:10 11,3 C 16,7 C 92 % 1017,1 hPa 0,0 l/m 4,3 km/h (1 Bft) S-SW 212 0 min 0,000 mm 0,0 UV-I 0 W/m 10,0 C 11,3 C 4,8 km/h (1 Bft) 95,83 %
19.05.2018 02:11 11,3 C 16,7 C 92 % 1017,1 hPa 0,0 l/m 4,2 km/h (1 Bft) S-SW 212 0 min 0,000 mm 0,0 UV-I 0 W/m 10,0 C 11,3 C 4,8 km/h (1 Bft) 100,00 %
19.05.2018 02:12 11,3 C 16,7 C 92 % 1017,1 hPa 0,0 l/m 3,9 km/h (1 Bft) S-SW 213 0 min 0,000 mm 0,0 UV-I 0 W/m 10,0 C 11,3 C 4,8 km/h (1 Bft) 83,33 %
19.05.2018 02:13 11,3 C 16,7 C 91 % 1017,1 hPa 0,0 l/m 3,9 km/h (1 Bft) S-SW 213 0 min 0,000 mm 0,0 UV-I 0 W/m 9,9 C 11,3 C 4,8 km/h (1 Bft) 100,00 %
19.05.2018 02:14 11,3 C 16,7 C 92 % 1017,1 hPa 0,0 l/m 4,6 km/h (1 Bft) S-SW 213 0 min 0,000 mm 0,0 UV-I 0 W/m 10,0 C 11,3 C 6,4 km/h (2 Bft) 100,00 %
19.05.2018 02:15 11,3 C 16,7 C 92 % 1017,0 hPa 0,0 l/m 4,4 km/h (1 Bft) S-SW 213 0 min 0,000 mm 0,0 UV-I 0 W/m 10,0 C 11,3 C 4,8 km/h (1 Bft) 100,00 %
19.05.2018 02:16 11,3 C 16,7 C 92 % 1017,0 hPa 0,0 l/m 4,5 km/h (1 Bft) SW 220 0 min 0,000 mm 0,0 UV-I 0 W/m 10,0 C 11,3 C 6,4 km/h (2 Bft) 100,00 %
19.05.2018 02:17 11,3 C 16,7 C 92 % 1017,0 hPa 0,0 l/m 5,1 km/h (1 Bft) SW 220 0 min 0,000 mm 0,0 UV-I 0 W/m 10,0 C 11,3 C 6,4 km/h (2 Bft) 100,00 %
19.05.2018 02:18 11,3 C 16,7 C 91 % 1017,0 hPa 0,0 l/m 3,7 km/h (1 Bft) SW 220 0 min 0,000 mm 0,0 UV-I 0 W/m 9,9 C 11,3 C 4,8 km/h (1 Bft) 100,00 %
19.05.2018 02:19 11,3 C 16,7 C 92 % 1017,0 hPa 0,0 l/m 4,8 km/h (1 Bft) SW 221 0 min 0,000 mm 0,0 UV-I 0 W/m 10,0 C 11,3 C 6,4 km/h (2 Bft) 100,00 %
19.05.2018 02:20 11,3 C 16,7 C 91 % 1017,0 hPa 0,0 l/m 4,4 km/h (1 Bft) SW 219 0 min 0,000 mm 0,0 UV-I 0 W/m 9,9 C 11,3 C 6,4 km/h (2 Bft) 100,00 %
19.05.2018 02:21 11,3 C 16,7 C 91 % 1017,0 hPa 0,0 l/m 4,1 km/h (1 Bft) SW 219 0 min 0,000 mm 0,0 UV-I 0 W/m 9,9 C 11,3 C 6,4 km/h (2 Bft) 100,00 %
19.05.2018 02:22 11,3 C 16,7 C 92 % 1017,1 hPa 0,0 l/m 3,6 km/h (1 Bft) SW 219 0 min 0,000 mm 0,0 UV-I 0 W/m 10,0 C 11,3 C 4,8 km/h (1 Bft) 100,00 %
19.05.2018 02:23 11,3 C 16,7 C 92 % 1017,1 hPa 0,0 l/m 2,3 km/h (1 Bft) SW 219 0 min 0,000 mm 0,0 UV-I 0 W/m 10,0 C 11,3 C 4,8 km/h (1 Bft) 100,00 %
19.05.2018 02:24 11,3 C 16,7 C 92 % 1017,1 hPa 0,0 l/m 2,3 km/h (1 Bft) SW 219 0 min 0,000 mm 0,0 UV-I 0 W/m 10,0 C 11,3 C 4,8 km/h (1 Bft) 100,00 %
19.05.2018 02:25 11,3 C 16,7 C 92 % 1017,1 hPa 0,0 l/m 2,5 km/h (1 Bft) SW 219 0 min 0,000 mm 0,0 UV-I 0 W/m 10,0 C 11,3 C 4,8 km/h (1 Bft) 100,00 %
19.05.2018 02:26 11,3 C 16,7 C 92 % 1017,1 hPa 0,0 l/m 3,6 km/h (1 Bft) SW 219 0 min 0,000 mm 0,0 UV-I 0 W/m 10,0 C 11,3 C 4,8 km/h (1 Bft) 100,00 %
19.05.2018 02:27 11,3 C 16,7 C 92 % 1017,1 hPa 0,0 l/m 5,0 km/h (1 Bft) S-SW 202 0 min 0,000 mm 0,0 UV-I 0 W/m 10,0 C 11,3 C 6,4 km/h (2 Bft) 100,00 %
19.05.2018 02:28 11,3 C 16,7 C 92 % 1017,1 hPa 0,0 l/m 5,4 km/h (1 Bft) S-SW 202 0 min 0,000 mm 0,0 UV-I 0 W/m 10,0 C 11,3 C 6,4 km/h (2 Bft) 100,00 %
19.05.2018 02:29 11,3 C 16,7 C 92 % 1017,1 hPa 0,0 l/m 6,0 km/h (2 Bft) S-SW 205 0 min 0,000 mm 0,0 UV-I 0 W/m 10,0 C 11,3 C 6,4 km/h (2 Bft) 100,00 %
19.05.2018 02:30 11,3 C 16,7 C 91 % 1017,1 hPa 0,0 l/m 6,4 km/h (2 Bft) SW 215 0 min 0,000 mm 0,0 UV-I 0 W/m 9,9 C 11,3 C 8,0 km/h (2 Bft) 100,00 %
19.05.2018 02:31 11,3 C 16,7 C 92 % 1017,0 hPa 0,0 l/m 6,8 km/h (2 Bft) SW 221 0 min 0,000 mm 0,0 UV-I 0 W/m 10,0 C 11,0 C 9,7 km/h (2 Bft) 100,00 %
19.05.2018 02:32 11,3 C 16,7 C 92 % 1017,0 hPa 0,0 l/m 7,2 km/h (2 Bft) SW 218 0 min 0,000 mm 0,0 UV-I 0 W/m 10,0 C 10,8 C 9,7 km/h (2 Bft) 100,00 %
19.05.2018 02:33 11,3 C 16,7 C 92 % 1017,1 hPa 0,0 l/m 6,2 km/h (2 Bft) SW 230 0 min 0,000 mm 0,0 UV-I 0 W/m 10,0 C 11,3 C 8,0 km/h (2 Bft) 95,83 %
19.05.2018 02:34 11,3 C 16,7 C 92 % 1017,1 hPa 0,0 l/m 6,4 km/h (2 Bft) SW 215 0 min 0,000 mm 0,0 UV-I 0 W/m 10,0 C 11,3 C 8,0 km/h (2 Bft) 100,00 %
19.05.2018 02:35 11,4 C 16,7 C 91 % 1017,1 hPa 0,0 l/m 4,9 km/h (1 Bft) SW 216 0 min 0,000 mm 0,0 UV-I 0 W/m 10,0 C 11,4 C 6,4 km/h (2 Bft) 100,00 %
19.05.2018 02:36 11,4 C 16,7 C 92 % 1017,1 hPa 0,0 l/m 2,9 km/h (1 Bft) SW 216 0 min 0,000 mm 0,0 UV-I 0 W/m 10,1 C 11,4 C 4,8 km/h (1 Bft) 100,00 %
19.05.2018 02:37 11,3 C 16,7 C 91 % 1017,1 hPa 0,0 l/m 4,1 km/h (1 Bft) SW 215 0 min 0,000 mm 0,0 UV-I 0 W/m 9,9 C 11,3 C 6,4 km/h (2 Bft) 100,00 %
19.05.2018 02:38 11,3 C 16,7 C 91 % 1017,1 hPa 0,0 l/m 3,3 km/h (1 Bft) SW 215 0 min 0,000 mm 0,0 UV-I 0 W/m 9,9 C 11,3 C 4,8 km/h (1 Bft) 100,00 %
19.05.2018 02:39 11,3 C 16,7 C 91 % 1017,1 hPa 0,0 l/m 3,1 km/h (1 Bft) SW 215 0 min 0,000 mm 0,0 UV-I 0 W/m 9,9 C 11,3 C 3,2 km/h (1 Bft) 100,00 %
19.05.2018 02:40 11,3 C 16,7 C 91 % 1017,1 hPa 0,0 l/m 1,2 km/h (1 Bft) SW 215 0 min 0,000 mm 0,0 UV-I 0 W/m 9,9 C 11,3 C 1,6 km/h (1 Bft) 100,00 %
19.05.2018 02:41 11,3 C 16,7 C 91 % 1017,1 hPa 0,0 l/m 2,6 km/h (1 Bft) SW 215 0 min 0,000 mm 0,0 UV-I 0 W/m 9,9 C 11,3 C 3,2 km/h (1 Bft) 100,00 %
19.05.2018 02:42 11,4 C 16,7 C 91 % 1017,1 hPa 0,0 l/m 2,2 km/h (1 Bft) SW 215 0 min 0,000 mm 0,0 UV-I 0 W/m 10,0 C 11,4 C 3,2 km/h (1 Bft) 95,83 %
19.05.2018 02:43 11,4 C 16,7 C 92 % 1017,1 hPa 0,0 l/m 2,2 km/h (1 Bft) SW 215 0 min 0,000 mm 0,0 UV-I 0 W/m 10,1 C 11,4 C 3,2 km/h (1 Bft) 100,00 %
19.05.2018 02:44 11,4 C 16,7 C 92 % 1017,1 hPa 0,0 l/m 3,5 km/h (1 Bft) SW 215 0 min 0,000 mm 0,0 UV-I 0 W/m 10,1 C 11,4 C 4,8 km/h (1 Bft) 100,00 %
19.05.2018 02:45 11,4 C 16,7 C 92 % 1017,1 hPa 0,0 l/m 3,2 km/h (1 Bft) SW 215 0 min 0,000 mm 0,0 UV-I 0 W/m 10,1 C 11,4 C 4,8 km/h (1 Bft) 100,00 %
19.05.2018 02:46 11,4 C 16,7 C 92 % 1017,1 hPa 0,0 l/m 1,2 km/h (1 Bft) SW 215 0 min 0,000 mm 0,0 UV-I 0 W/m 10,1 C 11,4 C 3,2 km/h (1 Bft) 100,00 %
19.05.2018 02:47 11,4 C 16,7 C 91 % 1017,1 hPa 0,0 l/m 1,2 km/h (1 Bft) SW 215 0 min 0,000 mm 0,0 UV-I 0 W/m 10,0 C 11,4 C 3,2 km/h (1 Bft) 100,00 %
19.05.2018 02:48 11,4 C 16,7 C 92 % 1017,1 hPa 0,0 l/m 0,3 km/h (0 Bft) SW 215 0 min 0,000 mm 0,0 UV-I 0 W/m 10,1 C 11,4 C 1,6 km/h (1 Bft) 100,00 %
19.05.2018 02:49 11,4 C 16,7 C 91 % 1017,2 hPa 0,0 l/m 1,1 km/h (1 Bft) SW 215 0 min 0,000 mm 0,0 UV-I 0 W/m 10,0 C 11,4 C 1,6 km/h (1 Bft) 100,00 %
19.05.2018 02:50 11,4 C 16,7 C 91 % 1017,2 hPa 0,0 l/m 1,1 km/h (1 Bft) SW 215 0 min 0,000 mm 0,0 UV-I 0 W/m 10,0 C 11,4 C 1,6 km/h (1 Bft) 100,00 %
19.05.2018 02:51 11,4 C 16,7 C 91 % 1017,1 hPa 0,0 l/m 1,3 km/h (1 Bft) SW 215 0 min 0,000 mm 0,0 UV-I 0 W/m 10,0 C 11,4 C 3,2 km/h (1 Bft) 100,00 %
19.05.2018 02:52 11,5 C 16,7 C 92 % 1017,1 hPa 0,0 l/m 2,2 km/h (1 Bft) SW 215 0 min 0,000 mm 0,0 UV-I 0 W/m 10,2 C 11,5 C 3,2 km/h (1 Bft) 100,00 %
19.05.2018 02:53 11,5 C 16,7 C 91 % 1017,1 hPa 0,0 l/m 2,9 km/h (1 Bft) SW 215 0 min 0,000 mm 0,0 UV-I 0 W/m 10,1 C 11,5 C 3,2 km/h (1 Bft) 91,67 %
19.05.2018 02:54 11,6 C 16,7 C 91 % 1017,1 hPa 0,0 l/m 3,1 km/h (1 Bft) SW 215 0 min 0,000 mm 0,0 UV-I 0 W/m 10,2 C 11,6 C 4,8 km/h (1 Bft) 100,00 %
19.05.2018 02:55 11,5 C 16,7 C 91 % 1017,1 hPa 0,0 l/m 2,1 km/h (1 Bft) SW 215 0 min 0,000 mm 0,0 UV-I 0 W/m 10,1 C 11,5 C 3,2 km/h (1 Bft) 95,83 %
19.05.2018 02:56 11,5 C 16,7 C 91 % 1017,1 hPa 0,0 l/m 3,0 km/h (1 Bft) SW 215 0 min 0,000 mm 0,0 UV-I 0 W/m 10,1 C 11,5 C 4,8 km/h (1 Bft) 95,65 %
19.05.2018 02:57 11,5 C 16,7 C 91 % 1017,1 hPa 0,0 l/m 2,3 km/h (1 Bft) SW 215 0 min 0,000 mm 0,0 UV-I 0 W/m 10,1 C 11,5 C 3,2 km/h (1 Bft) 95,83 %
19.05.2018 02:58 11,4 C 16,7 C 91 % 1017,1 hPa 0,0 l/m 2,3 km/h (1 Bft) SW 215 0 min 0,000 mm 0,0 UV-I 0 W/m 10,0 C 11,4 C 3,2 km/h (1 Bft) 91,30 %
19.05.2018 02:59 11,4 C 16,7 C 91 % 1017,2 hPa 0,0 l/m 2,2 km/h (1 Bft) SW 215 0 min 0,000 mm 0,0 UV-I 0 W/m 10,0 C 11,4 C 3,2 km/h (1 Bft) 100,00 %
19.05.2018 03:00 11,3 C 16,7 C 92 % 1017,1 hPa 0,0 l/m 1,3 km/h (1 Bft) SW 215 0 min 0,000 mm 0,0 UV-I 0 W/m 10,0 C 11,3 C 3,2 km/h (1 Bft) 95,65 %
19.05.2018 03:01 11,3 C 16,7 C 92 % 1017,1 hPa 0,0 l/m 2,4 km/h (1 Bft) O-SO 103 0 min 0,000 mm 0,0 UV-I 0 W/m 10,0 C 11,3 C 6,4 km/h (2 Bft) 100,00 %
19.05.2018 03:02 11,3 C 16,7 C 92 % 1017,1 hPa 0,0 l/m 5,2 km/h (1 Bft) O-SO 103 0 min 0,000 mm 0,0 UV-I 0 W/m 10,0 C 11,3 C 6,4 km/h (2 Bft) 91,30 %
19.05.2018 03:03 11,3 C 16,7 C 92 % 1017,1 hPa 0,0 l/m 5,9 km/h (2 Bft) O-SO 103 0 min 0,000 mm 0,0 UV-I 0 W/m 10,0 C 11,3 C 9,7 km/h (2 Bft) 100,00 %
19.05.2018 03:04 11,3 C 16,7 C 92 % 1017,1 hPa 0,0 l/m 4,3 km/h (1 Bft) O-SO 103 0 min 0,000 mm 0,0 UV-I 0 W/m 10,0 C 11,3 C 6,4 km/h (2 Bft) 95,65 %
19.05.2018 03:05 11,3 C 16,7 C 92 % 1017,1 hPa 0,0 l/m 3,4 km/h (1 Bft) O-SO 103 0 min 0,000 mm 0,0 UV-I 0 W/m 10,0 C 11,3 C 4,8 km/h (1 Bft) 100,00 %
19.05.2018 03:06 11,3 C 16,7 C 92 % 1017,1 hPa 0,0 l/m 1,7 km/h (1 Bft) O-SO 103 0 min 0,000 mm 0,0 UV-I 0 W/m 10,0 C 11,3 C 3,2 km/h (1 Bft) 95,65 %
19.05.2018 03:07 11,3 C 16,7 C 92 % 1017,1 hPa 0,0 l/m 0,3 km/h (0 Bft) O-SO 103 0 min 0,000 mm 0,0 UV-I 0 W/m 10,0 C 11,3 C 1,6 km/h (1 Bft) 95,83 %
19.05.2018 03:08 11,3 C 16,7 C 92 % 1017,1 hPa 0,0 l/m 1,3 km/h (1 Bft) O-SO 103 0 min 0,000 mm 0,0 UV-I 0 W/m 10,0 C 11,3 C 3,2 km/h (1 Bft) 100,00 %
19.05.2018 03:09 11,3 C 16,7 C 92 % 1017,2 hPa 0,0 l/m 1,3 km/h (1 Bft) O-SO 103 0 min 0,000 mm 0,0 UV-I 0 W/m 10,0 C 11,3 C 1,6 km/h (1 Bft) 91,67 %
19.05.2018 03:10 11,3 C 16,7 C 93 % 1017,1 hPa 0,0 l/m 1,7 km/h (1 Bft) O-SO 103 0 min 0,000 mm 0,0 UV-I 0 W/m 10,2 C 11,3 C 3,2 km/h (1 Bft) 95,65 %
19.05.2018 03:11 11,3 C 16,7 C 92 % 1017,1 hPa 0,0 l/m 1,9 km/h (1 Bft) O-SO 103 0 min 0,000 mm 0,0 UV-I 0 W/m 10,0 C 11,3 C 3,2 km/h (1 Bft) 95,83 %
19.05.2018 03:12 11,3 C 16,7 C 92 % 1017,1 hPa 0,0 l/m 4,3 km/h (1 Bft) O-SO 103 0 min 0,000 mm 0,0 UV-I 0 W/m 10,0 C 11,3 C 4,8 km/h (1 Bft) 100,00 %
19.05.2018 03:13 11,3 C 16,7 C 92 % 1017,1 hPa 0,0 l/m 3,7 km/h (1 Bft) O-SO 103 0 min 0,000 mm 0,0 UV-I 0 W/m 10,0 C 11,3 C 4,8 km/h (1 Bft) 95,83 %
19.05.2018 03:14 11,3 C 16,7 C 92 % 1017,1 hPa 0,0 l/m 3,7 km/h (1 Bft) SO 130 0 min 0,000 mm 0,0 UV-I 0 W/m 10,0 C 11,3 C 4,8 km/h (1 Bft) 100,00 %
19.05.2018 03:15 11,4 C 16,7 C 92 % 1017,1 hPa 0,0 l/m 5,2 km/h (1 Bft) SO 138 0 min 0,000 mm 0,0 UV-I 0 W/m 10,1 C 11,4 C 8,0 km/h (2 Bft) 95,83 %
19.05.2018 03:16 11,4 C 16,7 C 92 % 1017,1 hPa 0,0 l/m 5,9 km/h (2 Bft) S-SO 167 0 min 0,000 mm 0,0 UV-I 0 W/m 10,1 C 11,4 C 8,0 km/h (2 Bft) 95,65 %
19.05.2018 03:17 11,3 C 16,7 C 92 % 1017,1 hPa 0,0 l/m 7,1 km/h (2 Bft) S-SO 157 0 min 0,000 mm 0,0 UV-I 0 W/m 10,0 C 10,8 C 9,7 km/h (2 Bft) 95,83 %
19.05.2018 03:18 11,3 C 16,7 C 92 % 1017,1 hPa 0,0 l/m 5,8 km/h (2 Bft) S 179 0 min 0,000 mm 0,0 UV-I 0 W/m 10,0 C 11,3 C 8,0 km/h (2 Bft) 100,00 %
19.05.2018 03:19 11,2 C 16,7 C 92 % 1017,0 hPa 0,0 l/m 6,0 km/h (2 Bft) S-SO 161 0 min 0,000 mm 0,0 UV-I 0 W/m 9,9 C 11,2 C 8,0 km/h (2 Bft) 97,14 %
19.05.2018 03:20 11,2 C 16,7 C 92 % 1017,0 hPa 0,0 l/m 4,6 km/h (1 Bft) S-SO 164 0 min 0,000 mm 0,0 UV-I 0 W/m 9,9 C 11,2 C 6,4 km/h (2 Bft) 91,67 %
19.05.2018 03:21 11,2 C 16,7 C 92 % 1017,0 hPa 0,0 l/m 4,8 km/h (1 Bft) S-SO 162 0 min 0,000 mm 0,0 UV-I 0 W/m 9,9 C 11,2 C 8,0 km/h (2 Bft) 100,00 %
19.05.2018 03:22 11,2 C 16,7 C 92 % 1017,0 hPa 0,0 l/m 4,3 km/h (1 Bft) S-SO 161 0 min 0,000 mm 0,0 UV-I 0 W/m 9,9 C 11,2 C 6,4 km/h (2 Bft) 87,50 %
19.05.2018 03:23 11,2 C 16,7 C 92 % 1017,0 hPa 0,0 l/m 6,4 km/h (2 Bft) S-SO 167 0 min 0,000 mm 0,0 UV-I 0 W/m 9,9 C 11,2 C 9,7 km/h (2 Bft) 100,00 %
19.05.2018 03:24 11,2 C 16,7 C 92 % 1017,0 hPa 0,0 l/m 6,4 km/h (2 Bft) S 173 0 min 0,000 mm 0,0 UV-I 0 W/m 9,9 C 11,2 C 8,0 km/h (2 Bft) 91,67 %
19.05.2018 03:25 11,2 C 16,7 C 92 % 1017,0 hPa 0,0 l/m 4,4 km/h (1 Bft) S 169 0 min 0,000 mm 0,0 UV-I 0 W/m 9,9 C 11,2 C 8,0 km/h (2 Bft) 100,00 %
19.05.2018 03:26 11,2 C 16,7 C 92 % 1017,0 hPa 0,0 l/m 6,1 km/h (2 Bft) S-SO 162 0 min 0,000 mm 0,0 UV-I 0 W/m 9,9 C 11,2 C 8,0 km/h (2 Bft) 95,83 %
19.05.2018 03:27 11,1 C 16,7 C 92 % 1017,0 hPa 0,0 l/m 5,5 km/h (1 Bft) S-SO 162 0 min 0,000 mm 0,0 UV-I 0 W/m 9,8 C 11,1 C 8,0 km/h (2 Bft) 100,00 %
19.05.2018 03:28 11,1 C 16,7 C 92 % 1017,0 hPa 0,0 l/m 3,0 km/h (1 Bft) S-SO 162 0 min 0,000 mm 0,0 UV-I 0 W/m 9,8 C 11,1 C 6,4 km/h (2 Bft) 91,67 %
19.05.2018 03:29 11,1 C 16,7 C 93 % 1017,0 hPa 0,0 l/m 2,7 km/h (1 Bft) S-SO 164 0 min 0,000 mm 0,0 UV-I 0 W/m 10,0 C 11,1 C 6,4 km/h (2 Bft) 92,31 %
19.05.2018 03:30 11,2 C 16,7 C 93 % 1017,0 hPa 0,0 l/m 1,6 km/h (1 Bft) S 180 0 min 0,000 mm 0,0 UV-I 0 W/m 10,1 C 11,2 C 4,8 km/h (1 Bft) 100,00 %
19.05.2018 03:31 11,2 C 16,7 C 93 % 1017,0 hPa 0,0 l/m 3,6 km/h (1 Bft) SW 223 0 min 0,000 mm 0,0 UV-I 0 W/m 10,1 C 11,2 C 6,4 km/h (2 Bft) 91,30 %
19.05.2018 03:32 11,2 C 16,7 C 93 % 1016,9 hPa 0,0 l/m 3,5 km/h (1 Bft) SW 223 0 min 0,000 mm 0,0 UV-I 0 W/m 10,1 C 11,2 C 4,8 km/h (1 Bft) 100,00 %
19.05.2018 03:33 11,2 C 16,7 C 92 % 1017,0 hPa 0,0 l/m 2,9 km/h (1 Bft) SW 223 0 min 0,000 mm 0,0 UV-I 0 W/m 9,9 C 11,2 C 3,2 km/h (1 Bft) 91,30 %
19.05.2018 03:34 11,2 C 16,7 C 92 % 1016,9 hPa 0,0 l/m 3,4 km/h (1 Bft) SW 224 0 min 0,000 mm 0,0 UV-I 0 W/m 9,9 C 11,2 C 4,8 km/h (1 Bft) 100,00 %
19.05.2018 03:35 11,2 C 16,7 C 92 % 1017,0 hPa 0,0 l/m 2,5 km/h (1 Bft) SW 224 0 min 0,000 mm 0,0 UV-I 0 W/m 9,9 C 11,2 C 3,2 km/h (1 Bft) 91,30 %
19.05.2018 03:36 11,2 C 16,7 C 92 % 1017,0 hPa 0,0 l/m 3,3 km/h (1 Bft) SW 224 0 min 0,000 mm 0,0 UV-I 0 W/m 9,9 C 11,2 C 4,8 km/h (1 Bft) 95,83 %
19.05.2018 03:37 11,2 C 16,7 C 92 % 1016,9 hPa 0,0 l/m 3,1 km/h (1 Bft) SW 224 0 min 0,000 mm 0,0 UV-I 0 W/m 9,9 C 11,2 C 4,8 km/h (1 Bft) 95,65 %
19.05.2018 03:38 11,1 C 16,7 C 93 % 1016,9 hPa 0,0 l/m 4,8 km/h (1 Bft) W 261 0 min 0,000 mm 0,0 UV-I 0 W/m 10,0 C 11,1 C 6,4 km/h (2 Bft) 92,59 %
19.05.2018 03:39 11,1 C 16,7 C 93 % 1016,9 hPa 0,0 l/m 4,9 km/h (1 Bft) W 263 0 min 0,000 mm 0,0 UV-I 0 W/m 10,0 C 11,1 C 6,4 km/h (2 Bft) 100,00 %
19.05.2018 03:40 11,1 C 16,7 C 93 % 1016,9 hPa 0,0 l/m 3,7 km/h (1 Bft) W 263 0 min 0,000 mm 0,0 UV-I 0 W/m 10,0 C 11,1 C 4,8 km/h (1 Bft) 91,67 %
19.05.2018 03:41 11,1 C 16,7 C 93 % 1016,9 hPa 0,0 l/m 3,3 km/h (1 Bft) W 263 0 min 0,000 mm 0,0 UV-I 0 W/m 10,0 C 11,1 C 4,8 km/h (1 Bft) 95,83 %
19.05.2018 03:42 11,1 C 16,7 C 93 % 1016,9 hPa 0,0 l/m 2,0 km/h (1 Bft) W 263 0 min 0,000 mm 0,0 UV-I 0 W/m 10,0 C 11,1 C 4,8 km/h (1 Bft) 95,65 %
19.05.2018 03:43 11,0 C 16,7 C 93 % 1016,9 hPa 0,0 l/m 0,1 km/h (0 Bft) W 263 0 min 0,000 mm 0,0 UV-I 0 W/m 9,9 C 11,0 C 1,6 km/h (1 Bft) 96,30 %
19.05.2018 03:44 11,0 C 16,7 C 93 % 1016,9 hPa 0,0 l/m 1,4 km/h (1 Bft) W 263 0 min 0,000 mm 0,0 UV-I 0 W/m 9,9 C 11,0 C 3,2 km/h (1 Bft) 91,30 %
19.05.2018 03:45 11,0 C 16,7 C 93 % 1016,9 hPa 0,0 l/m 1,2 km/h (1 Bft) W 263 0 min 0,000 mm 0,0 UV-I 0 W/m 9,9 C 11,0 C 3,2 km/h (1 Bft) 100,00 %
19.05.2018 03:50 11,1 C 16,7 C 93 % 1016,8 hPa 0,0 l/m 0,0 km/h (0 Bft) W 270 0 min 0,000 mm 0,0 UV-I 0 W/m 10,0 C 11,1 C 3,2 km/h (1 Bft) 97,37 %
19.05.2018 03:55 11,0 C 16,7 C 93 % 1016,8 hPa 0,0 l/m 0,0 km/h (0 Bft) W 270 0 min 0,000 mm 0,0 UV-I 0 W/m 9,9 C 11,0 C 3,2 km/h (1 Bft) 97,37 %
19.05.2018 04:00 11,1 C 16,7 C 94 % 1016,7 hPa 0,0 l/m 3,2 km/h (1 Bft) W 270 0 min 0,000 mm 0,0 UV-I 0 W/m 10,2 C 11,1 C 4,8 km/h (1 Bft) 97,37 %
19.05.2018 04:05 11,0 C 16,7 C 94 % 1016,6 hPa 0,0 l/m 4,8 km/h (1 Bft) W-SW 247 0 min 0,000 mm 0,0 UV-I 0 W/m 10,1 C 11,0 C 8,0 km/h (2 Bft) 97,37 %
19.05.2018 04:10 10,9 C 16,7 C 94 % 1016,6 hPa 0,0 l/m 4,8 km/h (1 Bft) W-SW 247 0 min 0,000 mm 0,0 UV-I 0 W/m 10,0 C 10,9 C 6,4 km/h (2 Bft) 96,49 %
19.05.2018 04:15 11,0 C 16,7 C 94 % 1016,6 hPa 0,0 l/m 4,8 km/h (1 Bft) SW 225 0 min 0,000 mm 0,0 UV-I 0 W/m 10,1 C 11,0 C 8,0 km/h (2 Bft) 97,37 %
19.05.2018 04:20 11,1 C 16,7 C 94 % 1016,6 hPa 0,0 l/m 4,8 km/h (1 Bft) S 180 0 min 0,000 mm 0,0 UV-I 0 W/m 10,2 C 11,1 C 8,0 km/h (2 Bft) 97,37 %
19.05.2018 04:25 11,0 C 16,7 C 93 % 1016,7 hPa 0,0 l/m 9,7 km/h (2 Bft) SO 135 0 min 0,000 mm 0,0 UV-I 0 W/m 9,9 C 8,9 C 14,5 km/h (3 Bft) 97,37 %
19.05.2018 04:30 11,0 C 16,7 C 93 % 1016,8 hPa 0,0 l/m 6,4 km/h (2 Bft) O-SO 112 0 min 0,000 mm 0,0 UV-I 0 W/m 9,9 C 11,0 C 12,9 km/h (3 Bft) 100,00 %
19.05.2018 04:35 11,0 C 16,7 C 94 % 1016,7 hPa 0,0 l/m 3,2 km/h (1 Bft) S-SO 157 0 min 0,000 mm 0,0 UV-I 0 W/m 10,1 C 11,0 C 6,4 km/h (2 Bft) 100,00 %
19.05.2018 04:40 11,0 C 16,7 C 94 % 1016,7 hPa 0,0 l/m 1,6 km/h (1 Bft) S-SO 157 0 min 0,000 mm 0,0 UV-I 0 W/m 10,1 C 11,0 C 4,8 km/h (1 Bft) 99,12 %
19.05.2018 04:45 10,9 C 16,7 C 94 % 1016,6 hPa 0,0 l/m 3,2 km/h (1 Bft) S 180 0 min 0,000 mm 0,0 UV-I 0 W/m 10,0 C 10,9 C 4,8 km/h (1 Bft) 100,00 %
19.05.2018 04:50 10,9 C 16,7 C 94 % 1016,6 hPa 0,0 l/m 3,2 km/h (1 Bft) S 180 0 min 0,000 mm 0,0 UV-I 0 W/m 10,0 C 10,9 C 4,8 km/h (1 Bft) 99,12 %
19.05.2018 04:55 10,8 C 16,7 C 94 % 1016,7 hPa 0,0 l/m 4,8 km/h (1 Bft) S-SO 157 0 min 0,000 mm 0,0 UV-I 0 W/m 9,9 C 10,8 C 8,0 km/h (2 Bft) 98,25 %
19.05.2018 05:00 10,8 C 16,7 C 94 % 1016,7 hPa 0,0 l/m 4,8 km/h (1 Bft) S-SO 157 0 min 0,000 mm 0,0 UV-I 0 W/m 9,9 C 10,8 C 8,0 km/h (2 Bft) 96,49 %
19.05.2018 05:05 10,8 C 16,7 C 94 % 1016,7 hPa 0,0 l/m 0,0 km/h (0 Bft) S-SO 157 0 min 0,000 mm 0,0 UV-I 0 W/m 9,9 C 10,8 C 3,2 km/h (1 Bft) 97,37 %
19.05.2018 05:10 10,8 C 16,7 C 94 % 1016,8 hPa 0,0 l/m 3,2 km/h (1 Bft) S-SO 157 0 min 0,000 mm 0,0 UV-I 3 W/m 9,9 C 10,8 C 6,4 km/h (2 Bft) 98,25 %
19.05.2018 05:15 10,8 C 16,7 C 94 % 1016,9 hPa 0,0 l/m 3,2 km/h (1 Bft) S-SO 157 0 min 0,000 mm 0,0 UV-I 5 W/m 9,9 C 10,8 C 6,4 km/h (2 Bft) 100,00 %
19.05.2018 05:20 10,9 C 16,7 C 93 % 1016,8 hPa 0,0 l/m 3,2 km/h (1 Bft) S-SO 157 0 min 0,000 mm 0,0 UV-I 9 W/m 9,8 C 10,9 C 6,4 km/h (2 Bft) 100,00 %
19.05.2018 05:25 10,9 C 16,7 C 93 % 1016,7 hPa 0,0 l/m 4,8 km/h (1 Bft) S 180 0 min 0,000 mm 0,0 UV-I 13 W/m 9,8 C 10,9 C 8,0 km/h (2 Bft) 100,00 %
19.05.2018 05:30 10,8 C 16,7 C 94 % 1016,7 hPa 0,0 l/m 1,6 km/h (1 Bft) S 180 0 min 0,000 mm 0,0 UV-I 18 W/m 9,9 C 10,8 C 3,2 km/h (1 Bft) 100,00 %
19.05.2018 05:35 10,8 C 16,7 C 94 % 1016,7 hPa 0,0 l/m 1,6 km/h (1 Bft) S 180 5 min 0,000 mm 0,0 UV-I 22 W/m 9,9 C 10,8 C 4,8 km/h (1 Bft) 100,00 %
19.05.2018 05:40 10,9 C 16,7 C 94 % 1016,8 hPa 0,0 l/m 1,6 km/h (1 Bft) S 180 5 min 0,000 mm 0,0 UV-I 29 W/m 10,0 C 10,9 C 4,8 km/h (1 Bft) 100,00 %
19.05.2018 05:45 10,9 C 16,7 C 93 % 1016,8 hPa 0,0 l/m 0,0 km/h (0 Bft) S 180 5 min 0,000 mm 0,0 UV-I 36 W/m 9,8 C 10,9 C 1,6 km/h (1 Bft) 100,00 %
19.05.2018 05:50 10,7 C 16,7 C 94 % 1016,9 hPa 0,0 l/m 3,2 km/h (1 Bft) S 180 5 min 0,000 mm 0,0 UV-I 43 W/m 9,8 C 10,7 C 3,2 km/h (1 Bft) 99,12 %
19.05.2018 05:55 10,6 C 16,7 C 95 % 1016,9 hPa 0,0 l/m 1,6 km/h (1 Bft) S 180 5 min 0,000 mm 0,0 UV-I 54 W/m 9,8 C 10,6 C 3,2 km/h (1 Bft) 99,12 %
19.05.2018 06:00 10,7 C 16,7 C 95 % 1016,9 hPa 0,0 l/m 0,0 km/h (0 Bft) S 180 5 min 0,025 mm 0,0 UV-I 67 W/m 9,9 C 10,7 C 3,2 km/h (1 Bft) 97,37 %
19.05.2018 06:05 10,8 C 16,7 C 95 % 1017,0 hPa 0,0 l/m 1,6 km/h (1 Bft) S 180 5 min 0,000 mm 0,0 UV-I 82 W/m 10,0 C 10,8 C 3,2 km/h (1 Bft) 97,37 %
19.05.2018 06:10 10,9 C 16,7 C 94 % 1017,1 hPa 0,0 l/m 0,0 km/h (0 Bft) S 180 5 min 0,000 mm 0,0 UV-I 88 W/m 10,0 C 10,9 C 1,6 km/h (1 Bft) 95,61 %
19.05.2018 06:15 11,1 C 16,7 C 94 % 1017,2 hPa 0,0 l/m 0,0 km/h (0 Bft) N 0 5 min 0,000 mm 0,0 UV-I 96 W/m 10,2 C 11,1 C 0,0 km/h (0 Bft) 94,74 %
19.05.2018 06:20 11,2 C 16,7 C 94 % 1017,2 hPa 0,0 l/m 1,6 km/h (1 Bft) S 180 5 min 0,000 mm 0,0 UV-I 103 W/m 10,3 C 11,2 C 3,2 km/h (1 Bft) 93,86 %
19.05.2018 06:25 11,2 C 16,7 C 94 % 1017,2 hPa 0,0 l/m 1,6 km/h (1 Bft) S 180 5 min 0,000 mm 0,0 UV-I 128 W/m 10,3 C 11,2 C 3,2 km/h (1 Bft) 93,86 %
19.05.2018 06:30 11,2 C 16,7 C 94 % 1017,2 hPa 0,0 l/m 1,6 km/h (1 Bft) S 180 5 min 0,000 mm 0,0 UV-I 98 W/m 10,3 C 11,2 C 4,8 km/h (1 Bft) 94,74 %
19.05.2018 06:35 11,1 C 16,7 C 94 % 1017,3 hPa 0,0 l/m 6,4 km/h (2 Bft) O-NO 67 5 min 0,000 mm 0,0 UV-I 100 W/m 10,2 C 11,1 C 9,7 km/h (2 Bft) 100,00 %
19.05.2018 06:40 11,1 C 16,7 C 94 % 1017,3 hPa 0,0 l/m 4,8 km/h (1 Bft) O-NO 67 0 min 0,000 mm 0,0 UV-I 103 W/m 10,2 C 11,1 C 9,7 km/h (2 Bft) 100,00 %
19.05.2018 06:45 11,1 C 16,7 C 95 % 1017,2 hPa 0,0 l/m 0,0 km/h (0 Bft) O-NO 67 0 min 0,000 mm 0,0 UV-I 72 W/m 10,3 C 11,1 C 1,6 km/h (1 Bft) 99,12 %
19.05.2018 06:50 11,1 C 16,7 C 94 % 1017,4 hPa 0,0 l/m 0,0 km/h (0 Bft) N 0 0 min 0,000 mm 0,0 UV-I 66 W/m 10,2 C 11,1 C 0,0 km/h (0 Bft) 100,00 %
19.05.2018 06:55 11,1 C 16,7 C 94 % 1017,4 hPa 0,0 l/m 1,6 km/h (1 Bft) O-NO 67 0 min 0,000 mm 0,0 UV-I 69 W/m 10,2 C 11,1 C 3,2 km/h (1 Bft) 99,12 %
19.05.2018 07:00 11,1 C 16,7 C 94 % 1017,4 hPa 0,0 l/m 1,6 km/h (1 Bft) O-NO 67 0 min 0,051 mm 0,0 UV-I 107 W/m 10,2 C 11,1 C 3,2 km/h (1 Bft) 100,00 %
19.05.2018 07:05 11,2 C 16,7 C 94 % 1017,5 hPa 0,0 l/m 1,6 km/h (1 Bft) O-NO 67 0 min 0,000 mm 0,0 UV-I 103 W/m 10,3 C 11,2 C 3,2 km/h (1 Bft) 99,12 %
19.05.2018 07:10 11,4 C 16,7 C 95 % 1017,5 hPa 0,0 l/m 0,0 km/h (0 Bft) N 0 5 min 0,000 mm 0,0 UV-I 179 W/m 10,6 C 11,4 C 0,0 km/h (0 Bft) 99,12 %
19.05.2018 07:15 11,8 C 16,7 C 94 % 1017,4 hPa 0,0 l/m 0,0 km/h (0 Bft) O-NO 67 5 min 0,000 mm 0,0 UV-I 232 W/m 10,9 C 11,8 C 1,6 km/h (1 Bft) 100,00 %
19.05.2018 07:20 12,0 C 16,7 C 93 % 1017,4 hPa 0,0 l/m 1,6 km/h (1 Bft) O-NO 67 5 min 0,000 mm 0,0 UV-I 250 W/m 10,9 C 12,0 C 4,8 km/h (1 Bft) 100,00 %
19.05.2018 07:25 12,2 C 16,7 C 92 % 1017,5 hPa 0,0 l/m 1,6 km/h (1 Bft) S-SW 202 5 min 0,000 mm 0,0 UV-I 263 W/m 10,9 C 12,2 C 4,8 km/h (1 Bft) 100,00 %
19.05.2018 07:30 12,6 C 16,7 C 91 % 1017,5 hPa 0,0 l/m 3,2 km/h (1 Bft) SO 135 5 min 0,000 mm 0,0 UV-I 282 W/m 11,2 C 12,6 C 6,4 km/h (2 Bft) 97,37 %
19.05.2018 07:35 12,8 C 16,7 C 91 % 1017,5 hPa 0,0 l/m 4,8 km/h (1 Bft) SO 135 5 min 0,000 mm 0,5 UV-I 287 W/m 11,4 C 12,8 C 8,0 km/h (2 Bft) 98,25 %
19.05.2018 07:40 12,9 C 16,7 C 89 % 1017,5 hPa 0,0 l/m 6,4 km/h (2 Bft) O-NO 67 5 min 0,000 mm 0,5 UV-I 297 W/m 11,1 C 12,9 C 11,3 km/h (2 Bft) 98,25 %
19.05.2018 07:45 12,9 C 16,7 C 89 % 1017,6 hPa 0,0 l/m 6,4 km/h (2 Bft) O 90 5 min 0,000 mm 0,6 UV-I 312 W/m 11,1 C 12,9 C 9,7 km/h (2 Bft) 97,37 %
19.05.2018 07:50 13,2 C 16,7 C 89 % 1017,6 hPa 0,0 l/m 4,8 km/h (1 Bft) O 90 5 min 0,000 mm 0,6 UV-I 326 W/m 11,4 C 13,2 C 9,7 km/h (2 Bft) 99,12 %
19.05.2018 07:55 13,3 C 16,7 C 89 % 1017,6 hPa 0,0 l/m 4,8 km/h (1 Bft) O 90 5 min 0,000 mm 0,7 UV-I 345 W/m 11,5 C 13,3 C 9,7 km/h (2 Bft) 97,37 %
19.05.2018 08:00 13,4 C 16,7 C 88 % 1017,7 hPa 0,0 l/m 4,8 km/h (1 Bft) O 90 5 min 0,127 mm 0,7 UV-I 354 W/m 11,5 C 13,4 C 9,7 km/h (2 Bft) 98,25 %
19.05.2018 08:05 13,6 C 16,7 C 88 % 1017,8 hPa 0,0 l/m 9,7 km/h (2 Bft) O 90 5 min 0,000 mm 0,7 UV-I 364 W/m 11,6 C 11,7 C 14,5 km/h (3 Bft) 96,49 %
19.05.2018 08:10 13,7 C 16,7 C 87 % 1017,7 hPa 0,0 l/m 9,7 km/h (2 Bft) O 90 5 min 0,000 mm 0,8 UV-I 375 W/m 11,6 C 11,8 C 14,5 km/h (3 Bft) 98,25 %
19.05.2018 08:15 13,9 C 16,7 C 86 % 1017,7 hPa 0,0 l/m 6,4 km/h (2 Bft) O 90 5 min 0,000 mm 0,8 UV-I 385 W/m 11,6 C 13,9 C 12,9 km/h (3 Bft) 98,25 %
19.05.2018 08:20 13,9 C 16,7 C 87 % 1017,8 hPa 0,0 l/m 8,0 km/h (2 Bft) O 90 5 min 0,000 mm 0,9 UV-I 396 W/m 11,8 C 12,9 C 14,5 km/h (3 Bft) 97,37 %
19.05.2018 08:25 14,1 C 16,7 C 86 % 1017,8 hPa 0,0 l/m 9,7 km/h (2 Bft) O 90 5 min 0,000 mm 1,0 UV-I 412 W/m 11,8 C 12,3 C 16,1 km/h (3 Bft) 97,37 %
19.05.2018 08:30 14,3 C 16,7 C 85 % 1017,8 hPa 0,0 l/m 9,7 km/h (2 Bft) O 90 5 min 0,000 mm 1,0 UV-I 405 W/m 11,8 C 12,5 C 14,5 km/h (3 Bft) 99,12 %
19.05.2018 08:35 14,4 C 16,7 C 84 % 1017,9 hPa 0,0 l/m 9,7 km/h (2 Bft) O 90 5 min 0,000 mm 1,1 UV-I 447 W/m 11,7 C 12,6 C 12,9 km/h (3 Bft) 100,00 %
19.05.2018 08:40 14,7 C 16,7 C 84 % 1017,9 hPa 0,0 l/m 9,7 km/h (2 Bft) O-NO 67 5 min 0,000 mm 1,1 UV-I 452 W/m 12,0 C 12,9 C 16,1 km/h (3 Bft) 97,37 %
19.05.2018 08:45 14,8 C 16,7 C 82 % 1017,8 hPa 0,0 l/m 11,3 km/h (2 Bft) O-NO 67 5 min 0,000 mm 1,2 UV-I 472 W/m 11,8 C 12,3 C 16,1 km/h (3 Bft) 98,25 %
19.05.2018 08:50 14,9 C 16,7 C 82 % 1017,9 hPa 0,0 l/m 8,0 km/h (2 Bft) O-NO 67 5 min 0,000 mm 1,3 UV-I 492 W/m 11,9 C 14,0 C 14,5 km/h (3 Bft) 97,37 %
19.05.2018 08:55 14,8 C 16,7 C 83 % 1017,9 hPa 0,0 l/m 8,0 km/h (2 Bft) O-NO 67 5 min 0,000 mm 1,3 UV-I 495 W/m 11,9 C 13,9 C 12,9 km/h (3 Bft) 98,25 %
19.05.2018 09:00 15,0 C 16,7 C 82 % 1017,8 hPa 0,0 l/m 6,4 km/h (2 Bft) O 90 5 min 0,229 mm 1,4 UV-I 517 W/m 12,0 C 15,0 C 12,9 km/h (3 Bft) 99,12 %
19.05.2018 09:05 15,1 C 16,7 C 79 % 1017,9 hPa 0,0 l/m 9,7 km/h (2 Bft) NO 45 5 min 0,000 mm 1,5 UV-I 532 W/m 11,5 C 13,4 C 14,5 km/h (3 Bft) 82,46 %
19.05.2018 09:10 15,3 C 16,7 C 80 % 1017,8 hPa 0,0 l/m 8,0 km/h (2 Bft) O-NO 67 5 min 0,000 mm 1,6 UV-I 541 W/m 11,9 C 14,4 C 14,5 km/h (3 Bft) 88,60 %
19.05.2018 09:13 15,4 C 16,7 C 79 % 1017,8 hPa 0,0 l/m 9,1 km/h (2 Bft) O-NO 77 3 min 0,000 mm 1,6 UV-I 550 W/m 11,8 C 14,0 C 9,7 km/h (2 Bft) 100,00 %
19.05.2018 09:14 15,4 C 16,7 C 78 % 1017,8 hPa 0,0 l/m 6,5 km/h (2 Bft) N-NO 30 1 min 0,000 mm 1,7 UV-I 553 W/m 11,6 C 15,4 C 9,7 km/h (2 Bft) 96,15 %
19.05.2018 09:15 15,5 C 16,7 C 81 % 1017,8 hPa 0,0 l/m 11,5 km/h (2 Bft) NO 42 1 min 0,000 mm 1,7 UV-I 556 W/m 12,3 C 13,0 C 14,5 km/h (3 Bft) 92,59 %
19.05.2018 09:16 15,6 C 16,7 C 81 % 1017,8 hPa 0,0 l/m 11,4 km/h (2 Bft) N-NO 12 1 min 0,000 mm 1,7 UV-I 555 W/m 12,3 C 13,2 C 14,5 km/h (3 Bft) 100,00 %
19.05.2018 09:17 15,6 C 16,7 C 79 % 1017,8 hPa 0,0 l/m 8,9 km/h (2 Bft) NO 36 1 min 0,000 mm 1,7 UV-I 560 W/m 12,0 C 14,3 C 11,3 km/h (2 Bft) 93,33 %
19.05.2018 09:18 15,6 C 16,7 C 79 % 1017,8 hPa 0,0 l/m 7,5 km/h (2 Bft) NO 51 1 min 0,000 mm 1,7 UV-I 563 W/m 12,0 C 15,0 C 9,7 km/h (2 Bft) 100,00 %
19.05.2018 09:19 15,5 C 16,7 C 79 % 1017,8 hPa 0,0 l/m 7,9 km/h (2 Bft) N-NO 26 1 min 0,000 mm 1,7 UV-I 566 W/m 11,9 C 14,7 C 12,9 km/h (3 Bft) 95,65 %
19.05.2018 09:20 15,4 C 16,7 C 81 % 1017,8 hPa 0,0 l/m 7,5 km/h (2 Bft) N-NO 32 1 min 0,000 mm 1,7 UV-I 569 W/m 12,2 C 14,8 C 11,3 km/h (2 Bft) 96,30 %
19.05.2018 09:21 15,6 C 16,7 C 82 % 1017,8 hPa 0,0 l/m 7,6 km/h (2 Bft) NO 38 1 min 0,000 mm 1,8 UV-I 570 W/m 12,5 C 14,9 C 9,7 km/h (2 Bft) 95,65 %
19.05.2018 09:22 15,7 C 16,7 C 82 % 1017,8 hPa 0,0 l/m 6,4 km/h (2 Bft) N-NO 28 1 min 0,000 mm 1,8 UV-I 568 W/m 12,6 C 15,7 C 8,0 km/h (2 Bft) 100,00 %
19.05.2018 09:23 15,8 C 16,7 C 81 % 1017,8 hPa 0,0 l/m 6,2 km/h (2 Bft) N-NO 32 1 min 0,000 mm 1,8 UV-I 567 W/m 12,5 C 15,8 C 9,7 km/h (2 Bft) 96,15 %
19.05.2018 09:24 15,8 C 16,7 C 81 % 1017,8 hPa 0,0 l/m 13,1 km/h (3 Bft) N-NO 32 1 min 0,000 mm 1,8 UV-I 571 W/m 12,5 C 12,8 C 16,1 km/h (3 Bft) 100,00 %
19.05.2018 09:25 15,8 C 16,7 C 80 % 1017,7 hPa 0,0 l/m 9,5 km/h (2 Bft) N-NO 29 1 min 0,000 mm 1,8 UV-I 572 W/m 12,4 C 14,2 C 16,1 km/h (3 Bft) 95,65 %
19.05.2018 09:26 15,8 C 16,7 C 80 % 1017,8 hPa 0,0 l/m 11,0 km/h (2 Bft) O-NO 67 1 min 0,000 mm 1,8 UV-I 576 W/m 12,4 C 13,6 C 16,1 km/h (3 Bft) 95,83 %
19.05.2018 09:27 15,8 C 16,7 C 79 % 1017,8 hPa 0,0 l/m 11,6 km/h (2 Bft) O 101 1 min 0,000 mm 1,8 UV-I 577 W/m 12,2 C 13,3 C 14,5 km/h (3 Bft) 100,00 %
19.05.2018 09:28 15,8 C 16,7 C 80 % 1017,8 hPa 0,0 l/m 11,5 km/h (2 Bft) NO 36 1 min 0,000 mm 1,8 UV-I 575 W/m 12,4 C 13,4 C 16,1 km/h (3 Bft) 96,30 %
19.05.2018 09:29 15,9 C 16,7 C 80 % 1017,8 hPa 0,0 l/m 7,3 km/h (2 Bft) NO 42 1 min 0,000 mm 1,9 UV-I 580 W/m 12,5 C 15,4 C 11,3 km/h (2 Bft) 93,33 %
19.05.2018 09:30 16,0 C 16,7 C 80 % 1017,8 hPa 0,0 l/m 7,3 km/h (2 Bft) N-NO 30 1 min 0,000 mm 1,9 UV-I 581 W/m 12,5 C 15,5 C 9,7 km/h (2 Bft) 92,31 %
19.05.2018 09:31 16,1 C 16,7 C 79 % 1017,8 hPa 0,0 l/m 9,9 km/h (2 Bft) O-NO 64 1 min 0,000 mm 1,9 UV-I 583 W/m 12,5 C 14,4 C 14,5 km/h (3 Bft) 100,00 %
19.05.2018 09:32 16,1 C 16,7 C 80 % 1017,8 hPa 0,0 l/m 10,0 km/h (2 Bft) NO 46 1 min 0,000 mm 1,9 UV-I 588 W/m 12,6 C 14,3 C 14,5 km/h (3 Bft) 96,67 %
19.05.2018 09:33 16,1 C 16,7 C 78 % 1017,8 hPa 0,0 l/m 8,8 km/h (2 Bft) O-NO 69 1 min 0,000 mm 1,9 UV-I 591 W/m 12,3 C 14,9 C 12,9 km/h (3 Bft) 95,65 %
19.05.2018 09:34 16,0 C 16,7 C 77 % 1017,8 hPa 0,0 l/m 9,6 km/h (2 Bft) O 80 1 min 0,000 mm 1,9 UV-I 598 W/m 12,0 C 14,4 C 12,9 km/h (3 Bft) 100,00 %
19.05.2018 09:35 15,9 C 16,7 C 77 % 1017,8 hPa 0,0 l/m 8,3 km/h (2 Bft) O 88 1 min 0,000 mm 2,0 UV-I 597 W/m 11,9 C 14,9 C 11,3 km/h (2 Bft) 96,30 %
19.05.2018 09:36 15,9 C 16,7 C 77 % 1017,8 hPa 0,0 l/m 7,6 km/h (2 Bft) NO 43 1 min 0,000 mm 2,0 UV-I 600 W/m 11,9 C 15,3 C 11,3 km/h (2 Bft) 96,15 %
19.05.2018 09:37 16,0 C 16,7 C 78 % 1017,8 hPa 0,0 l/m 8,0 km/h (2 Bft) NO 37 1 min 0,000 mm 2,0 UV-I 603 W/m 12,2 C 15,2 C 11,3 km/h (2 Bft) 95,83 %
19.05.2018 09:38 16,2 C 16,7 C 80 % 1017,8 hPa 0,0 l/m 10,2 km/h (2 Bft) N-NO 31 1 min 0,000 mm 2,0 UV-I 605 W/m 12,7 C 14,4 C 14,5 km/h (3 Bft) 100,00 %
19.05.2018 09:39 16,3 C 16,7 C 80 % 1017,8 hPa 0,0 l/m 13,1 km/h (3 Bft) NO 36 1 min 0,000 mm 2,0 UV-I 606 W/m 12,8 C 13,4 C 16,1 km/h (3 Bft) 96,67 %
19.05.2018 09:40 16,3 C 16,7 C 78 % 1017,8 hPa 0,0 l/m 13,4 km/h (3 Bft) NO 43 1 min 0,000 mm 2,0 UV-I 608 W/m 12,5 C 13,3 C 16,1 km/h (3 Bft) 100,00 %
19.05.2018 09:41 16,2 C 16,7 C 77 % 1017,8 hPa 0,0 l/m 13,0 km/h (3 Bft) NO 44 1 min 0,000 mm 2,0 UV-I 607 W/m 12,2 C 13,3 C 14,5 km/h (3 Bft) 93,33 %
19.05.2018 09:42 16,2 C 16,7 C 77 % 1017,9 hPa 0,0 l/m 8,7 km/h (2 Bft) O-NO 66 1 min 0,000 mm 2,0 UV-I 606 W/m 12,2 C 15,0 C 9,7 km/h (2 Bft) 100,00 %
19.05.2018 09:43 16,2 C 16,7 C 79 % 1017,9 hPa 0,0 l/m 11,7 km/h (2 Bft) O 79 1 min 0,000 mm 2,1 UV-I 607 W/m 12,6 C 13,8 C 14,5 km/h (3 Bft) 100,00 %
19.05.2018 09:44 16,2 C 16,7 C 78 % 1017,9 hPa 0,0 l/m 15,6 km/h (3 Bft) O-NO 65 1 min 0,000 mm 2,1 UV-I 611 W/m 12,4 C 12,5 C 19,3 km/h (3 Bft) 100,00 %
19.05.2018 09:45 16,2 C 16,7 C 78 % 1017,9 hPa 0,0 l/m 10,1 km/h (2 Bft) O-NO 71 1 min 0,000 mm 2,1 UV-I 607 W/m 12,4 C 14,4 C 14,5 km/h (3 Bft) 100,00 %
19.05.2018 09:46 16,2 C 16,7 C 78 % 1017,9 hPa 0,0 l/m 12,9 km/h (3 Bft) NO 49 1 min 0,000 mm 2,1 UV-I 616 W/m 12,4 C 13,3 C 16,1 km/h (3 Bft) 100,00 %
19.05.2018 09:47 16,1 C 17,2 C 77 % 1017,8 hPa 0,0 l/m 12,3 km/h (3 Bft) NO 34 1 min 0,000 mm 2,1 UV-I 620 W/m 12,1 C 13,4 C 16,1 km/h (3 Bft) 100,00 %
19.05.2018 09:48 16,1 C 17,2 C 78 % 1017,8 hPa 0,0 l/m 10,9 km/h (2 Bft) O-NO 63 1 min 0,000 mm 2,1 UV-I 624 W/m 12,3 C 14,0 C 14,5 km/h (3 Bft) 96,15 %
19.05.2018 09:49 16,2 C 17,2 C 78 % 1017,9 hPa 0,0 l/m 8,6 km/h (2 Bft) NO 44 1 min 0,000 mm 2,2 UV-I 630 W/m 12,4 C 15,1 C 14,5 km/h (3 Bft) 100,00 %
19.05.2018 09:50 16,2 C 16,7 C 78 % 1017,9 hPa 0,0 l/m 7,7 km/h (2 Bft) O-NO 78 1 min 0,000 mm 2,2 UV-I 634 W/m 12,4 C 15,5 C 12,9 km/h (3 Bft) 95,65 %
19.05.2018 09:51 16,3 C 16,7 C 78 % 1017,8 hPa 0,0 l/m 9,7 km/h (2 Bft) N-NO 32 1 min 0,000 mm 2,2 UV-I 631 W/m 12,5 C 14,7 C 16,1 km/h (3 Bft) 100,00 %
19.05.2018 09:52 16,3 C 16,7 C 78 % 1017,8 hPa 0,0 l/m 13,4 km/h (3 Bft) NO 55 1 min 0,000 mm 2,2 UV-I 629 W/m 12,5 C 13,3 C 16,1 km/h (3 Bft) 93,10 %
19.05.2018 09:53 16,4 C 16,7 C 77 % 1017,9 hPa 0,0 l/m 7,4 km/h (2 Bft) NO 49 1 min 0,000 mm 2,2 UV-I 629 W/m 12,4 C 15,9 C 9,7 km/h (2 Bft) 100,00 %
19.05.2018 09:54 16,4 C 16,7 C 77 % 1017,8 hPa 0,0 l/m 10,9 km/h (2 Bft) N-NO 31 1 min 0,000 mm 2,2 UV-I 634 W/m 12,4 C 14,3 C 14,5 km/h (3 Bft) 92,59 %
19.05.2018 09:55 16,4 C 16,7 C 77 % 1017,9 hPa 0,0 l/m 11,3 km/h (2 Bft) NO 36 1 min 0,000 mm 2,3 UV-I 641 W/m 12,4 C 14,1 C 16,1 km/h (3 Bft) 96,15 %
19.05.2018 09:56 16,4 C 16,7 C 78 % 1017,9 hPa 0,0 l/m 10,1 km/h (2 Bft) NO 34 1 min 0,000 mm 2,3 UV-I 646 W/m 12,6 C 14,6 C 16,1 km/h (3 Bft) 100,00 %
19.05.2018 09:57 16,5 C 16,7 C 79 % 1017,9 hPa 0,0 l/m 10,6 km/h (2 Bft) NO 49 1 min 0,000 mm 2,3 UV-I 645 W/m 12,8 C 14,5 C 16,1 km/h (3 Bft) 92,86 %
19.05.2018 09:58 16,5 C 16,7 C 78 % 1017,9 hPa 0,0 l/m 14,9 km/h (3 Bft) O-NO 67 1 min 0,000 mm 2,3 UV-I 652 W/m 12,6 C 13,0 C 19,3 km/h (3 Bft) 100,00 %
19.05.2018 09:59 16,6 C 16,7 C 77 % 1017,9 hPa 0,0 l/m 10,1 km/h (2 Bft) NO 44 1 min 0,000 mm 2,3 UV-I 652 W/m 12,5 C 14,8 C 14,5 km/h (3 Bft) 96,15 %
19.05.2018 10:00 16,6 C 16,7 C 79 % 1017,9 hPa 0,0 l/m 10,8 km/h (2 Bft) NO 36 1 min 0,330 mm 2,3 UV-I 653 W/m 12,9 C 14,6 C 16,1 km/h (3 Bft) 100,00 %
19.05.2018 10:02 16,8 C 16,7 C 77 % 1017,8 hPa 0,0 l/m 8,5 km/h (2 Bft) N-NO 29 2 min 0,000 mm 2,3 UV-I 652 W/m 12,7 C 15,8 C 17,7 km/h (3 Bft) 98,21 %
19.05.2018 10:03 16,7 C 16,7 C 77 % 1017,9 hPa 0,0 l/m 8,9 km/h (2 Bft) NO 39 1 min 0,000 mm 2,4 UV-I 657 W/m 12,6 C 15,5 C 14,5 km/h (3 Bft) 90,91 %
19.05.2018 10:04 16,7 C 16,7 C 79 % 1017,9 hPa 0,0 l/m 13,0 km/h (3 Bft) NO 38 1 min 0,000 mm 2,4 UV-I 657 W/m 13,0 C 13,9 C 16,1 km/h (3 Bft) 100,00 %
19.05.2018 10:05 16,7 C 16,7 C 78 % 1017,8 hPa 0,0 l/m 13,4 km/h (3 Bft) N-NO 22 1 min 0,000 mm 2,4 UV-I 654 W/m 12,8 C 13,8 C 16,1 km/h (3 Bft) 96,15 %
19.05.2018 10:06 16,7 C 16,7 C 78 % 1017,8 hPa 0,0 l/m 11,2 km/h (2 Bft) N-NO 28 1 min 0,000 mm 2,4 UV-I 656 W/m 12,8 C 14,5 C 16,1 km/h (3 Bft) 91,67 %
19.05.2018 10:07 16,7 C 16,7 C 78 % 1017,8 hPa 0,0 l/m 9,9 km/h (2 Bft) NO 49 1 min 0,000 mm 2,4 UV-I 656 W/m 12,8 C 15,0 C 14,5 km/h (3 Bft) 100,00 %
19.05.2018 10:08 16,7 C 16,7 C 79 % 1017,8 hPa 0,0 l/m 6,8 km/h (2 Bft) O-NO 61 1 min 0,000 mm 2,4 UV-I 645 W/m 13,0 C 16,5 C 8,0 km/h (2 Bft) 91,67 %
19.05.2018 10:09 16,8 C 16,7 C 79 % 1017,8 hPa 0,0 l/m 12,9 km/h (3 Bft) N-NO 22 1 min 0,000 mm 2,4 UV-I 640 W/m 13,1 C 14,0 C 16,1 km/h (3 Bft) 100,00 %
19.05.2018 10:10 16,9 C 16,7 C 79 % 1017,8 hPa 0,0 l/m 12,6 km/h (3 Bft) NO 34 1 min 0,000 mm 2,5 UV-I 667 W/m 13,2 C 14,3 C 17,7 km/h (3 Bft) 96,15 %
19.05.2018 10:11 16,9 C 16,7 C 76 % 1017,9 hPa 0,0 l/m 5,4 km/h (1 Bft) NO 37 1 min 0,000 mm 2,5 UV-I 674 W/m 12,6 C 16,9 C 8,0 km/h (2 Bft) 100,00 %
19.05.2018 10:12 16,9 C 16,7 C 75 % 1017,9 hPa 0,0 l/m 5,7 km/h (1 Bft) O-NO 76 1 min 0,000 mm 2,5 UV-I 675 W/m 12,4 C 16,9 C 8,0 km/h (2 Bft) 97,22 %
19.05.2018 10:13 16,8 C 16,7 C 76 % 1017,9 hPa 0,0 l/m 6,7 km/h (2 Bft) NO 34 1 min 0,000 mm 2,6 UV-I 677 W/m 12,5 C 16,7 C 9,7 km/h (2 Bft) 97,62 %
19.05.2018 10:14 16,8 C 16,7 C 76 % 1017,9 hPa 0,0 l/m 6,0 km/h (2 Bft) O-SO 105 1 min 0,000 mm 2,6 UV-I 679 W/m 12,5 C 16,8 C 8,0 km/h (2 Bft) 96,15 %
19.05.2018 10:15 16,8 C 16,7 C 76 % 1017,9 hPa 0,0 l/m 11,8 km/h (2 Bft) O-NO 78 1 min 0,000 mm 2,6 UV-I 682 W/m 12,5 C 14,4 C 16,1 km/h (3 Bft) 100,00 %
19.05.2018 10:16 16,9 C 16,7 C 75 % 1017,9 hPa 0,0 l/m 10,5 km/h (2 Bft) O 92 1 min 0,000 mm 2,7 UV-I 685 W/m 12,4 C 15,0 C 14,5 km/h (3 Bft) 96,88 %
19.05.2018 10:17 16,8 C 16,7 C 74 % 1017,9 hPa 0,0 l/m 5,4 km/h (1 Bft) O-NO 58 1 min 0,000 mm 2,7 UV-I 684 W/m 12,1 C 16,8 C 8,0 km/h (2 Bft) 96,30 %
19.05.2018 10:18 16,9 C 16,7 C 75 % 1017,9 hPa 0,0 l/m 8,4 km/h (2 Bft) O-SO 121 1 min 0,000 mm 2,7 UV-I 686 W/m 12,4 C 15,9 C 11,3 km/h (2 Bft) 100,00 %
19.05.2018 10:19 16,9 C 16,7 C 77 % 1017,9 hPa 0,0 l/m 9,9 km/h (2 Bft) O-SO 105 1 min 0,000 mm 2,7 UV-I 687 W/m 12,8 C 15,3 C 12,9 km/h (3 Bft) 92,59 %
19.05.2018 10:20 16,9 C 16,7 C 75 % 1017,9 hPa 0,0 l/m 8,9 km/h (2 Bft) O 84 1 min 0,000 mm 2,7 UV-I 689 W/m 12,4 C 15,7 C 11,3 km/h (2 Bft) 100,00 %
19.05.2018 10:21 16,9 C 16,7 C 75 % 1017,9 hPa 0,0 l/m 6,8 km/h (2 Bft) O 80 1 min 0,000 mm 2,8 UV-I 690 W/m 12,4 C 16,7 C 9,7 km/h (2 Bft) 96,30 %
19.05.2018 10:22 17,0 C 16,7 C 75 % 1017,9 hPa 0,0 l/m 13,3 km/h (3 Bft) O 87 1 min 0,000 mm 2,8 UV-I 694 W/m 12,5 C 14,1 C 17,7 km/h (3 Bft) 100,00 %
19.05.2018 10:23 16,9 C 16,7 C 75 % 1017,9 hPa 0,0 l/m 13,6 km/h (3 Bft) O-SO 107 1 min 0,000 mm 2,8 UV-I 695 W/m 12,4 C 13,9 C 16,1 km/h (3 Bft) 95,83 %
19.05.2018 10:24 16,9 C 16,7 C 73 % 1017,9 hPa 0,0 l/m 11,4 km/h (2 Bft) O 85 1 min 0,000 mm 2,8 UV-I 700 W/m 12,0 C 14,7 C 12,9 km/h (3 Bft) 96,15 %
19.05.2018 10:25 17,0 C 16,7 C 74 % 1017,9 hPa 0,0 l/m 10,1 km/h (2 Bft) O 86 1 min 0,000 mm 2,9 UV-I 701 W/m 12,3 C 15,3 C 12,9 km/h (3 Bft) 100,00 %
19.05.2018 10:26 17,1 C 16,7 C 75 % 1017,9 hPa 0,0 l/m 11,3 km/h (2 Bft) NO 50 1 min 0,000 mm 2,9 UV-I 703 W/m 12,6 C 14,9 C 14,5 km/h (3 Bft) 100,00 %
19.05.2018 10:28 17,2 C 16,7 C 73 % 1017,9 hPa 0,0 l/m 10,4 km/h (2 Bft) O-SO 104 2 min 0,000 mm 2,9 UV-I 705 W/m 12,3 C 15,4 C 12,9 km/h (3 Bft) 96,23 %
19.05.2018 10:29 17,2 C 16,7 C 73 % 1017,9 hPa 0,0 l/m 10,9 km/h (2 Bft) O 99 1 min 0,000 mm 2,9 UV-I 707 W/m 12,3 C 15,2 C 14,5 km/h (3 Bft) 100,00 %
19.05.2018 10:30 17,2 C 17,2 C 73 % 1017,9 hPa 0,0 l/m 9,5 km/h (2 Bft) O 98 1 min 0,000 mm 2,9 UV-I 707 W/m 12,3 C 15,8 C 17,7 km/h (3 Bft) 95,83 %
19.05.2018 10:31 17,2 C 17,2 C 73 % 1017,9 hPa 0,0 l/m 10,8 km/h (2 Bft) O-NO 72 1 min 0,000 mm 3,0 UV-I 711 W/m 12,3 C 15,2 C 12,9 km/h (3 Bft) 100,00 %
19.05.2018 10:32 17,2 C 17,2 C 72 % 1017,9 hPa 0,0 l/m 7,7 km/h (2 Bft) O 92 1 min 0,000 mm 3,0 UV-I 715 W/m 12,1 C 16,6 C 14,5 km/h (3 Bft) 92,59 %
19.05.2018 10:33 17,2 C 16,7 C 73 % 1017,9 hPa 0,0 l/m 9,2 km/h (2 Bft) O-NO 71 1 min 0,000 mm 3,0 UV-I 719 W/m 12,3 C 15,9 C 14,5 km/h (3 Bft) 100,00 %
19.05.2018 10:34 17,3 C 16,7 C 73 % 1017,9 hPa 0,0 l/m 8,8 km/h (2 Bft) O 80 1 min 0,000 mm 3,0 UV-I 719 W/m 12,4 C 16,2 C 14,5 km/h (3 Bft) 94,44 %
19.05.2018 10:35 17,4 C 17,2 C 74 % 1017,9 hPa 0,0 l/m 7,8 km/h (2 Bft) O 94 1 min 0,000 mm 3,1 UV-I 720 W/m 12,7 C 16,7 C 12,9 km/h (3 Bft) 100,00 %
19.05.2018 10:36 17,4 C 17,2 C 74 % 1017,9 hPa 0,0 l/m 7,8 km/h (2 Bft) O 99 1 min 0,000 mm 3,1 UV-I 721 W/m 12,7 C 16,7 C 11,3 km/h (2 Bft) 95,83 %
19.05.2018 10:37 17,4 C 17,2 C 73 % 1017,8 hPa 0,0 l/m 10,9 km/h (2 Bft) NO 43 1 min 0,000 mm 3,1 UV-I 721 W/m 12,5 C 15,4 C 16,1 km/h (3 Bft) 100,00 %
19.05.2018 10:38 17,4 C 17,2 C 74 % 1017,9 hPa 0,0 l/m 9,8 km/h (2 Bft) NO 56 1 min 0,000 mm 3,1 UV-I 716 W/m 12,7 C 15,8 C 14,5 km/h (3 Bft) 95,83 %
19.05.2018 10:39 17,4 C 17,2 C 74 % 1017,8 hPa 0,0 l/m 6,7 km/h (2 Bft) O-NO 57 1 min 0,000 mm 3,1 UV-I 721 W/m 12,7 C 17,3 C 9,7 km/h (2 Bft) 96,15 %
19.05.2018 10:40 17,5 C 17,2 C 75 % 1017,8 hPa 0,0 l/m 8,4 km/h (2 Bft) N-NO 31 1 min 0,000 mm 3,1 UV-I 728 W/m 13,0 C 16,5 C 12,9 km/h (3 Bft) 100,00 %
19.05.2018 10:41 17,6 C 17,2 C 76 % 1017,8 hPa 0,0 l/m 8,2 km/h (2 Bft) NO 37 1 min 0,000 mm 3,1 UV-I 729 W/m 13,3 C 16,7 C 12,9 km/h (3 Bft) 95,65 %
19.05.2018 10:42 17,7 C 17,2 C 77 % 1017,8 hPa 0,0 l/m 9,3 km/h (2 Bft) O 95 1 min 0,000 mm 3,1 UV-I 729 W/m 13,6 C 16,4 C 16,1 km/h (3 Bft) 100,00 %
19.05.2018 10:43 17,8 C 17,2 C 73 % 1017,8 hPa 0,0 l/m 13,8 km/h (3 Bft) O-NO 77 1 min 0,000 mm 3,2 UV-I 728 W/m 12,9 C 14,9 C 17,7 km/h (3 Bft) 93,10 %
19.05.2018 10:44 17,8 C 17,2 C 72 % 1017,8 hPa 0,0 l/m 11,9 km/h (2 Bft) O-NO 61 1 min 0,000 mm 3,2 UV-I 731 W/m 12,7 C 15,5 C 16,1 km/h (3 Bft) 100,00 %
19.05.2018 10:45 17,7 C 17,2 C 73 % 1017,8 hPa 0,0 l/m 10,0 km/h (2 Bft) O 86 1 min 0,000 mm 3,2 UV-I 736 W/m 12,8 C 16,1 C 14,5 km/h (3 Bft) 96,15 %
19.05.2018 10:46 17,7 C 17,2 C 72 % 1017,8 hPa 0,0 l/m 11,0 km/h (2 Bft) O 92 1 min 0,000 mm 3,2 UV-I 736 W/m 12,6 C 15,7 C 14,5 km/h (3 Bft) 95,83 %
19.05.2018 10:47 17,7 C 17,2 C 73 % 1017,8 hPa 0,0 l/m 4,6 km/h (1 Bft) O 98 1 min 0,000 mm 3,2 UV-I 740 W/m 12,8 C 17,7 C 9,7 km/h (2 Bft) 100,00 %
19.05.2018 10:48 17,6 C 17,2 C 72 % 1017,8 hPa 0,0 l/m 5,5 km/h (1 Bft) O-SO 107 1 min 0,000 mm 3,3 UV-I 740 W/m 12,5 C 17,6 C 17,7 km/h (3 Bft) 95,83 %
19.05.2018 10:49 17,7 C 17,2 C 71 % 1017,9 hPa 0,0 l/m 13,8 km/h (3 Bft) O-NO 74 1 min 0,000 mm 3,3 UV-I 740 W/m 12,4 C 14,8 C 17,7 km/h (3 Bft) 100,00 %
19.05.2018 10:50 17,7 C 17,2 C 72 % 1017,9 hPa 0,0 l/m 8,3 km/h (2 Bft) O 84 1 min 0,000 mm 3,3 UV-I 742 W/m 12,6 C 16,8 C 12,9 km/h (3 Bft) 96,15 %
19.05.2018 10:51 17,6 C 17,2 C 71 % 1017,8 hPa 0,0 l/m 8,0 km/h (2 Bft) O-NO 59 1 min 0,000 mm 3,3 UV-I 744 W/m 12,3 C 16,8 C 11,3 km/h (2 Bft) 96,67 %
19.05.2018 10:52 17,7 C 17,2 C 74 % 1017,8 hPa 0,0 l/m 10,8 km/h (2 Bft) O-NO 63 1 min 0,000 mm 3,3 UV-I 744 W/m 13,0 C 15,8 C 14,5 km/h (3 Bft) 91,30 %
19.05.2018 10:53 17,7 C 17,2 C 72 % 1017,8 hPa 0,0 l/m 5,1 km/h (1 Bft) O 86 1 min 0,000 mm 3,3 UV-I 753 W/m 12,6 C 17,7 C 8,0 km/h (2 Bft) 100,00 %
19.05.2018 10:54 17,7 C 17,2 C 71 % 1017,8 hPa 0,0 l/m 5,5 km/h (1 Bft) O 98 1 min 0,000 mm 3,4 UV-I 750 W/m 12,4 C 17,7 C 11,3 km/h (2 Bft) 72,73 %
19.05.2018 10:55 17,7 C 17,2 C 72 % 1017,9 hPa 0,0 l/m 6,7 km/h (2 Bft) NO 51 1 min 0,000 mm 3,4 UV-I 750 W/m 12,6 C 17,6 C 8,0 km/h (2 Bft) 100,00 %
19.05.2018 10:56 17,8 C 17,2 C 74 % 1017,9 hPa 0,0 l/m 8,7 km/h (2 Bft) NO 49 1 min 0,000 mm 3,4 UV-I 752 W/m 13,1 C 16,7 C 14,5 km/h (3 Bft) 91,30 %
19.05.2018 10:57 17,9 C 17,2 C 75 % 1017,8 hPa 0,0 l/m 16,6 km/h (3 Bft) O-NO 65 1 min 0,000 mm 3,4 UV-I 758 W/m 13,4 C 14,3 C 20,9 km/h (4 Bft) 96,30 %
19.05.2018 10:58 18,1 C 17,2 C 75 % 1017,9 hPa 0,0 l/m 15,2 km/h (3 Bft) O-NO 77 1 min 0,000 mm 3,5 UV-I 761 W/m 13,6 C 14,9 C 17,7 km/h (3 Bft) 100,00 %
19.05.2018 10:59 18,2 C 17,2 C 72 % 1017,9 hPa 0,0 l/m 10,2 km/h (2 Bft) NO 53 1 min 0,000 mm 3,4 UV-I 762 W/m 13,1 C 16,6 C 16,1 km/h (3 Bft) 100,00 %
19.05.2018 11:00 18,2 C 17,2 C 73 % 1017,9 hPa 0,0 l/m 8,6 km/h (2 Bft) NO 55 1 min 0,406 mm 3,5 UV-I 764 W/m 13,3 C 17,2 C 14,5 km/h (3 Bft) 100,00 %
19.05.2018 11:02 18,2 C 17,2 C 71 % 1017,9 hPa 0,0 l/m 7,2 km/h (2 Bft) O 84 2 min 0,000 mm 3,5 UV-I 767 W/m 12,9 C 17,8 C 12,9 km/h (3 Bft) 97,44 %
19.05.2018 11:03 18,1 C 17,2 C 72 % 1017,9 hPa 0,0 l/m 5,5 km/h (1 Bft) O 86 1 min 0,000 mm 3,5 UV-I 765 W/m 13,0 C 18,1 C 8,0 km/h (2 Bft) 96,55 %
19.05.2018 11:04 18,1 C 17,2 C 73 % 1017,9 hPa 0,0 l/m 5,4 km/h (1 Bft) NO 42 1 min 0,000 mm 3,5 UV-I 769 W/m 13,2 C 18,1 C 8,0 km/h (2 Bft) 100,00 %
19.05.2018 11:05 18,2 C 17,2 C 76 % 1017,9 hPa 0,0 l/m 11,6 km/h (2 Bft) NO 49 1 min 0,000 mm 3,5 UV-I 766 W/m 13,9 C 16,1 C 17,7 km/h (3 Bft) 96,88 %
19.05.2018 11:06 18,2 C 17,2 C 74 % 1017,8 hPa 0,0 l/m 9,5 km/h (2 Bft) O-NO 60 1 min 0,000 mm 3,5 UV-I 765 W/m 13,5 C 16,8 C 16,1 km/h (3 Bft) 100,00 %
19.05.2018 11:07 18,3 C 17,2 C 74 % 1017,8 hPa 0,0 l/m 11,0 km/h (2 Bft) N-NO 26 1 min 0,000 mm 3,5 UV-I 760 W/m 13,6 C 16,4 C 16,1 km/h (3 Bft) 91,30 %
19.05.2018 11:08 18,3 C 17,2 C 76 % 1017,8 hPa 0,0 l/m 8,1 km/h (2 Bft) NO 44 1 min 0,000 mm 3,5 UV-I 760 W/m 14,0 C 17,5 C 9,7 km/h (2 Bft) 96,30 %
19.05.2018 11:09 18,4 C 17,2 C 75 % 1017,8 hPa 0,0 l/m 11,7 km/h (2 Bft) NO 47 1 min 0,000 mm 3,6 UV-I 776 W/m 13,9 C 16,3 C 14,5 km/h (3 Bft) 100,00 %
19.05.2018 11:10 18,6 C 17,2 C 76 % 1017,8 hPa 0,0 l/m 14,1 km/h (3 Bft) NO 46 1 min 0,000 mm 3,6 UV-I 773 W/m 14,3 C 15,8 C 17,7 km/h (3 Bft) 100,00 %
19.05.2018 11:11 18,7 C 17,2 C 74 % 1017,8 hPa 0,0 l/m 11,1 km/h (2 Bft) O-NO 65 1 min 0,000 mm 3,6 UV-I 774 W/m 14,0 C 16,8 C 16,1 km/h (3 Bft) 92,31 %
19.05.2018 11:12 18,8 C 17,2 C 73 % 1017,8 hPa 0,0 l/m 11,5 km/h (2 Bft) N-NO 27 1 min 0,000 mm 3,6 UV-I 778 W/m 13,9 C 16,8 C 16,1 km/h (3 Bft) 96,67 %
19.05.2018 11:13 18,8 C 17,2 C 73 % 1017,8 hPa 0,0 l/m 11,3 km/h (2 Bft) NO 49 1 min 0,000 mm 3,7 UV-I 783 W/m 13,9 C 16,9 C 14,5 km/h (3 Bft) 100,00 %
19.05.2018 11:14 18,7 C 17,2 C 72 % 1017,8 hPa 0,0 l/m 12,4 km/h (3 Bft) O-NO 72 1 min 0,000 mm 3,7 UV-I 782 W/m 13,5 C 16,4 C 16,1 km/h (3 Bft) 96,67 %
19.05.2018 11:15 18,7 C 17,2 C 72 % 1017,7 hPa 0,0 l/m 10,1 km/h (2 Bft) NO 34 1 min 0,000 mm 3,7 UV-I 784 W/m 13,5 C 17,2 C 14,5 km/h (3 Bft) 95,65 %
19.05.2018 11:16 18,7 C 17,2 C 72 % 1017,7 hPa 0,0 l/m 9,2 km/h (2 Bft) N-NO 31 1 min 0,000 mm 3,7 UV-I 790 W/m 13,5 C 17,5 C 14,5 km/h (3 Bft) 95,83 %
19.05.2018 11:17 18,7 C 17,2 C 72 % 1017,7 hPa 0,0 l/m 11,0 km/h (2 Bft) O 91 1 min 0,000 mm 3,7 UV-I 791 W/m 13,5 C 16,9 C 16,1 km/h (3 Bft) 90,91 %
19.05.2018 11:18 18,7 C 17,2 C 70 % 1017,7 hPa 0,0 l/m 11,8 km/h (2 Bft) O 85 1 min 0,000 mm 3,7 UV-I 789 W/m 13,1 C 16,6 C 14,5 km/h (3 Bft) 96,97 %
19.05.2018 11:19 18,6 C 17,2 C 68 % 1017,7 hPa 0,0 l/m 6,4 km/h (2 Bft) O-NO 76 1 min 0,000 mm 3,7 UV-I 784 W/m 12,6 C 18,6 C 8,0 km/h (2 Bft) 95,65 %
19.05.2018 11:20 18,6 C 17,2 C 69 % 1017,7 hPa 0,0 l/m 7,3 km/h (2 Bft) O-NO 57 1 min 0,000 mm 3,7 UV-I 785 W/m 12,8 C 18,2 C 11,3 km/h (2 Bft) 100,00 %
19.05.2018 11:21 18,7 C 17,2 C 72 % 1017,7 hPa 0,0 l/m 11,3 km/h (2 Bft) O-NO 66 1 min 0,000 mm 3,7 UV-I 787 W/m 13,5 C 16,8 C 14,5 km/h (3 Bft) 100,00 %
19.05.2018 11:22 18,8 C 17,2 C 72 % 1017,7 hPa 0,0 l/m 8,4 km/h (2 Bft) NO 46 1 min 0,000 mm 3,8 UV-I 782 W/m 13,6 C 17,9 C 14,5 km/h (3 Bft) 96,30 %
19.05.2018 11:23 18,8 C 17,2 C 70 % 1017,7 hPa 0,0 l/m 6,1 km/h (2 Bft) O-NO 69 1 min 0,000 mm 3,8 UV-I 779 W/m 13,2 C 18,8 C 9,7 km/h (2 Bft) 96,55 %
19.05.2018 11:24 18,8 C 17,2 C 71 % 1017,7 hPa 0,0 l/m 10,3 km/h (2 Bft) O 91 1 min 0,000 mm 3,8 UV-I 788 W/m 13,4 C 17,2 C 16,1 km/h (3 Bft) 100,00 %
19.05.2018 11:25 18,9 C 17,2 C 70 % 1017,7 hPa 0,0 l/m 11,5 km/h (2 Bft) O-NO 69 1 min 0,000 mm 3,8 UV-I 786 W/m 13,3 C 16,9 C 17,7 km/h (3 Bft) 100,00 %
19.05.2018 11:26 18,9 C 17,2 C 68 % 1017,7 hPa 0,0 l/m 13,3 km/h (3 Bft) O-NO 65 1 min 0,000 mm 3,9 UV-I 800 W/m 12,9 C 16,4 C 17,7 km/h (3 Bft) 96,15 %
19.05.2018 11:27 18,9 C 17,2 C 67 % 1017,7 hPa 0,0 l/m 11,3 km/h (2 Bft) O-NO 72 1 min 0,000 mm 3,9 UV-I 804 W/m 12,6 C 17,0 C 14,5 km/h (3 Bft) 96,15 %
19.05.2018 11:28 18,9 C 17,2 C 68 % 1017,7 hPa 0,0 l/m 13,6 km/h (3 Bft) O-SO 103 1 min 0,000 mm 3,9 UV-I 803 W/m 12,9 C 16,3 C 19,3 km/h (3 Bft) 100,00 %
19.05.2018 11:29 18,8 C 17,2 C 66 % 1017,7 hPa 0,0 l/m 12,7 km/h (3 Bft) O 98 1 min 0,000 mm 3,9 UV-I 801 W/m 12,3 C 16,4 C 14,5 km/h (3 Bft) 100,00 %
19.05.2018 11:30 18,7 C 17,2 C 67 % 1017,7 hPa 0,0 l/m 7,4 km/h (2 Bft) O 98 1 min 0,000 mm 3,9 UV-I 798 W/m 12,4 C 18,2 C 11,3 km/h (2 Bft) 100,00 %
19.05.2018 11:31 18,6 C 17,2 C 69 % 1017,7 hPa 0,0 l/m 14,5 km/h (3 Bft) NO 53 1 min 0,000 mm 3,9 UV-I 803 W/m 12,8 C 15,7 C 17,7 km/h (3 Bft) 100,00 %
19.05.2018 11:32 18,7 C 17,2 C 69 % 1017,7 hPa 0,0 l/m 15,0 km/h (3 Bft) NO 51 1 min 0,000 mm 3,9 UV-I 807 W/m 12,9 C 15,7 C 17,7 km/h (3 Bft) 100,00 %
19.05.2018 11:33 18,7 C 17,2 C 67 % 1017,7 hPa 0,0 l/m 13,7 km/h (3 Bft) O 99 1 min 0,000 mm 4,0 UV-I 815 W/m 12,4 C 16,0 C 17,7 km/h (3 Bft) 100,00 %
19.05.2018 11:34 18,7 C 17,2 C 66 % 1017,7 hPa 0,0 l/m 13,9 km/h (3 Bft) O 89 1 min 0,000 mm 4,0 UV-I 814 W/m 12,2 C 16,0 C 17,7 km/h (3 Bft) 100,00 %
19.05.2018 11:35 18,8 C 17,2 C 66 % 1017,7 hPa 0,0 l/m 11,3 km/h (2 Bft) O-NO 74 1 min 0,000 mm 4,0 UV-I 817 W/m 12,3 C 16,9 C 16,1 km/h (3 Bft) 100,00 %
19.05.2018 11:36 18,8 C 17,2 C 66 % 1017,7 hPa 0,0 l/m 8,4 km/h (2 Bft) O-NO 66 1 min 0,000 mm 4,0 UV-I 821 W/m 12,3 C 17,9 C 12,9 km/h (3 Bft) 100,00 %
19.05.2018 11:37 18,8 C 17,2 C 67 % 1017,7 hPa 0,0 l/m 9,7 km/h (2 Bft) NO 49 1 min 0,000 mm 4,0 UV-I 810 W/m 12,5 C 17,4 C 12,9 km/h (3 Bft) 100,00 %
19.05.2018 11:38 18,9 C 17,2 C 69 % 1017,7 hPa 0,0 l/m 5,2 km/h (1 Bft) NO 38 1 min 0,000 mm 4,0 UV-I 807 W/m 13,1 C 18,9 C 6,4 km/h (2 Bft) 100,00 %
19.05.2018 11:39 18,9 C 17,2 C 67 % 1017,7 hPa 0,0 l/m 5,6 km/h (1 Bft) O-NO 60 1 min 0,000 mm 4,0 UV-I 811 W/m 12,6 C 18,9 C 9,7 km/h (2 Bft) 100,00 %
19.05.2018 11:40 19,1 C 17,2 C 69 % 1017,7 hPa 0,0 l/m 13,8 km/h (3 Bft) N-NO 19 1 min 0,000 mm 4,0 UV-I 812 W/m 13,3 C 16,5 C 16,1 km/h (3 Bft) 96,15 %
19.05.2018 11:41 19,2 C 17,2 C 71 % 1017,7 hPa 0,0 l/m 14,7 km/h (3 Bft) O-NO 66 1 min 0,000 mm 4,0 UV-I 818 W/m 13,8 C 16,4 C 17,7 km/h (3 Bft) 100,00 %
19.05.2018 11:42 19,3 C 17,2 C 68 % 1017,7 hPa 0,0 l/m 14,2 km/h (3 Bft) NO 49 1 min 0,000 mm 4,0 UV-I 821 W/m 13,2 C 16,6 C 24,1 km/h (4 Bft) 100,00 %
19.05.2018 11:43 19,3 C 17,2 C 67 % 1017,6 hPa 0,0 l/m 12,0 km/h (2 Bft) NO 40 1 min 0,000 mm 4,1 UV-I 821 W/m 13,0 C 17,2 C 17,7 km/h (3 Bft) 100,00 %
19.05.2018 11:44 19,3 C 17,2 C 67 % 1017,7 hPa 0,0 l/m 13,7 km/h (3 Bft) NO 46 1 min 0,000 mm 4,1 UV-I 820 W/m 13,0 C 16,7 C 17,7 km/h (3 Bft) 100,00 %
19.05.2018 11:45 19,3 C 17,2 C 68 % 1017,6 hPa 0,0 l/m 13,7 km/h (3 Bft) NO 49 1 min 0,000 mm 4,1 UV-I 822 W/m 13,2 C 16,7 C 16,1 km/h (3 Bft) 100,00 %
19.05.2018 11:46 19,3 C 17,2 C 68 % 1017,6 hPa 0,0 l/m 12,7 km/h (3 Bft) NO 50 1 min 0,000 mm 4,1 UV-I 822 W/m 13,2 C 17,0 C 17,7 km/h (3 Bft) 100,00 %
19.05.2018 11:47 19,3 C 17,2 C 66 % 1017,6 hPa 0,0 l/m 18,3 km/h (3 Bft) NO 38 1 min 0,000 mm 4,1 UV-I 820 W/m 12,8 C 15,6 C 22,5 km/h (4 Bft) 96,15 %
19.05.2018 11:48 19,2 C 17,2 C 66 % 1017,6 hPa 0,0 l/m 17,1 km/h (3 Bft) NO 38 1 min 0,000 mm 4,1 UV-I 821 W/m 12,7 C 15,8 C 19,3 km/h (3 Bft) 100,00 %
19.05.2018 11:49 19,2 C 17,2 C 67 % 1017,6 hPa 0,0 l/m 14,7 km/h (3 Bft) N-NO 33 1 min 0,000 mm 4,1 UV-I 827 W/m 12,9 C 16,4 C 17,7 km/h (3 Bft) 100,00 %
19.05.2018 11:50 19,3 C 17,2 C 66 % 1017,6 hPa 0,0 l/m 13,8 km/h (3 Bft) NO 42 1 min 0,000 mm 4,2 UV-I 834 W/m 12,8 C 16,7 C 19,3 km/h (3 Bft) 100,00 %
19.05.2018 11:51 19,3 C 17,2 C 67 % 1017,6 hPa 0,0 l/m 12,6 km/h (3 Bft) N-NO 30 1 min 0,000 mm 4,2 UV-I 832 W/m 13,0 C 17,0 C 16,1 km/h (3 Bft) 100,00 %
19.05.2018 11:52 19,4 C 17,2 C 67 % 1017,6 hPa 0,0 l/m 7,6 km/h (2 Bft) N-NO 24 1 min 0,000 mm 4,1 UV-I 826 W/m 13,1 C 18,9 C 12,9 km/h (3 Bft) 92,59 %
19.05.2018 11:53 19,5 C 17,2 C 68 % 1017,7 hPa 0,0 l/m 8,8 km/h (2 Bft) NO 53 1 min 0,000 mm 4,1 UV-I 819 W/m 13,4 C 18,5 C 14,5 km/h (3 Bft) 96,15 %
19.05.2018 11:54 19,6 C 17,2 C 65 % 1017,6 hPa 0,0 l/m 12,3 km/h (3 Bft) O 83 1 min 0,000 mm 4,2 UV-I 825 W/m 12,8 C 17,5 C 17,7 km/h (3 Bft) 100,00 %
19.05.2018 11:55 19,6 C 17,2 C 60 % 1017,7 hPa 0,0 l/m 13,8 km/h (3 Bft) O 83 1 min 0,000 mm 4,2 UV-I 828 W/m 11,6 C 17,1 C 17,7 km/h (3 Bft) 100,00 %
19.05.2018 11:56 19,5 C 17,2 C 61 % 1017,6 hPa 0,0 l/m 14,6 km/h (3 Bft) O-NO 64 1 min 0,000 mm 4,2 UV-I 833 W/m 11,8 C 16,7 C 19,3 km/h (3 Bft) 100,00 %
19.05.2018 11:57 19,4 C 17,2 C 59 % 1017,6 hPa 0,0 l/m 11,9 km/h (2 Bft) O-NO 69 1 min 0,000 mm 4,2 UV-I 838 W/m 11,2 C 17,4 C 17,7 km/h (3 Bft) 95,65 %
19.05.2018 11:58 19,4 C 17,2 C 58 % 1017,6 hPa 0,0 l/m 9,1 km/h (2 Bft) O 93 1 min 0,000 mm 4,2 UV-I 837 W/m 10,9 C 18,3 C 12,9 km/h (3 Bft) 100,00 %
19.05.2018 11:59 19,3 C 17,2 C 60 % 1017,6 hPa 0,0 l/m 6,2 km/h (2 Bft) O-NO 60 1 min 0,000 mm 4,2 UV-I 837 W/m 11,3 C 19,3 C 12,9 km/h (3 Bft) 100,00 %
19.05.2018 12:00 19,3 C 17,2 C 61 % 1017,6 hPa 0,0 l/m 10,2 km/h (2 Bft) NO 53 1 min 0,483 mm 4,2 UV-I 835 W/m 11,6 C 17,8 C 14,5 km/h (3 Bft) 100,00 %
19.05.2018 12:02 19,4 C 17,2 C 65 % 1017,6 hPa 0,0 l/m 9,6 km/h (2 Bft) O 90 2 min 0,000 mm 4,3 UV-I 839 W/m 12,6 C 18,1 C 14,5 km/h (3 Bft) 98,11 %
19.05.2018 12:03 19,4 C 17,2 C 63 % 1017,6 hPa 0,0 l/m 10,5 km/h (2 Bft) O-NO 72 1 min 0,000 mm 4,3 UV-I 840 W/m 12,2 C 17,8 C 14,5 km/h (3 Bft) 100,00 %
19.05.2018 12:04 19,4 C 17,2 C 66 % 1017,6 hPa 0,0 l/m 6,8 km/h (2 Bft) O-NO 78 1 min 0,000 mm 4,3 UV-I 837 W/m 12,9 C 19,2 C 9,7 km/h (2 Bft) 100,00 %
19.05.2018 12:05 19,4 C 17,2 C 65 % 1017,6 hPa 0,0 l/m 11,9 km/h (2 Bft) O 101 1 min 0,000 mm 4,3 UV-I 838 W/m 12,6 C 17,4 C 14,5 km/h (3 Bft) 100,00 %
19.05.2018 12:06 19,4 C 17,2 C 62 % 1017,6 hPa 0,0 l/m 12,8 km/h (3 Bft) O-SO 108 1 min 0,000 mm 4,3 UV-I 840 W/m 11,9 C 17,1 C 19,3 km/h (3 Bft) 100,00 %
19.05.2018 12:07 19,5 C 17,2 C 61 % 1017,6 hPa 0,0 l/m 15,0 km/h (3 Bft) O-SO 107 1 min 0,000 mm 4,3 UV-I 838 W/m 11,8 C 16,6 C 19,3 km/h (3 Bft) 100,00 %
19.05.2018 12:08 19,4 C 17,8 C 61 % 1017,6 hPa 0,0 l/m 13,4 km/h (3 Bft) O-SO 111 1 min 0,000 mm 4,3 UV-I 843 W/m 11,7 C 16,9 C 17,7 km/h (3 Bft) 100,00 %
19.05.2018 12:09 19,4 C 17,8 C 60 % 1017,6 hPa 0,0 l/m 11,4 km/h (2 Bft) O-SO 113 1 min 0,000 mm 4,4 UV-I 845 W/m 11,4 C 17,5 C 14,5 km/h (3 Bft) 100,00 %
19.05.2018 12:10 19,6 C 17,8 C 62 % 1017,6 hPa 0,0 l/m 9,6 km/h (2 Bft) O-NO 70 1 min 0,000 mm 4,3 UV-I 841 W/m 12,1 C 18,3 C 12,9 km/h (3 Bft) 100,00 %
19.05.2018 12:11 19,6 C 17,8 C 64 % 1017,6 hPa 0,0 l/m 15,4 km/h (3 Bft) NO 56 1 min 0,000 mm 4,4 UV-I 843 W/m 12,6 C 16,7 C 19,3 km/h (3 Bft) 100,00 %
19.05.2018 12:12 19,7 C 17,8 C 65 % 1017,6 hPa 0,0 l/m 10,4 km/h (2 Bft) NO 40 1 min 0,000 mm 4,4 UV-I 844 W/m 12,9 C 18,2 C 14,5 km/h (3 Bft) 96,15 %
19.05.2018 12:13 19,8 C 17,8 C 67 % 1017,5 hPa 0,0 l/m 13,1 km/h (3 Bft) O-SO 105 1 min 0,000 mm 4,4 UV-I 845 W/m 13,5 C 17,5 C 16,1 km/h (3 Bft) 100,00 %
19.05.2018 12:14 19,8 C 17,8 C 64 % 1017,5 hPa 0,0 l/m 12,7 km/h (3 Bft) O-NO 60 1 min 0,000 mm 4,4 UV-I 844 W/m 12,8 C 17,6 C 17,7 km/h (3 Bft) 100,00 %
19.05.2018 12:15 19,8 C 17,8 C 67 % 1017,5 hPa 0,0 l/m 16,9 km/h (3 Bft) O-NO 60 1 min 0,000 mm 4,3 UV-I 835 W/m 13,5 C 16,6 C 20,9 km/h (4 Bft) 100,00 %
19.05.2018 12:16 19,9 C 17,8 C 66 % 1017,5 hPa 0,0 l/m 17,2 km/h (3 Bft) O-NO 66 1 min 0,000 mm 4,3 UV-I 829 W/m 13,4 C 16,6 C 20,9 km/h (4 Bft) 100,00 %
19.05.2018 12:17 19,9 C 17,8 C 64 % 1017,5 hPa 0,0 l/m 10,0 km/h (2 Bft) NO 48 1 min 0,000 mm 4,3 UV-I 834 W/m 12,9 C 18,5 C 12,9 km/h (3 Bft) 100,00 %
19.05.2018 12:18 19,8 C 17,8 C 64 % 1017,4 hPa 0,0 l/m 15,4 km/h (3 Bft) O-NO 71 1 min 0,000 mm 4,3 UV-I 842 W/m 12,8 C 16,9 C 20,9 km/h (4 Bft) 100,00 %
19.05.2018 12:19 19,8 C 17,8 C 65 % 1017,4 hPa 0,0 l/m 12,1 km/h (2 Bft) N-NO 28 1 min 0,000 mm 4,4 UV-I 842 W/m 13,0 C 17,8 C 16,1 km/h (3 Bft) 100,00 %
19.05.2018 12:20 19,9 C 17,8 C 67 % 1017,4 hPa 0,0 l/m 14,6 km/h (3 Bft) NO 39 1 min 0,000 mm 4,4 UV-I 849 W/m 13,6 C 17,2 C 17,7 km/h (3 Bft) 100,00 %
19.05.2018 12:21 19,9 C 17,8 C 66 % 1017,3 hPa 0,0 l/m 12,0 km/h (2 Bft) NO 51 1 min 0,000 mm 4,4 UV-I 852 W/m 13,4 C 17,9 C 20,9 km/h (4 Bft) 97,56 %
19.05.2018 12:22 19,9 C 17,8 C 66 % 1017,3 hPa 0,0 l/m 15,5 km/h (3 Bft) NO 34 1 min 0,000 mm 4,4 UV-I 848 W/m 13,4 C 17,0 C 17,7 km/h (3 Bft) 100,00 %
19.05.2018 12:23 19,9 C 17,8 C 65 % 1017,3 hPa 0,0 l/m 13,2 km/h (3 Bft) NO 42 1 min 0,000 mm 4,4 UV-I 849 W/m 13,1 C 17,6 C 16,1 km/h (3 Bft) 100,00 %
19.05.2018 12:24 19,9 C 17,8 C 67 % 1017,3 hPa 0,0 l/m 11,4 km/h (2 Bft) O-NO 58 1 min 0,000 mm 4,5 UV-I 860 W/m 13,6 C 18,1 C 16,1 km/h (3 Bft) 100,00 %
19.05.2018 12:25 20,0 C 17,8 C 66 % 1017,3 hPa 0,0 l/m 12,9 km/h (3 Bft) O-NO 67 1 min 0,000 mm 4,5 UV-I 859 W/m 13,4 C 17,8 C 19,3 km/h (3 Bft) 100,00 %
19.05.2018 12:26 20,1 C 17,8 C 63 % 1017,4 hPa 0,0 l/m 13,2 km/h (3 Bft) O-NO 59 1 min 0,000 mm 4,5 UV-I 860 W/m 12,8 C 17,8 C 16,1 km/h (3 Bft) 100,00 %
19.05.2018 12:27 20,1 C 17,8 C 60 % 1017,3 hPa 0,0 l/m 12,1 km/h (2 Bft) O 84 1 min 0,000 mm 4,5 UV-I 860 W/m 12,1 C 18,1 C 17,7 km/h (3 Bft) 100,00 %
19.05.2018 12:28 20,0 C 17,8 C 60 % 1017,3 hPa 0,0 l/m 14,5 km/h (3 Bft) O 87 1 min 0,000 mm 4,5 UV-I 860 W/m 12,0 C 17,4 C 19,3 km/h (3 Bft) 100,00 %
19.05.2018 12:29 20,0 C 17,8 C 61 % 1017,3 hPa 0,0 l/m 13,6 km/h (3 Bft) O-NO 63 1 min 0,000 mm 4,4 UV-I 857 W/m 12,2 C 17,6 C 17,7 km/h (3 Bft) 100,00 %
19.05.2018 12:30 19,9 C 17,8 C 60 % 1017,3 hPa 0,0 l/m 5,9 km/h (2 Bft) NO 53 1 min 0,000 mm 4,5 UV-I 860 W/m 11,9 C 19,9 C 12,9 km/h (3 Bft) 100,00 %
19.05.2018 12:31 19,8 C 17,8 C 61 % 1017,3 hPa 0,0 l/m 9,9 km/h (2 Bft) O-NO 71 1 min 0,000 mm 4,4 UV-I 852 W/m 12,1 C 18,5 C 12,9 km/h (3 Bft) 100,00 %
19.05.2018 12:32 19,8 C 17,8 C 62 % 1017,3 hPa 0,0 l/m 14,6 km/h (3 Bft) O-NO 65 1 min 0,000 mm 4,5 UV-I 862 W/m 12,3 C 17,1 C 19,3 km/h (3 Bft) 100,00 %
19.05.2018 12:33 19,9 C 17,8 C 63 % 1017,3 hPa 0,0 l/m 14,7 km/h (3 Bft) O 88 1 min 0,000 mm 4,4 UV-I 859 W/m 12,6 C 17,2 C 17,7 km/h (3 Bft) 96,15 %
19.05.2018 12:34 20,0 C 17,8 C 62 % 1017,3 hPa 0,0 l/m 11,6 km/h (2 Bft) SO 139 1 min 0,000 mm 4,5 UV-I 878 W/m 12,5 C 18,1 C 16,1 km/h (3 Bft) 96,30 %
19.05.2018 12:35 20,0 C 17,8 C 61 % 1017,3 hPa 0,0 l/m 13,4 km/h (3 Bft) O-NO 57 1 min 0,000 mm 4,4 UV-I 869 W/m 12,2 C 17,6 C 16,1 km/h (3 Bft) 100,00 %
19.05.2018 12:36 20,0 C 17,8 C 62 % 1017,3 hPa 0,0 l/m 16,9 km/h (3 Bft) O-NO 62 1 min 0,000 mm 4,4 UV-I 846 W/m 12,5 C 16,8 C 20,9 km/h (4 Bft) 96,30 %
19.05.2018 12:37 20,0 C 17,8 C 62 % 1017,3 hPa 0,0 l/m 16,5 km/h (3 Bft) N-NO 26 1 min 0,000 mm 4,4 UV-I 847 W/m 12,5 C 16,9 C 20,9 km/h (4 Bft) 100,00 %
19.05.2018 12:38 19,9 C 17,8 C 63 % 1017,2 hPa 0,0 l/m 15,6 km/h (3 Bft) O-NO 63 1 min 0,000 mm 4,4 UV-I 851 W/m 12,6 C 17,0 C 20,9 km/h (4 Bft) 95,83 %
19.05.2018 12:39 19,9 C 17,8 C 65 % 1017,3 hPa 0,0 l/m 18,0 km/h (3 Bft) NO 38 1 min 0,000 mm 4,4 UV-I 858 W/m 13,1 C 16,5 C 22,5 km/h (4 Bft) 100,00 %
19.05.2018 12:40 19,9 C 17,8 C 63 % 1017,2 hPa 0,0 l/m 14,7 km/h (3 Bft) N-NO 21 1 min 0,000 mm 4,5 UV-I 870 W/m 12,6 C 17,2 C 17,7 km/h (3 Bft) 93,10 %
19.05.2018 12:41 20,0 C 17,8 C 64 % 1017,3 hPa 0,0 l/m 14,6 km/h (3 Bft) NO 48 1 min 0,000 mm 4,5 UV-I 881 W/m 13,0 C 17,3 C 19,3 km/h (3 Bft) 96,30 %
19.05.2018 12:42 20,1 C 17,8 C 63 % 1017,3 hPa 0,0 l/m 14,0 km/h (3 Bft) NO 51 1 min 0,000 mm 4,5 UV-I 880 W/m 12,8 C 17,6 C 19,3 km/h (3 Bft) 95,65 %
19.05.2018 12:43 20,2 C 17,8 C 63 % 1017,3 hPa 0,0 l/m 13,3 km/h (3 Bft) NO 53 1 min 0,000 mm 4,5 UV-I 886 W/m 12,9 C 17,9 C 16,1 km/h (3 Bft) 95,83 %
19.05.2018 12:44 20,1 C 17,8 C 61 % 1017,2 hPa 0,0 l/m 12,3 km/h (3 Bft) NO 39 1 min 0,000 mm 4,5 UV-I 873 W/m 12,3 C 18,1 C 16,1 km/h (3 Bft) 100,00 %
19.05.2018 12:45 20,1 C 17,8 C 65 % 1017,2 hPa 0,0 l/m 13,5 km/h (3 Bft) NO 55 1 min 0,000 mm 4,4 UV-I 847 W/m 13,3 C 17,7 C 20,9 km/h (4 Bft) 95,83 %
19.05.2018 12:46 20,3 C 17,8 C 62 % 1017,1 hPa 0,0 l/m 14,0 km/h (3 Bft) NO 54 1 min 0,000 mm 4,4 UV-I 846 W/m 12,8 C 17,9 C 20,9 km/h (4 Bft) 100,00 %
19.05.2018 12:47 20,3 C 17,8 C 63 % 1017,2 hPa 0,0 l/m 15,5 km/h (3 Bft) NO 40 1 min 0,000 mm 4,5 UV-I 872 W/m 13,0 C 17,5 C 24,1 km/h (4 Bft) 95,83 %
19.05.2018 12:48 20,4 C 17,8 C 66 % 1017,1 hPa 0,0 l/m 13,9 km/h (3 Bft) O-NO 59 1 min 0,000 mm 4,5 UV-I 862 W/m 13,8 C 18,0 C 17,7 km/h (3 Bft) 100,00 %
19.05.2018 12:49 20,4 C 17,8 C 63 % 1017,1 hPa 0,0 l/m 15,7 km/h (3 Bft) NO 34 1 min 0,000 mm 4,4 UV-I 853 W/m 13,1 C 17,6 C 20,9 km/h (4 Bft) 91,67 %
19.05.2018 12:50 20,4 C 17,8 C 64 % 1017,2 hPa 0,0 l/m 19,3 km/h (3 Bft) NO 52 1 min 0,000 mm 4,4 UV-I 855 W/m 13,4 C 16,8 C 24,1 km/h (4 Bft) 100,00 %
19.05.2018 12:51 20,3 C 17,8 C 63 % 1017,1 hPa 0,0 l/m 15,0 km/h (3 Bft) NO 45 1 min 0,000 mm 4,5 UV-I 863 W/m 13,0 C 17,6 C 19,3 km/h (3 Bft) 96,67 %
19.05.2018 12:52 20,3 C 17,8 C 61 % 1017,1 hPa 0,0 l/m 9,7 km/h (2 Bft) O-NO 66 1 min 0,000 mm 4,5 UV-I 863 W/m 12,5 C 19,1 C 14,5 km/h (3 Bft) 96,15 %
19.05.2018 12:53 20,3 C 17,8 C 63 % 1017,1 hPa 0,0 l/m 9,5 km/h (2 Bft) O-NO 61 1 min 0,000 mm 4,5 UV-I 879 W/m 13,0 C 19,1 C 14,5 km/h (3 Bft) 100,00 %
19.05.2018 12:54 20,4 C 17,8 C 64 % 1017,0 hPa 0,0 l/m 14,7 km/h (3 Bft) O 79 1 min 0,000 mm 4,6 UV-I 881 W/m 13,4 C 17,8 C 22,5 km/h (4 Bft) 93,10 %
19.05.2018 12:55 20,4 C 17,8 C 66 % 1017,1 hPa 0,0 l/m 15,5 km/h (3 Bft) O-NO 66 1 min 0,000 mm 4,5 UV-I 872 W/m 13,8 C 17,6 C 19,3 km/h (3 Bft) 100,00 %
19.05.2018 12:56 20,3 C 17,8 C 59 % 1017,1 hPa 0,0 l/m 14,6 km/h (3 Bft) O-NO 67 1 min 0,000 mm 4,4 UV-I 870 W/m 12,0 C 17,7 C 17,7 km/h (3 Bft) 95,65 %
19.05.2018 12:58 20,2 C 17,8 C 59 % 1017,0 hPa 0,0 l/m 14,4 km/h (3 Bft) O 89 2 min 0,000 mm 4,4 UV-I 851 W/m 11,9 C 17,6 C 19,3 km/h (3 Bft) 98,11 %
19.05.2018 12:59 20,2 C 17,8 C 60 % 1017,0 hPa 0,0 l/m 12,8 km/h (3 Bft) O-SO 108 1 min 0,000 mm 4,4 UV-I 855 W/m 12,2 C 18,0 C 14,5 km/h (3 Bft) 100,00 %
19.05.2018 13:00 20,1 C 17,8 C 59 % 1017,0 hPa 0,0 l/m 12,1 km/h (2 Bft) O-SO 109 1 min 0,559 mm 4,5 UV-I 867 W/m 11,8 C 18,1 C 16,1 km/h (3 Bft) 92,59 %
19.05.2018 13:02 20,1 C 17,8 C 60 % 1017,0 hPa 0,0 l/m 9,4 km/h (2 Bft) O-NO 57 2 min 0,000 mm 4,4 UV-I 850 W/m 12,1 C 19,0 C 17,7 km/h (3 Bft) 96,00 %
19.05.2018 13:03 20,1 C 17,8 C 62 % 1016,9 hPa 0,0 l/m 8,5 km/h (2 Bft) NO 54 1 min 0,000 mm 4,4 UV-I 880 W/m 12,6 C 19,3 C 14,5 km/h (3 Bft) 100,00 %
19.05.2018 13:04 20,1 C 17,8 C 65 % 1016,9 hPa 0,0 l/m 10,8 km/h (2 Bft) O 91 1 min 0,000 mm 4,6 UV-I 915 W/m 13,3 C 18,5 C 14,5 km/h (3 Bft) 100,00 %
19.05.2018 13:05 20,2 C 17,8 C 62 % 1016,9 hPa 0,0 l/m 13,5 km/h (3 Bft) O-NO 71 1 min 0,000 mm 4,3 UV-I 932 W/m 12,7 C 17,9 C 22,5 km/h (4 Bft) 100,00 %
19.05.2018 13:06 20,2 C 17,8 C 61 % 1016,9 hPa 0,0 l/m 17,0 km/h (3 Bft) O-NO 62 1 min 0,000 mm 3,3 UV-I 932 W/m 12,4 C 17,0 C 20,9 km/h (4 Bft) 100,00 %
19.05.2018 13:07 20,2 C 17,8 C 63 % 1016,9 hPa 0,0 l/m 16,3 km/h (3 Bft) N-NO 26 1 min 0,000 mm 4,5 UV-I 918 W/m 12,9 C 17,2 C 20,9 km/h (4 Bft) 92,31 %
19.05.2018 13:08 20,2 C 17,8 C 63 % 1016,8 hPa 0,0 l/m 14,1 km/h (3 Bft) NO 53 1 min 0,000 mm 4,5 UV-I 894 W/m 12,9 C 17,7 C 16,1 km/h (3 Bft) 100,00 %
19.05.2018 13:09 20,3 C 17,8 C 62 % 1016,9 hPa 0,0 l/m 16,5 km/h (3 Bft) NO 46 1 min 0,000 mm 4,4 UV-I 853 W/m 12,8 C 17,3 C 22,5 km/h (4 Bft) 100,00 %
19.05.2018 13:10 20,3 C 17,8 C 61 % 1016,8 hPa 0,0 l/m 16,2 km/h (3 Bft) O-NO 73 1 min 0,000 mm 4,5 UV-I 869 W/m 12,5 C 17,3 C 20,9 km/h (4 Bft) 100,00 %
19.05.2018 13:11 20,3 C 17,8 C 59 % 1016,8 hPa 0,0 l/m 15,3 km/h (3 Bft) O-NO 59 1 min 0,000 mm 4,6 UV-I 887 W/m 12,0 C 17,5 C 17,7 km/h (3 Bft) 100,00 %
19.05.2018 13:12 20,3 C 17,8 C 63 % 1016,8 hPa 0,0 l/m 9,4 km/h (2 Bft) O-NO 57 1 min 0,000 mm 4,6 UV-I 882 W/m 13,0 C 19,2 C 12,9 km/h (3 Bft) 100,00 %
19.05.2018 13:13 20,4 C 17,8 C 61 % 1016,8 hPa 0,0 l/m 10,5 km/h (2 Bft) NO 34 1 min 0,000 mm 4,6 UV-I 882 W/m 12,6 C 18,9 C 16,1 km/h (3 Bft) 96,55 %
19.05.2018 13:14 20,4 C 17,8 C 63 % 1016,7 hPa 0,0 l/m 8,9 km/h (2 Bft) NO 47 1 min 0,000 mm 4,4 UV-I 859 W/m 13,1 C 19,4 C 14,5 km/h (3 Bft) 100,00 %
19.05.2018 13:15 20,5 C 17,8 C 66 % 1016,7 hPa 0,0 l/m 9,7 km/h (2 Bft) O-NO 74 1 min 0,000 mm 4,4 UV-I 862 W/m 13,9 C 19,3 C 12,9 km/h (3 Bft) 100,00 %
19.05.2018 13:16 20,6 C 17,8 C 64 % 1016,7 hPa 0,0 l/m 13,3 km/h (3 Bft) NO 40 1 min 0,000 mm 4,5 UV-I 872 W/m 13,5 C 18,4 C 19,3 km/h (3 Bft) 100,00 %
19.05.2018 13:17 20,7 C 17,8 C 67 % 1016,6 hPa 0,0 l/m 15,8 km/h (3 Bft) N-NO 24 1 min 0,000 mm 4,4 UV-I 853 W/m 14,3 C 17,9 C 20,9 km/h (4 Bft) 100,00 %
19.05.2018 13:18 20,7 C 17,8 C 65 % 1016,6 hPa 0,0 l/m 16,2 km/h (3 Bft) NO 38 1 min 0,000 mm 4,6 UV-I 889 W/m 13,9 C 17,8 C 19,3 km/h (3 Bft) 100,00 %
19.05.2018 13:19 20,7 C 17,8 C 68 % 1016,6 hPa 0,0 l/m 13,8 km/h (3 Bft) N 11 1 min 0,000 mm 4,6 UV-I 893 W/m 14,6 C 18,4 C 19,3 km/h (3 Bft) 100,00 %
19.05.2018 13:20 20,7 C 17,8 C 66 % 1016,6 hPa 0,0 l/m 18,0 km/h (3 Bft) N-NO 15 1 min 0,000 mm 4,5 UV-I 886 W/m 14,1 C 17,5 C 19,3 km/h (3 Bft) 100,00 %
19.05.2018 13:21 20,6 C 17,8 C 64 % 1016,6 hPa 0,0 l/m 14,8 km/h (3 Bft) N-NO 30 1 min 0,000 mm 4,5 UV-I 864 W/m 13,5 C 18,0 C 17,7 km/h (3 Bft) 96,30 %
19.05.2018 13:22 20,5 C 17,8 C 65 % 1016,6 hPa 0,0 l/m 14,6 km/h (3 Bft) NO 39 1 min 0,000 mm 4,4 UV-I 862 W/m 13,7 C 17,9 C 16,1 km/h (3 Bft) 100,00 %
19.05.2018 13:23 20,5 C 17,8 C 67 % 1016,5 hPa 0,0 l/m 11,8 km/h (2 Bft) O-NO 70 1 min 0,000 mm 4,5 UV-I 872 W/m 14,2 C 18,7 C 17,7 km/h (3 Bft) 100,00 %
19.05.2018 13:24 20,6 C 17,8 C 63 % 1016,5 hPa 0,0 l/m 16,7 km/h (3 Bft) N-NO 28 1 min 0,000 mm 4,0 UV-I 865 W/m 13,3 C 17,6 C 24,1 km/h (4 Bft) 100,00 %
19.05.2018 13:25 20,5 C 17,8 C 63 % 1016,6 hPa 0,0 l/m 15,3 km/h (3 Bft) NO 36 1 min 0,000 mm 2,7 UV-I 550 W/m 13,2 C 17,8 C 20,9 km/h (4 Bft) 100,00 %
19.05.2018 13:26 20,3 C 17,8 C 63 % 1016,6 hPa 0,0 l/m 15,5 km/h (3 Bft) N-NO 15 0 min 0,000 mm 2,7 UV-I 236 W/m 13,0 C 17,5 C 19,3 km/h (3 Bft) 100,00 %
19.05.2018 13:27 20,2 C 18,3 C 63 % 1016,6 hPa 0,0 l/m 14,6 km/h (3 Bft) NO 49 0 min 0,000 mm 2,8 UV-I 278 W/m 12,9 C 17,6 C 19,3 km/h (3 Bft) 96,30 %
19.05.2018 13:28 20,1 C 18,3 C 64 % 1016,5 hPa 0,0 l/m 13,7 km/h (3 Bft) NO 49 0 min 0,000 mm 3,9 UV-I 369 W/m 13,1 C 17,7 C 20,9 km/h (4 Bft) 100,00 %
19.05.2018 13:29 20,1 C 18,3 C 63 % 1016,5 hPa 0,0 l/m 12,6 km/h (3 Bft) N-NO 32 1 min 0,000 mm 4,1 UV-I 905 W/m 12,8 C 18,0 C 17,7 km/h (3 Bft) 100,00 %
19.05.2018 13:30 20,1 C 18,3 C 63 % 1016,5 hPa 0,0 l/m 12,9 km/h (3 Bft) O-NO 74 1 min 0,000 mm 2,8 UV-I 662 W/m 12,8 C 17,9 C 22,5 km/h (4 Bft) 100,00 %
19.05.2018 13:31 20,1 C 18,3 C 63 % 1016,6 hPa 0,0 l/m 14,1 km/h (3 Bft) O-NO 59 0 min 0,000 mm 3,4 UV-I 257 W/m 12,8 C 17,6 C 19,3 km/h (3 Bft) 100,00 %
19.05.2018 13:32 20,1 C 18,3 C 63 % 1016,6 hPa 0,0 l/m 15,5 km/h (3 Bft) O 85 0 min 0,000 mm 4,2 UV-I 257 W/m 12,8 C 17,3 C 19,3 km/h (3 Bft) 100,00 %
19.05.2018 13:33 20,2 C 18,3 C 60 % 1016,6 hPa 0,0 l/m 15,1 km/h (3 Bft) NO 46 1 min 0,000 mm 4,4 UV-I 840 W/m 12,2 C 17,5 C 20,9 km/h (4 Bft) 100,00 %
19.05.2018 13:34 20,3 C 18,3 C 60 % 1016,6 hPa 0,0 l/m 15,9 km/h (3 Bft) O-NO 63 1 min 0,000 mm 4,4 UV-I 860 W/m 12,3 C 17,4 C 20,9 km/h (4 Bft) 100,00 %
19.05.2018 13:35 20,4 C 18,3 C 59 % 1016,6 hPa 0,0 l/m 14,1 km/h (3 Bft) O-NO 70 1 min 0,000 mm 4,4 UV-I 862 W/m 12,1 C 17,9 C 17,7 km/h (3 Bft) 100,00 %
19.05.2018 13:36 20,4 C 18,3 C 62 % 1016,6 hPa 0,0 l/m 6,4 km/h (2 Bft) O 79 1 min 0,000 mm 4,4 UV-I 861 W/m 12,9 C 20,4 C 9,7 km/h (2 Bft) 100,00 %
19.05.2018 13:37 20,6 C 18,3 C 63 % 1016,6 hPa 0,0 l/m 5,5 km/h (1 Bft) O-NO 69 1 min 0,000 mm 4,4 UV-I 849 W/m 13,3 C 20,6 C 9,7 km/h (2 Bft) 100,00 %
19.05.2018 13:38 20,7 C 18,3 C 61 % 1016,6 hPa 0,0 l/m 9,9 km/h (2 Bft) NO 49 1 min 0,000 mm 4,3 UV-I 829 W/m 12,9 C 19,4 C 12,9 km/h (3 Bft) 100,00 %
19.05.2018 13:39 20,8 C 18,3 C 61 % 1016,5 hPa 0,0 l/m 3,5 km/h (1 Bft) O-SO 113 1 min 0,000 mm 4,3 UV-I 833 W/m 13,0 C 20,8 C 9,7 km/h (2 Bft) 100,00 %
19.05.2018 13:40 20,7 C 18,3 C 60 % 1016,5 hPa 0,0 l/m 10,0 km/h (2 Bft) NO 52 1 min 0,000 mm 4,3 UV-I 824 W/m 12,7 C 19,4 C 16,1 km/h (3 Bft) 100,00 %
19.05.2018 13:41 20,8 C 18,3 C 62 % 1016,5 hPa 0,0 l/m 12,8 km/h (3 Bft) O-NO 76 1 min 0,000 mm 4,3 UV-I 860 W/m 13,2 C 18,7 C 20,9 km/h (4 Bft) 100,00 %
19.05.2018 13:42 20,8 C 18,3 C 62 % 1016,5 hPa 0,0 l/m 14,7 km/h (3 Bft) O-NO 77 1 min 0,000 mm 4,1 UV-I 840 W/m 13,2 C 18,3 C 19,3 km/h (3 Bft) 100,00 %
19.05.2018 13:43 20,8 C 18,3 C 59 % 1016,5 hPa 0,0 l/m 13,9 km/h (3 Bft) O 79 1 min 0,000 mm 3,9 UV-I 840 W/m 12,5 C 18,5 C 20,9 km/h (4 Bft) 100,00 %
19.05.2018 13:44 20,8 C 18,3 C 58 % 1016,5 hPa 0,0 l/m 18,0 km/h (3 Bft) O-SO 103 1 min 0,000 mm 4,2 UV-I 840 W/m 12,2 C 17,6 C 24,1 km/h (4 Bft) 100,00 %
19.05.2018 13:45 20,7 C 18,3 C 57 % 1016,6 hPa 0,0 l/m 16,9 km/h (3 Bft) O-SO 107 1 min 0,000 mm 4,0 UV-I 840 W/m 11,9 C 17,7 C 24,1 km/h (4 Bft) 100,00 %
19.05.2018 13:46 20,7 C 18,3 C 58 % 1016,5 hPa 0,0 l/m 10,8 km/h (2 Bft) NO 45 1 min 0,000 mm 4,1 UV-I 555 W/m 12,1 C 19,2 C 16,1 km/h (3 Bft) 100,00 %
19.05.2018 13:47 20,7 C 18,3 C 63 % 1016,4 hPa 0,0 l/m 13,8 km/h (3 Bft) N-NO 30 1 min 0,000 mm 4,2 UV-I 652 W/m 13,4 C 18,4 C 17,7 km/h (3 Bft) 100,00 %
19.05.2018 13:48 20,7 C 18,3 C 63 % 1016,5 hPa 0,0 l/m 14,3 km/h (3 Bft) O-NO 68 1 min 0,000 mm 4,3 UV-I 840 W/m 13,4 C 18,3 C 19,3 km/h (3 Bft) 100,00 %
19.05.2018 13:49 20,8 C 18,3 C 63 % 1016,5 hPa 0,0 l/m 14,3 km/h (3 Bft) O 101 1 min 0,000 mm 4,3 UV-I 858 W/m 13,5 C 18,4 C 17,7 km/h (3 Bft) 100,00 %
19.05.2018 13:50 20,9 C 18,3 C 58 % 1016,5 hPa 0,0 l/m 17,0 km/h (3 Bft) O-SO 105 1 min 0,000 mm 4,3 UV-I 878 W/m 12,3 C 17,9 C 22,5 km/h (4 Bft) 100,00 %
19.05.2018 13:51 20,9 C 18,3 C 56 % 1016,5 hPa 0,0 l/m 11,1 km/h (2 Bft) O-NO 74 1 min 0,000 mm 4,1 UV-I 809 W/m 11,8 C 19,3 C 14,5 km/h (3 Bft) 100,00 %
19.05.2018 13:52 20,9 C 18,3 C 58 % 1016,4 hPa 0,0 l/m 10,9 km/h (2 Bft) O 100 1 min 0,000 mm 4,1 UV-I 800 W/m 12,3 C 19,4 C 14,5 km/h (3 Bft) 100,00 %
19.05.2018 13:53 20,9 C 18,3 C 57 % 1016,4 hPa 0,0 l/m 12,8 km/h (3 Bft) O 87 1 min 0,000 mm 4,1 UV-I 784 W/m 12,1 C 18,9 C 19,3 km/h (3 Bft) 100,00 %
19.05.2018 13:54 21,1 C 18,3 C 58 % 1016,4 hPa 0,0 l/m 12,0 km/h (2 Bft) O-SO 106 1 min 0,000 mm 4,1 UV-I 811 W/m 12,5 C 19,3 C 16,1 km/h (3 Bft) 100,00 %
19.05.2018 13:55 21,1 C 18,3 C 57 % 1016,4 hPa 0,0 l/m 6,8 km/h (2 Bft) O-SO 109 1 min 0,000 mm 4,2 UV-I 861 W/m 12,2 C 21,0 C 11,3 km/h (2 Bft) 100,00 %
19.05.2018 13:56 21,1 C 18,3 C 56 % 1016,4 hPa 0,0 l/m 12,9 km/h (3 Bft) NO 53 1 min 0,000 mm 4,3 UV-I 882 W/m 12,0 C 19,1 C 19,3 km/h (3 Bft) 96,30 %
19.05.2018 13:57 21,2 C 18,3 C 62 % 1016,4 hPa 0,0 l/m 16,9 km/h (3 Bft) O-NO 61 1 min 0,000 mm 4,2 UV-I 877 W/m 13,6 C 18,3 C 20,9 km/h (4 Bft) 100,00 %
19.05.2018 13:58 21,2 C 18,3 C 59 % 1016,4 hPa 0,0 l/m 17,9 km/h (3 Bft) N-NO 20 1 min 0,000 mm 2,7 UV-I 875 W/m 12,9 C 18,1 C 22,5 km/h (4 Bft) 100,00 %
19.05.2018 13:59 21,1 C 18,3 C 58 % 1016,3 hPa 0,0 l/m 14,7 km/h (3 Bft) O-NO 59 1 min 0,000 mm 2,4 UV-I 595 W/m 12,5 C 18,6 C 20,9 km/h (4 Bft) 96,15 %
19.05.2018 14:00 20,8 C 18,3 C 58 % 1016,4 hPa 0,0 l/m 18,8 km/h (3 Bft) O-NO 70 0 min 0,508 mm 2,3 UV-I 216 W/m 12,2 C 17,5 C 24,1 km/h (4 Bft) 95,83 %
19.05.2018 14:02 20,4 C 18,3 C 55 % 1016,4 hPa 0,0 l/m 15,6 km/h (3 Bft) O 88 0 min 0,000 mm 2,8 UV-I 221 W/m 11,1 C 17,6 C 20,9 km/h (4 Bft) 100,00 %
19.05.2018 14:03 20,3 C 18,3 C 57 % 1016,4 hPa 0,0 l/m 13,8 km/h (3 Bft) O 82 0 min 0,000 mm 2,8 UV-I 221 W/m 11,5 C 17,9 C 17,7 km/h (3 Bft) 100,00 %
19.05.2018 14:04 20,2 C 18,3 C 57 % 1016,3 hPa 0,0 l/m 17,1 km/h (3 Bft) O 85 0 min 0,000 mm 3,6 UV-I 221 W/m 11,4 C 17,0 C 22,5 km/h (4 Bft) 100,00 %
19.05.2018 14:05 20,2 C 18,3 C 57 % 1016,4 hPa 0,0 l/m 18,9 km/h (3 Bft) O 96 1 min 0,000 mm 4,3 UV-I 523 W/m 11,4 C 16,7 C 22,5 km/h (4 Bft) 96,67 %
19.05.2018 14:06 20,2 C 18,3 C 57 % 1016,4 hPa 0,0 l/m 22,1 km/h (4 Bft) O 97 1 min 0,000 mm 4,3 UV-I 905 W/m 11,4 C 16,1 C 29,0 km/h (5 Bft) 100,00 %
19.05.2018 14:07 20,4 C 18,3 C 56 % 1016,3 hPa 0,0 l/m 18,0 km/h (3 Bft) SO 124 1 min 0,000 mm 4,2 UV-I 884 W/m 11,3 C 17,1 C 25,7 km/h (4 Bft) 93,33 %
19.05.2018 14:08 20,6 C 18,3 C 55 % 1016,3 hPa 0,0 l/m 11,8 km/h (2 Bft) O 101 1 min 0,000 mm 4,2 UV-I 870 W/m 11,2 C 18,8 C 20,9 km/h (4 Bft) 100,00 %
19.05.2018 14:09 20,7 C 18,3 C 56 % 1016,4 hPa 0,0 l/m 11,9 km/h (2 Bft) O-SO 114 1 min 0,000 mm 4,2 UV-I 881 W/m 11,6 C 18,9 C 16,1 km/h (3 Bft) 100,00 %
19.05.2018 14:10 20,7 C 18,3 C 55 % 1016,3 hPa 0,0 l/m 14,1 km/h (3 Bft) O-SO 115 1 min 0,000 mm 4,1 UV-I 861 W/m 11,3 C 18,3 C 19,3 km/h (3 Bft) 100,00 %
19.05.2018 14:11 20,8 C 18,3 C 56 % 1016,3 hPa 0,0 l/m 16,1 km/h (3 Bft) O-NO 71 1 min 0,000 mm 4,1 UV-I 851 W/m 11,7 C 18,0 C 22,5 km/h (4 Bft) 100,00 %
19.05.2018 14:12 20,9 C 18,3 C 56 % 1016,2 hPa 0,0 l/m 16,5 km/h (3 Bft) O 95 1 min 0,000 mm 4,1 UV-I 864 W/m 11,8 C 18,0 C 20,9 km/h (4 Bft) 100,00 %
19.05.2018 14:13 20,9 C 18,3 C 55 % 1016,3 hPa 0,0 l/m 11,9 km/h (2 Bft) O 89 1 min 0,000 mm 4,0 UV-I 867 W/m 11,5 C 19,1 C 17,7 km/h (3 Bft) 100,00 %
19.05.2018 14:14 20,9 C 18,3 C 54 % 1016,4 hPa 0,0 l/m 14,4 km/h (3 Bft) O-NO 71 1 min 0,000 mm 4,1 UV-I 867 W/m 11,2 C 18,5 C 17,7 km/h (3 Bft) 100,00 %
19.05.2018 14:15 20,9 C 18,3 C 56 % 1016,3 hPa 0,0 l/m 10,7 km/h (2 Bft) O-SO 115 1 min 0,000 mm 4,0 UV-I 915 W/m 11,8 C 19,4 C 16,1 km/h (3 Bft) 100,00 %
19.05.2018 14:16 21,1 C 18,3 C 56 % 1016,3 hPa 0,0 l/m 15,6 km/h (3 Bft) O 92 1 min 0,000 mm 3,5 UV-I 918 W/m 12,0 C 18,5 C 25,7 km/h (4 Bft) 100,00 %
19.05.2018 14:17 21,1 C 18,3 C 57 % 1016,3 hPa 0,0 l/m 18,9 km/h (3 Bft) O-NO 57 1 min 0,000 mm 3,0 UV-I 918 W/m 12,2 C 17,8 C 29,0 km/h (5 Bft) 100,00 %
19.05.2018 14:18 21,1 C 18,3 C 59 % 1016,4 hPa 0,0 l/m 19,1 km/h (3 Bft) NO 55 1 min 0,000 mm 2,8 UV-I 648 W/m 12,8 C 17,8 C 24,1 km/h (4 Bft) 100,00 %
19.05.2018 14:19 20,9 C 18,3 C 59 % 1016,3 hPa 0,0 l/m 17,5 km/h (3 Bft) O 80 0 min 0,000 mm 3,3 UV-I 348 W/m 12,6 C 17,8 C 27,4 km/h (4 Bft) 100,00 %
19.05.2018 14:20 20,9 C 18,3 C 58 % 1016,3 hPa 0,0 l/m 18,3 km/h (3 Bft) NO 56 0 min 0,000 mm 3,2 UV-I 348 W/m 12,3 C 17,7 C 24,1 km/h (4 Bft) 96,67 %
19.05.2018 14:21 20,8 C 18,3 C 58 % 1016,3 hPa 0,0 l/m 15,9 km/h (3 Bft) N 11 0 min 0,000 mm 3,0 UV-I 332 W/m 12,2 C 18,0 C 20,9 km/h (4 Bft) 100,00 %
19.05.2018 14:22 20,7 C 18,3 C 59 % 1016,2 hPa 0,0 l/m 13,1 km/h (3 Bft) NO 51 1 min 0,000 mm 3,8 UV-I 505 W/m 12,4 C 18,5 C 16,1 km/h (3 Bft) 96,30 %
19.05.2018 14:23 20,8 C 18,3 C 61 % 1016,3 hPa 0,0 l/m 8,4 km/h (2 Bft) NO 40 1 min 0,000 mm 3,3 UV-I 925 W/m 13,0 C 20,0 C 12,9 km/h (3 Bft) 100,00 %
19.05.2018 14:24 20,8 C 18,3 C 57 % 1016,3 hPa 0,0 l/m 6,0 km/h (2 Bft) N-NO 32 1 min 0,000 mm 2,4 UV-I 489 W/m 12,0 C 20,8 C 12,9 km/h (3 Bft) 96,30 %
19.05.2018 14:25 20,8 C 18,3 C 58 % 1016,3 hPa 0,0 l/m 6,8 km/h (2 Bft) O-NO 72 0 min 0,000 mm 3,0 UV-I 302 W/m 12,2 C 20,7 C 12,9 km/h (3 Bft) 100,00 %
19.05.2018 14:26 20,7 C 18,3 C 56 % 1016,3 hPa 0,0 l/m 12,0 km/h (2 Bft) NO 53 0 min 0,000 mm 2,9 UV-I 303 W/m 11,6 C 18,8 C 16,1 km/h (3 Bft) 96,30 %
19.05.2018 14:27 20,7 C 18,3 C 56 % 1016,3 hPa 0,0 l/m 18,5 km/h (3 Bft) O 94 0 min 0,000 mm 2,5 UV-I 313 W/m 11,6 C 17,4 C 24,1 km/h (4 Bft) 96,88 %
19.05.2018 14:28 20,7 C 18,3 C 56 % 1016,3 hPa 0,0 l/m 16,8 km/h (3 Bft) O-NO 71 0 min 0,000 mm 3,1 UV-I 313 W/m 11,6 C 17,7 C 24,1 km/h (4 Bft) 100,00 %
19.05.2018 14:29 20,6 C 18,3 C 54 % 1016,3 hPa 0,0 l/m 15,4 km/h (3 Bft) O 82 0 min 0,000 mm 2,9 UV-I 313 W/m 11,0 C 17,9 C 20,9 km/h (4 Bft) 96,15 %
19.05.2018 14:30 20,6 C 18,3 C 55 % 1016,3 hPa 0,0 l/m 13,4 km/h (3 Bft) O-NO 67 0 min 0,000 mm 3,5 UV-I 365 W/m 11,2 C 18,4 C 16,1 km/h (3 Bft) 100,00 %
19.05.2018 14:31 20,6 C 18,3 C 54 % 1016,2 hPa 0,0 l/m 14,7 km/h (3 Bft) O 82 0 min 0,000 mm 3,1 UV-I 398 W/m 11,0 C 18,0 C 17,7 km/h (3 Bft) 96,55 %
19.05.2018 14:32 20,6 C 18,3 C 53 % 1016,2 hPa 0,0 l/m 17,5 km/h (3 Bft) O 84 0 min 0,000 mm 2,5 UV-I 319 W/m 10,7 C 17,4 C 24,1 km/h (4 Bft) 100,00 %
19.05.2018 14:33 20,4 C 18,3 C 53 % 1016,2 hPa 0,0 l/m 14,8 km/h (3 Bft) O 79 0 min 0,000 mm 2,4 UV-I 281 W/m 10,5 C 17,8 C 19,3 km/h (3 Bft) 96,30 %
19.05.2018 14:34 20,4 C 18,3 C 55 % 1016,2 hPa 0,0 l/m 18,7 km/h (3 Bft) O 80 0 min 0,000 mm 2,9 UV-I 281 W/m 11,1 C 17,0 C 22,5 km/h (4 Bft) 100,00 %
19.05.2018 14:35 20,4 C 18,3 C 55 % 1016,2 hPa 0,0 l/m 14,4 km/h (3 Bft) O 99 0 min 0,000 mm 2,9 UV-I 394 W/m 11,1 C 17,9 C 22,5 km/h (4 Bft) 96,15 %
19.05.2018 14:36 20,4 C 18,3 C 55 % 1016,2 hPa 0,0 l/m 18,6 km/h (3 Bft) O 82 1 min 0,000 mm 3,4 UV-I 476 W/m 11,1 C 17,0 C 24,1 km/h (4 Bft) 95,83 %
19.05.2018 14:37 20,4 C 18,3 C 55 % 1016,2 hPa 0,0 l/m 15,9 km/h (3 Bft) O-SO 107 1 min 0,000 mm 3,1 UV-I 476 W/m 11,1 C 17,5 C 20,9 km/h (4 Bft) 100,00 %
19.05.2018 14:38 20,4 C 18,3 C 54 % 1016,2 hPa 0,0 l/m 13,6 km/h (3 Bft) O-NO 72 1 min 0,000 mm 2,7 UV-I 468 W/m 10,8 C 18,1 C 17,7 km/h (3 Bft) 100,00 %
19.05.2018 14:39 20,4 C 18,3 C 56 % 1016,2 hPa 0,0 l/m 10,1 km/h (2 Bft) O-NO 74 0 min 0,000 mm 2,5 UV-I 303 W/m 11,3 C 19,1 C 16,1 km/h (3 Bft) 96,67 %
19.05.2018 14:40 20,4 C 18,3 C 55 % 1016,1 hPa 0,0 l/m 8,0 km/h (2 Bft) O 101 0 min 0,000 mm 2,5 UV-I 302 W/m 11,1 C 19,8 C 14,5 km/h (3 Bft) 95,65 %
19.05.2018 14:41 20,4 C 18,3 C 54 % 1016,1 hPa 0,0 l/m 10,5 km/h (2 Bft) N-NO 26 0 min 0,000 mm 2,4 UV-I 348 W/m 10,8 C 18,9 C 14,5 km/h (3 Bft) 95,83 %
19.05.2018 14:42 20,4 C 18,3 C 56 % 1016,1 hPa 0,0 l/m 18,5 km/h (3 Bft) SO 142 0 min 0,000 mm 2,9 UV-I 394 W/m 11,3 C 17,0 C 24,1 km/h (4 Bft) 96,15 %
19.05.2018 14:43 20,5 C 18,3 C 55 % 1016,1 hPa 0,0 l/m 15,9 km/h (3 Bft) O 88 0 min 0,000 mm 3,3 UV-I 394 W/m 11,1 C 17,7 C 22,5 km/h (4 Bft) 100,00 %
19.05.2018 14:44 20,7 C 18,3 C 55 % 1016,1 hPa 0,0 l/m 15,4 km/h (3 Bft) O 86 0 min 0,000 mm 3,7 UV-I 426 W/m 11,3 C 18,0 C 20,9 km/h (4 Bft) 96,55 %
19.05.2018 14:45 20,8 C 18,3 C 53 % 1016,1 hPa 0,0 l/m 13,4 km/h (3 Bft) NO 53 1 min 0,000 mm 3,8 UV-I 901 W/m 10,9 C 18,6 C 16,1 km/h (3 Bft) 96,30 %
19.05.2018 14:46 20,9 C 18,3 C 57 % 1016,1 hPa 0,0 l/m 9,2 km/h (2 Bft) O 98 1 min 0,000 mm 3,7 UV-I 908 W/m 12,1 C 19,9 C 14,5 km/h (3 Bft) 92,86 %
19.05.2018 14:47 21,1 C 18,3 C 54 % 1016,1 hPa 0,0 l/m 12,3 km/h (3 Bft) O-SO 107 1 min 0,000 mm 3,6 UV-I 937 W/m 11,4 C 19,2 C 16,1 km/h (3 Bft) 96,30 %
19.05.2018 14:48 21,2 C 18,3 C 55 % 1016,1 hPa 0,0 l/m 15,2 km/h (3 Bft) O 87 1 min 0,000 mm 3,3 UV-I 917 W/m 11,8 C 18,7 C 20,9 km/h (4 Bft) 100,00 %
19.05.2018 14:49 21,3 C 18,3 C 52 % 1016,1 hPa 0,0 l/m 13,0 km/h (3 Bft) O-NO 69 1 min 0,000 mm 3,7 UV-I 958 W/m 11,0 C 19,3 C 17,7 km/h (3 Bft) 93,33 %
19.05.2018 14:50 21,3 C 18,3 C 55 % 1016,1 hPa 0,0 l/m 15,8 km/h (3 Bft) O-SO 104 1 min 0,000 mm 3,9 UV-I 993 W/m 11,9 C 18,7 C 20,9 km/h (4 Bft) 100,00 %
19.05.2018 14:51 21,3 C 18,3 C 52 % 1016,1 hPa 0,0 l/m 15,3 km/h (3 Bft) O-SO 115 1 min 0,000 mm 3,9 UV-I 969 W/m 11,0 C 18,8 C 17,7 km/h (3 Bft) 96,55 %
19.05.2018 14:52 21,4 C 18,3 C 53 % 1016,1 hPa 0,0 l/m 10,6 km/h (2 Bft) O-NO 76 1 min 0,000 mm 3,6 UV-I 926 W/m 11,4 C 20,0 C 17,7 km/h (3 Bft) 96,88 %
19.05.2018 14:53 21,6 C 18,3 C 55 % 1016,1 hPa 0,0 l/m 18,6 km/h (3 Bft) O 92 1 min 0,000 mm 3,3 UV-I 905 W/m 12,2 C 18,5 C 25,7 km/h (4 Bft) 100,00 %
19.05.2018 14:54 21,5 C 18,3 C 52 % 1016,1 hPa 0,0 l/m 13,8 km/h (3 Bft) O-NO 71 1 min 0,000 mm 2,9 UV-I 905 W/m 11,2 C 19,3 C 19,3 km/h (3 Bft) 91,30 %
19.05.2018 14:55 21,4 C 18,3 C 54 % 1016,1 hPa 0,0 l/m 14,2 km/h (3 Bft) O-SO 105 1 min 0,000 mm 3,3 UV-I 905 W/m 11,7 C 19,1 C 20,9 km/h (4 Bft) 100,00 %
19.05.2018 14:56 21,4 C 18,3 C 55 % 1016,1 hPa 0,0 l/m 15,0 km/h (3 Bft) O-NO 71 1 min 0,000 mm 3,5 UV-I 881 W/m 12,0 C 18,9 C 19,3 km/h (3 Bft) 96,30 %
19.05.2018 14:57 21,5 C 18,3 C 55 % 1016,0 hPa 0,0 l/m 16,6 km/h (3 Bft) NO 50 1 min 0,000 mm 3,5 UV-I 860 W/m 12,1 C 18,7 C 20,9 km/h (4 Bft) 96,55 %
19.05.2018 14:58 21,4 C 18,3 C 53 % 1016,0 hPa 0,0 l/m 13,8 km/h (3 Bft) O 98 1 min 0,000 mm 3,4 UV-I 780 W/m 11,4 C 19,2 C 19,3 km/h (3 Bft) 100,00 %
19.05.2018 14:59 21,4 C 18,3 C 52 % 1016,1 hPa 0,0 l/m 17,8 km/h (3 Bft) O 88 1 min 0,000 mm 3,3 UV-I 744 W/m 11,1 C 18,4 C 22,5 km/h (4 Bft) 90,91 %
19.05.2018 15:00 21,4 C 18,3 C 52 % 1016,0 hPa 0,0 l/m 16,4 km/h (3 Bft) O 90 1 min 0,482 mm 3,2 UV-I 712 W/m 11,1 C 18,7 C 25,7 km/h (4 Bft) 100,00 %
19.05.2018 15:02 21,3 C 18,3 C 52 % 1016,1 hPa 0,0 l/m 21,4 km/h (4 Bft) O-NO 76 2 min 0,000 mm 3,2 UV-I 696 W/m 11,0 C 17,7 C 29,0 km/h (5 Bft) 97,73 %
19.05.2018 15:03 21,3 C 18,3 C 52 % 1016,1 hPa 0,0 l/m 18,7 km/h (3 Bft) O-NO 77 1 min 0,000 mm 3,1 UV-I 650 W/m 11,0 C 18,1 C 24,1 km/h (4 Bft) 96,55 %
19.05.2018 15:04 21,3 C 18,3 C 53 % 1016,1 hPa 0,0 l/m 16,9 km/h (3 Bft) O-NO 59 1 min 0,000 mm 3,0 UV-I 640 W/m 11,3 C 18,4 C 24,1 km/h (4 Bft) 98,05 %
19.05.2018 15:05 21,2 C 18,3 C 54 % 1016,1 hPa 0,0 l/m 14,6 km/h (3 Bft) O 80 1 min 0,000 mm 2,9 UV-I 612 W/m 11,5 C 18,8 C 19,3 km/h (3 Bft) 97,56 %
19.05.2018 15:06 21,2 C 18,3 C 55 % 1016,1 hPa 0,0 l/m 12,7 km/h (3 Bft) NO 46 1 min 0,000 mm 2,7 UV-I 533 W/m 11,8 C 19,2 C 22,5 km/h (4 Bft) 100,00 %
19.05.2018 15:07 21,2 C 18,3 C 57 % 1016,1 hPa 0,0 l/m 15,0 km/h (3 Bft) O-NO 73 1 min 0,000 mm 2,7 UV-I 514 W/m 12,3 C 18,7 C 20,9 km/h (4 Bft) 95,65 %
19.05.2018 15:08 21,3 C 18,3 C 56 % 1016,1 hPa 0,0 l/m 9,7 km/h (2 Bft) O-NO 69 1 min 0,000 mm 2,7 UV-I 576 W/m 12,2 C 20,2 C 14,5 km/h (3 Bft) 95,83 %
19.05.2018 15:09 21,3 C 18,3 C 56 % 1016,1 hPa 0,0 l/m 16,0 km/h (3 Bft) O 84 1 min 0,000 mm 2,8 UV-I 591 W/m 12,2 C 18,6 C 20,9 km/h (4 Bft) 100,00 %
19.05.2018 15:10 21,3 C 18,3 C 56 % 1016,1 hPa 0,0 l/m 16,4 km/h (3 Bft) O 90 1 min 0,000 mm 2,8 UV-I 598 W/m 12,2 C 18,5 C 20,9 km/h (4 Bft) 95,83 %
19.05.2018 15:11 21,3 C 18,3 C 56 % 1016,1 hPa 0,0 l/m 14,7 km/h (3 Bft) NO 51 1 min 0,000 mm 2,8 UV-I 603 W/m 12,2 C 18,9 C 22,5 km/h (4 Bft) 100,00 %
19.05.2018 15:13 21,2 C 18,3 C 56 % 1016,1 hPa 0,0 l/m 21,2 km/h (4 Bft) O 99 2 min 0,000 mm 2,8 UV-I 661 W/m 12,1 C 17,6 C 27,4 km/h (4 Bft) 98,00 %
19.05.2018 15:14 21,1 C 18,3 C 55 % 1016,1 hPa 0,0 l/m 18,0 km/h (3 Bft) O-NO 70 1 min 0,000 mm 2,8 UV-I 655 W/m 11,7 C 18,0 C 24,1 km/h (4 Bft) 95,65 %
19.05.2018 15:15 21,0 C 18,3 C 55 % 1016,2 hPa 0,0 l/m 21,8 km/h (4 Bft) O-NO 61 1 min 0,000 mm 2,8 UV-I 704 W/m 11,6 C 17,2 C 27,4 km/h (4 Bft) 100,00 %
19.05.2018 15:16 21,0 C 18,3 C 56 % 1016,2 hPa 0,0 l/m 12,7 km/h (3 Bft) O-NO 64 1 min 0,000 mm 2,8 UV-I 682 W/m 11,9 C 19,0 C 19,3 km/h (3 Bft) 92,86 %
19.05.2018 15:18 21,0 C 18,3 C 60 % 1016,1 hPa 0,0 l/m 18,4 km/h (3 Bft) NO 42 2 min 0,000 mm 2,7 UV-I 657 W/m 12,9 C 17,8 C 27,4 km/h (4 Bft) 98,11 %
19.05.2018 15:19 20,9 C 18,3 C 59 % 1016,1 hPa 0,0 l/m 18,6 km/h (3 Bft) NO 36 1 min 0,000 mm 2,6 UV-I 686 W/m 12,6 C 17,6 C 22,5 km/h (4 Bft) 95,83 %
19.05.2018 15:20 20,9 C 18,3 C 61 % 1016,1 hPa 0,0 l/m 14,9 km/h (3 Bft) NO 48 1 min 0,000 mm 2,7 UV-I 700 W/m 13,1 C 18,4 C 19,3 km/h (3 Bft) 100,00 %
19.05.2018 15:21 21,0 C 18,3 C 60 % 1016,1 hPa 0,0 l/m 10,5 km/h (2 Bft) NO 43 1 min 0,000 mm 2,7 UV-I 693 W/m 12,9 C 19,6 C 16,1 km/h (3 Bft) 96,30 %
19.05.2018 15:22 21,2 C 18,9 C 59 % 1016,1 hPa 0,0 l/m 18,3 km/h (3 Bft) O-NO 69 1 min 0,000 mm 2,7 UV-I 665 W/m 12,9 C 18,1 C 24,1 km/h (4 Bft) 100,00 %
19.05.2018 15:23 21,2 C 18,9 C 57 % 1016,1 hPa 0,0 l/m 17,9 km/h (3 Bft) NO 39 1 min 0,000 mm 2,5 UV-I 628 W/m 12,3 C 18,1 C 24,1 km/h (4 Bft) 93,33 %
19.05.2018 15:24 21,2 C 18,9 C 57 % 1016,1 hPa 0,0 l/m 16,6 km/h (3 Bft) NO 51 1 min 0,000 mm 2,4 UV-I 555 W/m 12,3 C 18,4 C 22,5 km/h (4 Bft) 100,00 %
19.05.2018 15:25 21,1 C 18,9 C 55 % 1016,1 hPa 0,0 l/m 15,9 km/h (3 Bft) O-NO 65 1 min 0,000 mm 2,3 UV-I 513 W/m 11,7 C 18,4 C 19,3 km/h (3 Bft) 96,30 %
19.05.2018 15:26 21,1 C 18,9 C 53 % 1016,1 hPa 0,0 l/m 17,5 km/h (3 Bft) O-NO 74 1 min 0,000 mm 2,2 UV-I 436 W/m 11,1 C 18,1 C 22,5 km/h (4 Bft) 100,00 %
19.05.2018 15:27 20,9 C 18,9 C 55 % 1016,1 hPa 0,0 l/m 16,2 km/h (3 Bft) NO 46 1 min 0,000 mm 2,2 UV-I 433 W/m 11,5 C 18,1 C 24,1 km/h (4 Bft) 95,83 %
19.05.2018 15:28 20,9 C 18,9 C 58 % 1016,1 hPa 0,0 l/m 18,4 km/h (3 Bft) NO 51 1 min 0,000 mm 2,3 UV-I 439 W/m 12,3 C 17,7 C 25,7 km/h (4 Bft) 95,65 %
19.05.2018 15:29 21,0 C 18,9 C 58 % 1016,1 hPa 0,0 l/m 13,0 km/h (3 Bft) NO 56 1 min 0,000 mm 2,2 UV-I 482 W/m 12,4 C 18,9 C 17,7 km/h (3 Bft) 100,00 %
19.05.2018 15:30 21,0 C 18,9 C 56 % 1016,1 hPa 0,0 l/m 15,8 km/h (3 Bft) NO 56 1 min 0,000 mm 2,2 UV-I 461 W/m 11,9 C 18,3 C 19,3 km/h (3 Bft) 97,06 %
19.05.2018 15:31 20,9 C 18,9 C 54 % 1016,1 hPa 0,0 l/m 10,5 km/h (2 Bft) NO 35 1 min 0,000 mm 2,2 UV-I 466 W/m 11,2 C 19,5 C 14,5 km/h (3 Bft) 100,00 %
19.05.2018 15:32 21,0 C 18,9 C 56 % 1016,1 hPa 0,0 l/m 9,7 km/h (2 Bft) NO 42 1 min 0,000 mm 2,2 UV-I 525 W/m 11,9 C 19,8 C 14,5 km/h (3 Bft) 100,00 %
19.05.2018 15:33 21,0 C 18,9 C 55 % 1016,1 hPa 0,0 l/m 16,8 km/h (3 Bft) NO 38 1 min 0,000 mm 2,2 UV-I 504 W/m 11,6 C 18,1 C 25,7 km/h (4 Bft) 96,55 %
19.05.2018 15:34 21,0 C 18,9 C 56 % 1016,0 hPa 0,0 l/m 20,0 km/h (4 Bft) O 91 1 min 0,000 mm 2,1 UV-I 472 W/m 11,9 C 17,5 C 29,0 km/h (5 Bft) 96,30 %
19.05.2018 15:35 21,0 C 18,9 C 55 % 1016,1 hPa 0,0 l/m 20,4 km/h (4 Bft) O-NO 71 1 min 0,000 mm 1,9 UV-I 468 W/m 11,6 C 17,4 C 25,7 km/h (4 Bft) 100,00 %
19.05.2018 15:36 20,9 C 18,9 C 54 % 1016,1 hPa 0,0 l/m 22,2 km/h (4 Bft) O-NO 63 1 min 0,000 mm 1,7 UV-I 468 W/m 11,2 C 17,0 C 29,0 km/h (5 Bft) 93,33 %
19.05.2018 15:37 20,8 C 18,9 C 53 % 1016,1 hPa 0,0 l/m 14,1 km/h (3 Bft) O 82 0 min 0,000 mm 1,8 UV-I 320 W/m 10,9 C 18,4 C 17,7 km/h (3 Bft) 100,00 %
19.05.2018 15:38 20,7 C 18,9 C 55 % 1016,0 hPa 0,0 l/m 12,5 km/h (3 Bft) O-NO 78 0 min 0,000 mm 1,8 UV-I 392 W/m 11,3 C 18,7 C 16,1 km/h (3 Bft) 91,67 %
19.05.2018 15:39 20,6 C 18,9 C 54 % 1016,0 hPa 0,0 l/m 15,7 km/h (3 Bft) O-NO 71 0 min 0,000 mm 1,6 UV-I 331 W/m 11,0 C 17,8 C 20,9 km/h (4 Bft) 91,30 %
19.05.2018 15:40 20,6 C 18,9 C 53 % 1016,0 hPa 0,0 l/m 18,1 km/h (3 Bft) O 98 0 min 0,000 mm 1,5 UV-I 238 W/m 10,7 C 17,3 C 22,5 km/h (4 Bft) 95,83 %
19.05.2018 15:41 20,5 C 18,9 C 53 % 1016,0 hPa 0,0 l/m 14,2 km/h (3 Bft) O-NO 78 0 min 0,000 mm 1,5 UV-I 244 W/m 10,6 C 18,0 C 19,3 km/h (3 Bft) 95,65 %
19.05.2018 15:42 20,4 C 18,9 C 52 % 1016,0 hPa 0,0 l/m 14,3 km/h (3 Bft) NO 40 0 min 0,000 mm 1,6 UV-I 251 W/m 10,2 C 17,9 C 17,7 km/h (3 Bft) 100,00 %
19.05.2018 15:43 20,3 C 18,9 C 55 % 1016,0 hPa 0,0 l/m 17,6 km/h (3 Bft) O 82 0 min 0,000 mm 1,6 UV-I 258 W/m 11,0 C 17,1 C 24,1 km/h (4 Bft) 96,55 %
19.05.2018 15:44 20,3 C 18,9 C 53 % 1016,1 hPa 0,0 l/m 15,4 km/h (3 Bft) NO 35 0 min 0,000 mm 1,6 UV-I 260 W/m 10,4 C 17,5 C 20,9 km/h (4 Bft) 100,00 %
19.05.2018 15:45 20,2 C 18,9 C 53 % 1016,1 hPa 0,0 l/m 19,6 km/h (3 Bft) O-NO 62 0 min 0,000 mm 1,6 UV-I 258 W/m 10,3 C 16,5 C 24,1 km/h (4 Bft) 92,86 %
19.05.2018 15:46 20,2 C 18,9 C 54 % 1016,0 hPa 0,0 l/m 18,6 km/h (3 Bft) NO 42 0 min 0,000 mm 1,6 UV-I 256 W/m 10,6 C 16,7 C 25,7 km/h (4 Bft) 96,30 %
19.05.2018 15:47 20,1 C 18,9 C 55 % 1016,0 hPa 0,0 l/m 20,6 km/h (4 Bft) NO 51 0 min 0,000 mm 1,6 UV-I 253 W/m 10,8 C 16,2 C 29,0 km/h (5 Bft) 94,44 %
19.05.2018 15:48 20,0 C 18,9 C 54 % 1016,0 hPa 0,0 l/m 22,8 km/h (4 Bft) O-NO 65 0 min 0,000 mm 1,5 UV-I 250 W/m 10,4 C 15,7 C 27,4 km/h (4 Bft) 100,00 %
19.05.2018 15:49 20,0 C 18,9 C 55 % 1016,0 hPa 0,0 l/m 20,2 km/h (4 Bft) O-NO 65 0 min 0,000 mm 1,5 UV-I 250 W/m 10,7 C 16,2 C 27,4 km/h (4 Bft) 96,30 %
19.05.2018 15:50 20,0 C 18,9 C 54 % 1016,0 hPa 0,0 l/m 13,4 km/h (3 Bft) O-NO 67 0 min 0,000 mm 1,5 UV-I 253 W/m 10,4 C 17,6 C 17,7 km/h (3 Bft) 96,15 %
19.05.2018 15:51 20,0 C 18,9 C 54 % 1016,0 hPa 0,0 l/m 19,4 km/h (3 Bft) NO 43 0 min 0,000 mm 1,5 UV-I 255 W/m 10,4 C 16,3 C 24,1 km/h (4 Bft) 93,33 %
19.05.2018 15:52 19,9 C 18,9 C 55 % 1016,0 hPa 0,0 l/m 20,5 km/h (4 Bft) O 92 0 min 0,000 mm 1,5 UV-I 258 W/m 10,6 C 16,0 C 25,7 km/h (4 Bft) 100,00 %
19.05.2018 15:53 19,9 C 18,9 C 54 % 1016,0 hPa 0,0 l/m 16,5 km/h (3 Bft) O-NO 69 0 min 0,000 mm 1,5 UV-I 260 W/m 10,3 C 16,8 C 22,5 km/h (4 Bft) 96,30 %
19.05.2018 15:54 20,0 C 18,9 C 54 % 1016,0 hPa 0,0 l/m 19,2 km/h (3 Bft) O 82 0 min 0,000 mm 1,5 UV-I 263 W/m 10,4 C 16,4 C 24,1 km/h (4 Bft) 95,65 %
19.05.2018 15:55 20,0 C 18,9 C 54 % 1016,0 hPa 0,0 l/m 15,6 km/h (3 Bft) O 95 0 min 0,000 mm 1,5 UV-I 267 W/m 10,4 C 17,1 C 20,9 km/h (4 Bft) 100,00 %
19.05.2018 15:56 20,0 C 18,9 C 54 % 1016,0 hPa 0,0 l/m 16,4 km/h (3 Bft) O-NO 75 0 min 0,000 mm 1,5 UV-I 272 W/m 10,4 C 16,9 C 20,9 km/h (4 Bft) 96,55 %
19.05.2018 15:57 20,0 C 18,9 C 53 % 1016,0 hPa 0,0 l/m 17,8 km/h (3 Bft) N-NO 33 0 min 0,000 mm 1,5 UV-I 275 W/m 10,1 C 16,6 C 22,5 km/h (4 Bft) 100,00 %
19.05.2018 15:58 20,0 C 18,9 C 56 % 1016,0 hPa 0,0 l/m 16,6 km/h (3 Bft) O 90 0 min 0,000 mm 1,5 UV-I 278 W/m 11,0 C 16,9 C 20,9 km/h (4 Bft) 91,30 %
19.05.2018 15:59 19,9 C 18,9 C 54 % 1016,0 hPa 0,0 l/m 18,6 km/h (3 Bft) O-NO 63 0 min 0,000 mm 1,5 UV-I 285 W/m 10,3 C 16,3 C 27,4 km/h (4 Bft) 100,00 %
19.05.2018 16:00 19,8 C 18,9 C 54 % 1015,9 hPa 0,0 l/m 21,8 km/h (4 Bft) O-NO 69 0 min 0,000 mm 1,5 UV-I 293 W/m 10,2 C 15,6 C 27,4 km/h (4 Bft) 90,91 %
19.05.2018 16:02 19,9 C 18,9 C 53 % 1016,0 hPa 0,0 l/m 14,8 km/h (3 Bft) NO 54 0 min 0,381 mm 1,5 UV-I 312 W/m 10,0 C 17,2 C 24,1 km/h (4 Bft) 98,21 %
19.05.2018 16:03 19,9 C 18,9 C 53 % 1016,0 hPa 0,0 l/m 10,9 km/h (2 Bft) O-NO 67 0 min 0,000 mm 1,5 UV-I 318 W/m 10,0 C 18,2 C 16,1 km/h (3 Bft) 96,30 %
19.05.2018 16:04 20,0 C 18,9 C 55 % 1016,0 hPa 0,0 l/m 10,2 km/h (2 Bft) O-NO 60 0 min 0,000 mm 1,5 UV-I 318 W/m 10,7 C 18,6 C 14,5 km/h (3 Bft) 100,00 %
19.05.2018 16:05 20,0 C 18,9 C 53 % 1016,0 hPa 0,0 l/m 12,9 km/h (3 Bft) O 80 0 min 0,000 mm 1,5 UV-I 320 W/m 10,1 C 17,8 C 19,3 km/h (3 Bft) 96,88 %
19.05.2018 16:06 20,1 C 18,9 C 54 % 1015,9 hPa 0,0 l/m 13,2 km/h (3 Bft) O-NO 78 0 min 0,000 mm 1,5 UV-I 330 W/m 10,5 C 17,8 C 17,7 km/h (3 Bft) 100,00 %
19.05.2018 16:07 20,1 C 18,9 C 53 % 1015,9 hPa 0,0 l/m 10,7 km/h (2 Bft) NO 40 0 min 0,000 mm 1,5 UV-I 339 W/m 10,2 C 18,5 C 14,5 km/h (3 Bft) 93,33 %
19.05.2018 16:08 20,1 C 18,9 C 55 % 1015,9 hPa 0,0 l/m 12,2 km/h (2 Bft) O-NO 63 0 min 0,000 mm 1,5 UV-I 349 W/m 10,8 C 18,1 C 16,1 km/h (3 Bft) 100,00 %
19.05.2018 16:09 20,1 C 18,9 C 57 % 1016,0 hPa 0,0 l/m 18,4 km/h (3 Bft) O-NO 65 0 min 0,000 mm 1,5 UV-I 362 W/m 11,3 C 16,6 C 22,5 km/h (4 Bft) 95,65 %
19.05.2018 16:10 20,1 C 18,9 C 55 % 1015,9 hPa 0,0 l/m 13,7 km/h (3 Bft) O 90 1 min 0,000 mm 1,6 UV-I 378 W/m 10,8 C 17,7 C 19,3 km/h (3 Bft) 100,00 %
19.05.2018 16:11 20,1 C 18,9 C 53 % 1015,9 hPa 0,0 l/m 14,8 km/h (3 Bft) O-NO 60 1 min 0,000 mm 1,6 UV-I 411 W/m 10,2 C 17,4 C 20,9 km/h (4 Bft) 95,65 %
19.05.2018 16:12 20,2 C 18,9 C 54 % 1016,0 hPa 0,0 l/m 16,8 km/h (3 Bft) NO 45 1 min 0,000 mm 1,7 UV-I 435 W/m 10,6 C 17,1 C 29,0 km/h (5 Bft) 100,00 %
19.05.2018 16:13 20,2 C 18,9 C 55 % 1016,0 hPa 0,0 l/m 17,8 km/h (3 Bft) O-NO 75 1 min 0,000 mm 1,7 UV-I 438 W/m 10,9 C 16,9 C 27,4 km/h (4 Bft) 86,96 %
19.05.2018 16:14 20,2 C 18,9 C 53 % 1016,1 hPa 0,0 l/m 17,4 km/h (3 Bft) O 81 1 min 0,000 mm 1,7 UV-I 451 W/m 10,3 C 17,0 C 20,9 km/h (4 Bft) 95,83 %
19.05.2018 16:15 20,2 C 18,9 C 52 % 1016,0 hPa 0,0 l/m 17,6 km/h (3 Bft) O 80 1 min 0,000 mm 1,7 UV-I 458 W/m 10,0 C 16,9 C 19,3 km/h (3 Bft) 96,15 %
19.05.2018 16:16 20,2 C 18,9 C 52 % 1015,9 hPa 0,0 l/m 16,4 km/h (3 Bft) O-NO 74 1 min 0,000 mm 1,7 UV-I 478 W/m 10,0 C 17,2 C 20,9 km/h (4 Bft) 94,44 %
19.05.2018 16:17 20,3 C 18,9 C 53 % 1016,0 hPa 0,0 l/m 13,3 km/h (3 Bft) O 88 1 min 0,000 mm 1,7 UV-I 468 W/m 10,4 C 18,0 C 20,9 km/h (4 Bft) 95,65 %
19.05.2018 16:18 20,3 C 18,9 C 54 % 1015,9 hPa 0,0 l/m 16,8 km/h (3 Bft) NO 44 1 min 0,000 mm 1,7 UV-I 452 W/m 10,7 C 17,2 C 24,1 km/h (4 Bft) 100,00 %
19.05.2018 16:19 20,3 C 18,9 C 53 % 1016,0 hPa 0,0 l/m 16,8 km/h (3 Bft) O-NO 60 1 min 0,000 mm 1,7 UV-I 444 W/m 10,4 C 17,2 C 19,3 km/h (3 Bft) 85,71 %
19.05.2018 16:20 20,3 C 18,9 C 55 % 1016,0 hPa 0,0 l/m 19,8 km/h (3 Bft) O-NO 61 1 min 0,000 mm 1,7 UV-I 420 W/m 11,0 C 16,6 C 24,1 km/h (4 Bft) 100,00 %
19.05.2018 16:21 20,3 C 18,9 C 53 % 1015,9 hPa 0,0 l/m 19,8 km/h (3 Bft) O-NO 68 1 min 0,000 mm 1,7 UV-I 427 W/m 10,4 C 16,6 C 24,1 km/h (4 Bft) 96,15 %
19.05.2018 16:22 20,3 C 18,9 C 55 % 1015,9 hPa 0,0 l/m 17,7 km/h (3 Bft) O-NO 59 1 min 0,000 mm 1,7 UV-I 432 W/m 11,0 C 17,0 C 24,1 km/h (4 Bft) 96,30 %
19.05.2018 16:23 20,3 C 18,9 C 56 % 1016,0 hPa 0,0 l/m 16,7 km/h (3 Bft) O-NO 65 1 min 0,000 mm 1,7 UV-I 442 W/m 11,2 C 17,2 C 27,4 km/h (4 Bft) 100,00 %
19.05.2018 16:24 20,3 C 18,9 C 55 % 1015,9 hPa 0,0 l/m 17,8 km/h (3 Bft) O-NO 67 1 min 0,000 mm 1,7 UV-I 460 W/m 11,0 C 17,0 C 24,1 km/h (4 Bft) 95,83 %
19.05.2018 16:25 20,3 C 18,9 C 54 % 1015,9 hPa 0,0 l/m 21,0 km/h (4 Bft) O-NO 69 1 min 0,000 mm 1,7 UV-I 474 W/m 10,7 C 16,4 C 24,1 km/h (4 Bft) 100,00 %
19.05.2018 16:26 20,2 C 18,9 C 54 % 1015,9 hPa 0,0 l/m 19,5 km/h (3 Bft) O 82 1 min 0,000 mm 1,7 UV-I 450 W/m 10,6 C 16,6 C 24,1 km/h (4 Bft) 96,15 %
19.05.2018 16:27 20,2 C 18,9 C 55 % 1015,9 hPa 0,0 l/m 20,6 km/h (4 Bft) O 84 1 min 0,000 mm 1,6 UV-I 444 W/m 10,9 C 16,4 C 25,7 km/h (4 Bft) 100,00 %
19.05.2018 16:28 20,2 C 18,9 C 55 % 1015,8 hPa 0,0 l/m 18,6 km/h (3 Bft) O 84 1 min 0,000 mm 1,6 UV-I 430 W/m 10,9 C 16,7 C 22,5 km/h (4 Bft) 91,30 %
19.05.2018 16:29 20,2 C 18,9 C 55 % 1015,9 hPa 0,0 l/m 17,4 km/h (3 Bft) O 88 1 min 0,000 mm 1,6 UV-I 433 W/m 10,9 C 17,0 C 22,5 km/h (4 Bft) 100,00 %
19.05.2018 16:30 20,2 C 18,9 C 54 % 1015,8 hPa 0,0 l/m 14,5 km/h (3 Bft) O 88 1 min 0,000 mm 1,6 UV-I 432 W/m 10,6 C 17,6 C 19,3 km/h (3 Bft) 96,15 %
19.05.2018 16:31 20,2 C 18,9 C 54 % 1015,8 hPa 0,0 l/m 14,7 km/h (3 Bft) O-NO 57 1 min 0,000 mm 1,6 UV-I 431 W/m 10,6 C 17,6 C 19,3 km/h (3 Bft) 96,30 %
19.05.2018 16:33 20,2 C 18,9 C 55 % 1015,8 hPa 0,0 l/m 16,4 km/h (3 Bft) O 100 2 min 0,000 mm 1,6 UV-I 418 W/m 10,9 C 17,2 C 24,1 km/h (4 Bft) 97,73 %
19.05.2018 16:34 20,2 C 18,9 C 55 % 1015,8 hPa 0,0 l/m 17,5 km/h (3 Bft) O 90 1 min 0,000 mm 1,6 UV-I 412 W/m 10,9 C 16,9 C 20,9 km/h (4 Bft) 100,00 %
19.05.2018 16:35 20,2 C 18,9 C 54 % 1015,8 hPa 0,0 l/m 18,7 km/h (3 Bft) O 81 1 min 0,000 mm 1,6 UV-I 416 W/m 10,6 C 16,7 C 25,7 km/h (4 Bft) 91,67 %
19.05.2018 16:36 20,2 C 18,9 C 53 % 1015,8 hPa 0,0 l/m 16,1 km/h (3 Bft) O-NO 78 1 min 0,000 mm 1,5 UV-I 409 W/m 10,3 C 17,2 C 19,3 km/h (3 Bft) 100,00 %
19.05.2018 16:37 20,2 C 18,9 C 55 % 1015,8 hPa 0,0 l/m 16,4 km/h (3 Bft) O-NO 63 1 min 0,000 mm 1,5 UV-I 412 W/m 10,9 C 17,2 C 20,9 km/h (4 Bft) 92,59 %
19.05.2018 16:38 20,2 C 18,9 C 54 % 1015,8 hPa 0,0 l/m 18,6 km/h (3 Bft) O-NO 78 1 min 0,000 mm 1,5 UV-I 419 W/m 10,6 C 16,7 C 20,9 km/h (4 Bft) 92,86 %
19.05.2018 16:39 20,2 C 18,9 C 53 % 1015,8 hPa 0,0 l/m 14,6 km/h (3 Bft) O 91 1 min 0,000 mm 1,5 UV-I 415 W/m 10,3 C 17,6 C 17,7 km/h (3 Bft) 96,30 %
19.05.2018 16:40 20,3 C 18,9 C 55 % 1015,8 hPa 0,0 l/m 12,5 km/h (3 Bft) O 94 1 min 0,000 mm 1,5 UV-I 409 W/m 11,0 C 18,2 C 16,1 km/h (3 Bft) 95,65 %
19.05.2018 16:41 20,3 C 18,9 C 55 % 1015,8 hPa 0,0 l/m 11,8 km/h (2 Bft) O 81 1 min 0,000 mm 1,5 UV-I 400 W/m 11,0 C 18,4 C 16,1 km/h (3 Bft) 100,00 %
19.05.2018 16:42 20,3 C 18,9 C 55 % 1015,8 hPa 0,0 l/m 14,9 km/h (3 Bft) O 92 1 min 0,000 mm 1,5 UV-I 405 W/m 11,0 C 17,6 C 20,9 km/h (4 Bft) 92,31 %
19.05.2018 16:43 20,3 C 18,9 C 55 % 1015,8 hPa 0,0 l/m 17,8 km/h (3 Bft) O 82 1 min 0,000 mm 1,5 UV-I 399 W/m 11,0 C 17,0 C 22,5 km/h (4 Bft) 97,82 %
19.05.2018 16:44 20,3 C 18,9 C 55 % 1015,8 hPa 0,0 l/m 13,6 km/h (3 Bft) O 80 1 min 0,000 mm 1,5 UV-I 394 W/m 11,0 C 18,0 C 20,9 km/h (4 Bft) 100,00 %
19.05.2018 16:45 20,3 C 18,9 C 54 % 1015,8 hPa 0,0 l/m 13,0 km/h (3 Bft) O 93 1 min 0,000 mm 1,4 UV-I 377 W/m 10,7 C 18,1 C 17,7 km/h (3 Bft) 100,00 %
19.05.2018 16:46 20,3 C 18,9 C 55 % 1015,8 hPa 0,0 l/m 13,1 km/h (3 Bft) O 96 1 min 0,000 mm 1,4 UV-I 365 W/m 11,0 C 18,1 C 17,7 km/h (3 Bft) 100,00 %
19.05.2018 16:47 20,3 C 18,9 C 54 % 1015,8 hPa 0,0 l/m 16,5 km/h (3 Bft) O 92 1 min 0,000 mm 1,4 UV-I 360 W/m 10,7 C 17,3 C 19,3 km/h (3 Bft) 96,15 %
19.05.2018 16:48 20,3 C 18,9 C 53 % 1015,8 hPa 0,0 l/m 12,7 km/h (3 Bft) O 81 1 min 0,000 mm 1,4 UV-I 363 W/m 10,4 C 18,2 C 19,3 km/h (3 Bft) 100,00 %
19.05.2018 16:49 20,3 C 18,9 C 54 % 1015,8 hPa 0,0 l/m 6,5 km/h (2 Bft) O 79 1 min 0,000 mm 1,4 UV-I 359 W/m 10,7 C 20,3 C 11,3 km/h (2 Bft) 100,00 %
19.05.2018 16:50 20,3 C 18,9 C 55 % 1015,8 hPa 0,0 l/m 10,8 km/h (2 Bft) O-NO 59 1 min 0,000 mm 1,3 UV-I 356 W/m 11,0 C 18,7 C 14,5 km/h (3 Bft) 100,00 %
19.05.2018 16:51 20,3 C 18,9 C 55 % 1015,8 hPa 0,0 l/m 9,3 km/h (2 Bft) O 82 1 min 0,000 mm 1,3 UV-I 351 W/m 11,0 C 19,2 C 14,5 km/h (3 Bft) 96,15 %
19.05.2018 16:52 20,4 C 18,9 C 56 % 1015,8 hPa 0,0 l/m 10,5 km/h (2 Bft) O-SO 112 1 min 0,000 mm 1,3 UV-I 345 W/m 11,3 C 18,9 C 17,7 km/h (3 Bft) 100,00 %
19.05.2018 16:53 20,3 C 18,9 C 54 % 1015,8 hPa 0,0 l/m 10,7 km/h (2 Bft) O-NO 67 1 min 0,000 mm 1,3 UV-I 348 W/m 10,7 C 18,8 C 14,5 km/h (3 Bft) 100,00 %
19.05.2018 16:54 20,3 C 18,9 C 53 % 1015,8 hPa 0,0 l/m 12,5 km/h (3 Bft) O-SO 109 1 min 0,000 mm 1,3 UV-I 351 W/m 10,4 C 18,2 C 16,1 km/h (3 Bft) 100,00 %
19.05.2018 16:55 20,3 C 18,9 C 53 % 1015,8 hPa 0,0 l/m 15,9 km/h (3 Bft) O-NO 75 1 min 0,000 mm 1,3 UV-I 350 W/m 10,4 C 17,4 C 20,9 km/h (4 Bft) 100,00 %
19.05.2018 16:56 20,3 C 18,9 C 54 % 1015,8 hPa 0,0 l/m 13,5 km/h (3 Bft) O 101 1 min 0,000 mm 1,3 UV-I 351 W/m 10,7 C 18,0 C 17,7 km/h (3 Bft) 100,00 %
19.05.2018 16:57 20,3 C 18,9 C 50 % 1015,7 hPa 0,0 l/m 9,3 km/h (2 Bft) O-NO 65 1 min 0,000 mm 1,3 UV-I 351 W/m 9,5 C 19,2 C 14,5 km/h (3 Bft) 100,00 %
19.05.2018 16:58 20,3 C 18,9 C 51 % 1015,8 hPa 0,0 l/m 13,1 km/h (3 Bft) O-NO 71 1 min 0,000 mm 1,2 UV-I 344 W/m 9,8 C 18,1 C 16,1 km/h (3 Bft) 100,00 %
19.05.2018 16:59 20,2 C 18,9 C 51 % 1015,7 hPa 0,0 l/m 16,7 km/h (3 Bft) O-NO 76 1 min 0,000 mm 1,2 UV-I 334 W/m 9,7 C 17,1 C 20,9 km/h (4 Bft) 100,00 %
19.05.2018 17:00 20,2 C 18,9 C 51 % 1015,7 hPa 0,0 l/m 15,3 km/h (3 Bft) O-NO 65 1 min 0,000 mm 1,2 UV-I 328 W/m 9,7 C 17,4 C 19,3 km/h (3 Bft) 100,00 %
19.05.2018 17:01 20,2 C 18,9 C 50 % 1015,7 hPa 0,0 l/m 11,3 km/h (2 Bft) O 90 1 min 0,331 mm 1,2 UV-I 332 W/m 9,4 C 18,5 C 16,1 km/h (3 Bft) 96,30 %
19.05.2018 17:02 20,2 C 18,9 C 51 % 1015,7 hPa 0,0 l/m 13,7 km/h (3 Bft) O-NO 69 1 min 0,000 mm 1,2 UV-I 331 W/m 9,7 C 17,8 C 17,7 km/h (3 Bft) 95,65 %
19.05.2018 17:03 20,2 C 18,9 C 51 % 1015,7 hPa 0,0 l/m 13,0 km/h (3 Bft) O-NO 76 1 min 0,000 mm 1,2 UV-I 326 W/m 9,7 C 18,0 C 16,1 km/h (3 Bft) 100,00 %
19.05.2018 17:04 20,2 C 18,9 C 52 % 1015,8 hPa 0,0 l/m 12,2 km/h (2 Bft) O-NO 65 1 min 0,000 mm 1,2 UV-I 321 W/m 10,0 C 18,2 C 16,1 km/h (3 Bft) 100,00 %
19.05.2018 17:05 20,2 C 18,9 C 53 % 1015,8 hPa 0,0 l/m 12,5 km/h (3 Bft) O-NO 62 1 min 0,000 mm 1,1 UV-I 317 W/m 10,3 C 18,1 C 14,5 km/h (3 Bft) 100,00 %
19.05.2018 17:06 20,2 C 18,9 C 53 % 1015,8 hPa 0,0 l/m 13,4 km/h (3 Bft) O 90 1 min 0,000 mm 1,1 UV-I 323 W/m 10,3 C 17,9 C 19,3 km/h (3 Bft) 96,88 %
19.05.2018 17:07 20,2 C 18,9 C 52 % 1015,8 hPa 0,0 l/m 12,4 km/h (3 Bft) O 82 1 min 0,000 mm 1,1 UV-I 323 W/m 10,0 C 18,1 C 16,1 km/h (3 Bft) 100,00 %
19.05.2018 17:08 20,3 C 18,9 C 51 % 1015,8 hPa 0,0 l/m 13,7 km/h (3 Bft) O-NO 57 1 min 0,000 mm 1,1 UV-I 320 W/m 9,8 C 17,9 C 19,3 km/h (3 Bft) 100,00 %
19.05.2018 17:09 20,2 C 18,9 C 50 % 1015,8 hPa 0,0 l/m 13,6 km/h (3 Bft) O 96 1 min 0,000 mm 1,1 UV-I 319 W/m 9,4 C 17,8 C 19,3 km/h (3 Bft) 100,00 %
19.05.2018 17:10 20,2 C 18,9 C 49 % 1015,8 hPa 0,0 l/m 13,8 km/h (3 Bft) O 87 1 min 0,000 mm 1,1 UV-I 323 W/m 9,1 C 17,8 C 17,7 km/h (3 Bft) 100,00 %
19.05.2018 17:11 20,2 C 18,9 C 49 % 1015,8 hPa 0,0 l/m 15,1 km/h (3 Bft) O-SO 115 1 min 0,000 mm 1,1 UV-I 329 W/m 9,1 C 17,5 C 20,9 km/h (4 Bft) 100,00 %
19.05.2018 17:12 20,2 C 18,9 C 50 % 1015,8 hPa 0,0 l/m 14,2 km/h (3 Bft) O-SO 105 1 min 0,000 mm 1,1 UV-I 328 W/m 9,4 C 17,7 C 19,3 km/h (3 Bft) 100,00 %
19.05.2018 17:13 20,2 C 18,9 C 48 % 1015,8 hPa 0,0 l/m 15,3 km/h (3 Bft) O-NO 69 1 min 0,000 mm 1,1 UV-I 320 W/m 8,8 C 17,4 C 17,7 km/h (3 Bft) 100,00 %
19.05.2018 17:14 20,2 C 18,9 C 49 % 1015,8 hPa 0,0 l/m 14,6 km/h (3 Bft) O 98 1 min 0,000 mm 1,1 UV-I 314 W/m 9,1 C 17,6 C 20,9 km/h (4 Bft) 100,00 %
19.05.2018 17:15 20,2 C 18,9 C 48 % 1015,8 hPa 0,0 l/m 13,7 km/h (3 Bft) O-NO 74 1 min 0,000 mm 1,0 UV-I 313 W/m 8,8 C 17,8 C 19,3 km/h (3 Bft) 96,30 %
19.05.2018 17:16 20,1 C 18,9 C 48 % 1015,7 hPa 0,0 l/m 14,5 km/h (3 Bft) O 80 1 min 0,000 mm 1,0 UV-I 308 W/m 8,7 C 17,5 C 17,7 km/h (3 Bft) 100,00 %
19.05.2018 17:17 20,1 C 18,9 C 49 % 1015,8 hPa 0,0 l/m 14,2 km/h (3 Bft) O 97 1 min 0,000 mm 1,0 UV-I 301 W/m 9,0 C 17,6 C 19,3 km/h (3 Bft) 100,00 %
19.05.2018 17:18 20,1 C 18,9 C 50 % 1015,8 hPa 0,0 l/m 13,3 km/h (3 Bft) O 100 1 min 0,000 mm 1,0 UV-I 299 W/m 9,3 C 17,8 C 17,7 km/h (3 Bft) 100,00 %
19.05.2018 17:19 20,1 C 18,9 C 49 % 1015,8 hPa 0,0 l/m 15,0 km/h (3 Bft) O 80 1 min 0,000 mm 1,0 UV-I 297 W/m 9,0 C 17,4 C 19,3 km/h (3 Bft) 93,33 %
19.05.2018 17:20 20,1 C 18,9 C 50 % 1015,8 hPa 0,0 l/m 17,2 km/h (3 Bft) O-NO 77 1 min 0,000 mm 1,0 UV-I 299 W/m 9,3 C 16,9 C 22,5 km/h (4 Bft) 96,15 %
19.05.2018 17:21 20,1 C 18,9 C 51 % 1015,8 hPa 0,0 l/m 15,6 km/h (3 Bft) O 80 1 min 0,000 mm 1,0 UV-I 300 W/m 9,6 C 17,2 C 20,9 km/h (4 Bft) 100,00 %
19.05.2018 17:22 20,1 C 18,9 C 51 % 1015,7 hPa 0,0 l/m 15,3 km/h (3 Bft) O-SO 105 1 min 0,000 mm 1,0 UV-I 308 W/m 9,6 C 17,3 C 22,5 km/h (4 Bft) 100,00 %
19.05.2018 17:23 20,0 C 18,9 C 51 % 1015,8 hPa 0,0 l/m 16,9 km/h (3 Bft) O-SO 112 1 min 0,000 mm 1,0 UV-I 303 W/m 9,6 C 16,8 C 20,9 km/h (4 Bft) 100,00 %
19.05.2018 17:24 20,0 C 18,9 C 50 % 1015,7 hPa 0,0 l/m 14,5 km/h (3 Bft) O 79 1 min 0,000 mm 1,0 UV-I 295 W/m 9,3 C 17,4 C 17,7 km/h (3 Bft) 93,33 %
19.05.2018 17:25 19,9 C 18,9 C 52 % 1015,7 hPa 0,0 l/m 12,5 km/h (3 Bft) O-SO 112 1 min 0,000 mm 0,9 UV-I 289 W/m 9,7 C 17,8 C 16,1 km/h (3 Bft) 96,15 %
19.05.2018 17:26 19,9 C 18,9 C 53 % 1015,8 hPa 0,0 l/m 12,6 km/h (3 Bft) O 88 1 min 0,000 mm 0,9 UV-I 286 W/m 10,0 C 17,7 C 16,1 km/h (3 Bft) 100,00 %
19.05.2018 17:27 20,0 C 18,9 C 52 % 1015,8 hPa 0,0 l/m 11,0 km/h (2 Bft) O 99 1 min 0,000 mm 0,9 UV-I 280 W/m 9,8 C 18,3 C 14,5 km/h (3 Bft) 100,00 %
19.05.2018 17:28 20,0 C 18,9 C 53 % 1015,8 hPa 0,0 l/m 6,9 km/h (2 Bft) O 97 1 min 0,000 mm 0,9 UV-I 281 W/m 10,1 C 19,8 C 9,7 km/h (2 Bft) 100,00 %
19.05.2018 17:29 20,0 C 18,9 C 52 % 1015,8 hPa 0,0 l/m 8,7 km/h (2 Bft) O-SO 107 1 min 0,000 mm 0,9 UV-I 276 W/m 9,8 C 19,1 C 11,3 km/h (2 Bft) 100,00 %
19.05.2018 17:30 20,0 C 18,9 C 53 % 1015,8 hPa 0,0 l/m 12,8 km/h (3 Bft) O 94 1 min 0,000 mm 0,9 UV-I 278 W/m 10,1 C 17,8 C 16,1 km/h (3 Bft) 100,00 %
19.05.2018 17:31 20,0 C 18,9 C 52 % 1015,8 hPa 0,0 l/m 9,4 km/h (2 Bft) O-NO 70 1 min 0,000 mm 0,9 UV-I 278 W/m 9,8 C 18,8 C 12,9 km/h (3 Bft) 100,00 %
19.05.2018 17:32 20,0 C 18,9 C 53 % 1015,8 hPa 0,0 l/m 12,1 km/h (2 Bft) O 97 1 min 0,000 mm 0,9 UV-I 277 W/m 10,1 C 18,0 C 16,1 km/h (3 Bft) 100,00 %
19.05.2018 17:33 20,0 C 18,9 C 52 % 1015,8 hPa 0,0 l/m 9,1 km/h (2 Bft) O-NO 71 1 min 0,000 mm 0,9 UV-I 276 W/m 9,8 C 18,9 C 14,5 km/h (3 Bft) 100,00 %
19.05.2018 17:34 20,0 C 18,9 C 52 % 1015,8 hPa 0,0 l/m 10,3 km/h (2 Bft) O-NO 75 1 min 0,000 mm 0,8 UV-I 278 W/m 9,8 C 18,5 C 16,1 km/h (3 Bft) 100,00 %
19.05.2018 17:35 20,0 C 18,9 C 52 % 1015,8 hPa 0,0 l/m 13,9 km/h (3 Bft) O 100 1 min 0,000 mm 0,8 UV-I 279 W/m 9,8 C 17,5 C 19,3 km/h (3 Bft) 100,00 %
19.05.2018 17:36 20,1 C 18,9 C 52 % 1015,8 hPa 0,0 l/m 9,4 km/h (2 Bft) NO 37 1 min 0,000 mm 0,8 UV-I 277 W/m 9,9 C 19,0 C 14,5 km/h (3 Bft) 100,00 %
19.05.2018 17:37 20,1 C 18,9 C 50 % 1015,8 hPa 0,0 l/m 11,6 km/h (2 Bft) O-NO 67 1 min 0,000 mm 0,8 UV-I 274 W/m 9,3 C 18,3 C 17,7 km/h (3 Bft) 100,00 %
19.05.2018 17:38 20,1 C 18,9 C 49 % 1015,8 hPa 0,0 l/m 14,8 km/h (3 Bft) O-NO 58 1 min 0,000 mm 0,8 UV-I 269 W/m 9,0 C 17,4 C 19,3 km/h (3 Bft) 100,00 %
19.05.2018 17:39 20,0 C 18,9 C 50 % 1015,8 hPa 0,0 l/m 14,0 km/h (3 Bft) O-NO 69 1 min 0,000 mm 0,8 UV-I 271 W/m 9,3 C 17,5 C 19,3 km/h (3 Bft) 100,00 %
19.05.2018 17:40 19,9 C 18,9 C 52 % 1015,8 hPa 0,0 l/m 9,6 km/h (2 Bft) O-NO 60 1 min 0,000 mm 0,8 UV-I 272 W/m 9,7 C 18,7 C 14,5 km/h (3 Bft) 100,00 %
19.05.2018 17:41 19,9 C 18,9 C 52 % 1015,8 hPa 0,0 l/m 12,8 km/h (3 Bft) O-NO 58 1 min 0,000 mm 0,8 UV-I 275 W/m 9,7 C 17,7 C 17,7 km/h (3 Bft) 100,00 %
19.05.2018 17:42 20,0 C 18,9 C 52 % 1015,8 hPa 0,0 l/m 13,2 km/h (3 Bft) O-NO 72 1 min 0,000 mm 0,8 UV-I 273 W/m 9,8 C 17,7 C 14,5 km/h (3 Bft) 100,00 %
19.05.2018 17:43 20,0 C 18,9 C 52 % 1015,8 hPa 0,0 l/m 11,8 km/h (2 Bft) O-NO 78 1 min 0,000 mm 0,8 UV-I 280 W/m 9,8 C 18,1 C 17,7 km/h (3 Bft) 100,00 %
19.05.2018 17:44 20,0 C 18,9 C 52 % 1015,8 hPa 0,0 l/m 12,7 km/h (3 Bft) O-NO 68 1 min 0,000 mm 0,8 UV-I 284 W/m 9,8 C 17,8 C 16,1 km/h (3 Bft) 95,65 %
19.05.2018 17:45 20,0 C 18,9 C 51 % 1015,8 hPa 0,0 l/m 13,5 km/h (3 Bft) O 79 1 min 0,000 mm 0,8 UV-I 287 W/m 9,6 C 17,6 C 17,7 km/h (3 Bft) 100,00 %
19.05.2018 17:46 20,0 C 18,9 C 51 % 1015,8 hPa 0,0 l/m 17,1 km/h (3 Bft) O-NO 65 1 min 0,000 mm 0,8 UV-I 294 W/m 9,6 C 16,8 C 19,3 km/h (3 Bft) 100,00 %
19.05.2018 17:47 20,0 C 18,9 C 50 % 1015,8 hPa 0,0 l/m 15,2 km/h (3 Bft) O-NO 68 1 min 0,000 mm 0,8 UV-I 297 W/m 9,3 C 17,2 C 19,3 km/h (3 Bft) 100,00 %
19.05.2018 17:48 20,0 C 18,9 C 50 % 1015,7 hPa 0,0 l/m 12,6 km/h (3 Bft) O 90 1 min 0,000 mm 0,8 UV-I 296 W/m 9,3 C 17,9 C 16,1 km/h (3 Bft) 100,00 %
19.05.2018 17:49 20,0 C 18,9 C 51 % 1015,8 hPa 0,0 l/m 11,8 km/h (2 Bft) O-NO 69 1 min 0,000 mm 0,7 UV-I 287 W/m 9,6 C 18,1 C 14,5 km/h (3 Bft) 100,00 %
19.05.2018 17:50 20,0 C 18,9 C 52 % 1015,8 hPa 0,0 l/m 11,1 km/h (2 Bft) O 96 1 min 0,000 mm 0,7 UV-I 278 W/m 9,8 C 18,3 C 17,7 km/h (3 Bft) 100,00 %
19.05.2018 17:51 20,0 C 18,9 C 52 % 1015,8 hPa 0,0 l/m 9,3 km/h (2 Bft) O 95 1 min 0,000 mm 0,7 UV-I 281 W/m 9,8 C 18,9 C 12,9 km/h (3 Bft) 100,00 %
19.05.2018 17:52 20,1 C 18,9 C 52 % 1015,8 hPa 0,0 l/m 7,6 km/h (2 Bft) O 96 1 min 0,000 mm 0,7 UV-I 287 W/m 9,9 C 19,6 C 12,9 km/h (3 Bft) 100,00 %
19.05.2018 17:53 20,0 C 18,9 C 52 % 1015,8 hPa 0,0 l/m 9,8 km/h (2 Bft) O 89 1 min 0,000 mm 0,7 UV-I 283 W/m 9,8 C 18,7 C 14,5 km/h (3 Bft) 100,00 %
19.05.2018 17:54 20,1 C 18,9 C 54 % 1015,8 hPa 0,0 l/m 11,9 km/h (2 Bft) O 97 1 min 0,000 mm 0,7 UV-I 276 W/m 10,5 C 18,2 C 14,5 km/h (3 Bft) 100,00 %
19.05.2018 17:55 20,1 C 18,9 C 52 % 1015,8 hPa 0,0 l/m 13,3 km/h (3 Bft) O 101 1 min 0,000 mm 0,7 UV-I 273 W/m 9,9 C 17,8 C 16,1 km/h (3 Bft) 100,00 %
19.05.2018 17:56 20,1 C 18,9 C 51 % 1015,7 hPa 0,0 l/m 14,3 km/h (3 Bft) O 96 1 min 0,000 mm 0,7 UV-I 275 W/m 9,6 C 17,5 C 20,9 km/h (4 Bft) 100,00 %
19.05.2018 17:58 20,0 C 18,9 C 51 % 1015,8 hPa 0,0 l/m 15,5 km/h (3 Bft) O 93 2 min 0,000 mm 0,7 UV-I 268 W/m 9,6 C 17,1 C 20,9 km/h (4 Bft) 95,24 %
19.05.2018 17:59 19,9 C 18,9 C 51 % 1015,7 hPa 0,0 l/m 17,4 km/h (3 Bft) O 90 1 min 0,000 mm 0,7 UV-I 267 W/m 9,5 C 16,6 C 22,5 km/h (4 Bft) 100,00 %
19.05.2018 18:00 19,9 C 18,9 C 51 % 1015,8 hPa 0,0 l/m 14,2 km/h (3 Bft) O 87 1 min 0,000 mm 0,7 UV-I 265 W/m 9,5 C 17,3 C 16,1 km/h (3 Bft) 100,00 %
19.05.2018 18:02 19,9 C 18,9 C 51 % 1015,8 hPa 0,0 l/m 15,3 km/h (3 Bft) O-SO 106 2 min 0,254 mm 0,7 UV-I 258 W/m 9,5 C 17,1 C 20,9 km/h (4 Bft) 100,00 %
19.05.2018 18:03 19,9 C 18,9 C 51 % 1015,7 hPa 0,0 l/m 15,2 km/h (3 Bft) O-NO 63 1 min 0,000 mm 0,6 UV-I 251 W/m 9,5 C 17,1 C 19,3 km/h (3 Bft) 100,00 %
19.05.2018 18:04 19,9 C 18,9 C 51 % 1015,8 hPa 0,0 l/m 14,7 km/h (3 Bft) O-NO 64 1 min 0,000 mm 0,6 UV-I 243 W/m 9,5 C 17,2 C 20,9 km/h (4 Bft) 100,00 %
19.05.2018 18:05 19,9 C 18,9 C 52 % 1015,8 hPa 0,0 l/m 7,9 km/h (2 Bft) O-NO 75 1 min 0,000 mm 0,6 UV-I 239 W/m 9,7 C 19,3 C 9,7 km/h (2 Bft) 100,00 %
19.05.2018 18:06 19,9 C 18,9 C 54 % 1015,8 hPa 0,0 l/m 11,6 km/h (2 Bft) O-NO 72 1 min 0,000 mm 0,6 UV-I 237 W/m 10,3 C 18,0 C 16,1 km/h (3 Bft) 100,00 %
19.05.2018 18:07 19,8 C 18,9 C 52 % 1015,7 hPa 0,0 l/m 14,2 km/h (3 Bft) O-NO 72 1 min 0,000 mm 0,6 UV-I 233 W/m 9,7 C 17,2 C 20,9 km/h (4 Bft) 96,15 %
19.05.2018 18:08 19,8 C 18,9 C 51 % 1015,8 hPa 0,0 l/m 13,5 km/h (3 Bft) O 88 1 min 0,000 mm 0,6 UV-I 228 W/m 9,4 C 17,4 C 19,3 km/h (3 Bft) 100,00 %
19.05.2018 18:09 19,8 C 18,9 C 50 % 1015,8 hPa 0,0 l/m 9,5 km/h (2 Bft) O-NO 58 1 min 0,000 mm 0,6 UV-I 227 W/m 9,1 C 18,6 C 12,9 km/h (3 Bft) 96,88 %
19.05.2018 18:10 19,8 C 18,9 C 52 % 1015,8 hPa 0,0 l/m 6,1 km/h (2 Bft) O-NO 78 1 min 0,000 mm 0,6 UV-I 224 W/m 9,7 C 19,8 C 11,3 km/h (2 Bft) 96,30 %
19.05.2018 18:11 19,8 C 18,9 C 52 % 1015,8 hPa 0,0 l/m 10,9 km/h (2 Bft) O-NO 71 1 min 0,000 mm 0,6 UV-I 222 W/m 9,7 C 18,1 C 14,5 km/h (3 Bft) 100,00 %
19.05.2018 18:12 19,8 C 18,9 C 52 % 1015,8 hPa 0,0 l/m 12,2 km/h (2 Bft) O-NO 57 1 min 0,000 mm 0,6 UV-I 219 W/m 9,7 C 17,7 C 17,7 km/h (3 Bft) 95,83 %
19.05.2018 18:13 19,8 C 18,9 C 52 % 1015,8 hPa 0,0 l/m 8,8 km/h (2 Bft) NO 56 1 min 0,000 mm 0,5 UV-I 216 W/m 9,7 C 18,8 C 12,9 km/h (3 Bft) 96,15 %
19.05.2018 18:14 19,8 C 18,9 C 53 % 1015,7 hPa 0,0 l/m 8,6 km/h (2 Bft) N-NO 33 1 min 0,000 mm 0,5 UV-I 212 W/m 9,9 C 18,9 C 14,5 km/h (3 Bft) 100,00 %
19.05.2018 18:15 19,7 C 18,9 C 53 % 1015,7 hPa 0,0 l/m 14,7 km/h (3 Bft) O-NO 67 1 min 0,000 mm 0,5 UV-I 210 W/m 9,8 C 17,0 C 20,9 km/h (4 Bft) 96,15 %
19.05.2018 18:16 19,7 C 18,9 C 52 % 1015,7 hPa 0,0 l/m 11,2 km/h (2 Bft) O-NO 63 1 min 0,000 mm 0,5 UV-I 204 W/m 9,6 C 17,9 C 16,1 km/h (3 Bft) 100,00 %
19.05.2018 18:17 19,6 C 18,9 C 51 % 1015,7 hPa 0,0 l/m 10,9 km/h (2 Bft) O 84 1 min 0,000 mm 0,5 UV-I 203 W/m 9,2 C 17,9 C 16,1 km/h (3 Bft) 91,67 %
19.05.2018 18:18 19,6 C 18,9 C 51 % 1015,7 hPa 0,0 l/m 10,0 km/h (2 Bft) NO 40 1 min 0,000 mm 0,5 UV-I 200 W/m 9,2 C 18,2 C 12,9 km/h (3 Bft) 100,00 %
19.05.2018 18:19 19,6 C 18,9 C 52 % 1015,7 hPa 0,0 l/m 13,9 km/h (3 Bft) NO 47 1 min 0,000 mm 0,5 UV-I 200 W/m 9,5 C 17,0 C 17,7 km/h (3 Bft) 96,55 %
19.05.2018 18:20 19,6 C 18,9 C 52 % 1015,7 hPa 0,0 l/m 11,2 km/h (2 Bft) NO 42 1 min 0,000 mm 0,5 UV-I 200 W/m 9,5 C 17,8 C 16,1 km/h (3 Bft) 96,30 %
19.05.2018 18:21 19,6 C 18,9 C 53 % 1015,7 hPa 0,0 l/m 11,3 km/h (2 Bft) O-NO 78 0 min 0,000 mm 0,5 UV-I 195 W/m 9,8 C 17,8 C 16,1 km/h (3 Bft) 100,00 %
19.05.2018 18:22 19,5 C 18,9 C 53 % 1015,7 hPa 0,0 l/m 13,0 km/h (3 Bft) NO 46 1 min 0,000 mm 0,5 UV-I 198 W/m 9,7 C 17,2 C 16,1 km/h (3 Bft) 100,00 %
19.05.2018 18:23 19,4 C 18,9 C 55 % 1015,7 hPa 0,0 l/m 13,7 km/h (3 Bft) NO 41 1 min 0,000 mm 0,5 UV-I 201 W/m 10,1 C 16,9 C 17,7 km/h (3 Bft) 96,30 %
19.05.2018 18:24 19,3 C 18,9 C 55 % 1015,7 hPa 0,0 l/m 12,2 km/h (2 Bft) NO 47 1 min 0,000 mm 0,5 UV-I 200 W/m 10,0 C 17,2 C 17,7 km/h (3 Bft) 95,65 %
19.05.2018 18:25 19,3 C 18,9 C 56 % 1015,7 hPa 0,0 l/m 11,3 km/h (2 Bft) O-NO 64 1 min 0,000 mm 0,5 UV-I 205 W/m 10,3 C 17,4 C 14,5 km/h (3 Bft) 100,00 %
19.05.2018 18:26 19,3 C 18,9 C 56 % 1015,7 hPa 0,0 l/m 10,3 km/h (2 Bft) O-NO 58 1 min 0,000 mm 0,5 UV-I 207 W/m 10,3 C 17,8 C 14,5 km/h (3 Bft) 96,15 %
19.05.2018 18:27 19,3 C 18,9 C 56 % 1015,7 hPa 0,0 l/m 11,5 km/h (2 Bft) O-NO 77 1 min 0,000 mm 0,1 UV-I 215 W/m 10,3 C 17,4 C 17,7 km/h (3 Bft) 100,00 %
19.05.2018 18:28 19,3 C 18,9 C 56 % 1015,7 hPa 0,0 l/m 7,9 km/h (2 Bft) NO 36 1 min 0,000 mm 0,0 UV-I 222 W/m 10,3 C 18,7 C 12,9 km/h (3 Bft) 93,75 %
19.05.2018 18:29 19,4 C 18,9 C 56 % 1015,7 hPa 0,0 l/m 8,3 km/h (2 Bft) NO 41 1 min 0,000 mm 0,0 UV-I 230 W/m 10,4 C 18,6 C 9,7 km/h (2 Bft) 95,83 %
19.05.2018 18:30 19,4 C 18,9 C 57 % 1015,7 hPa 0,0 l/m 13,1 km/h (3 Bft) NO 54 1 min 0,000 mm 0,0 UV-I 228 W/m 10,7 C 17,0 C 19,3 km/h (3 Bft) 100,00 %
19.05.2018 18:31 19,4 C 18,9 C 57 % 1015,7 hPa 0,0 l/m 9,9 km/h (2 Bft) O-NO 76 1 min 0,000 mm 0,0 UV-I 224 W/m 10,7 C 18,0 C 14,5 km/h (3 Bft) 100,00 %
19.05.2018 18:32 19,5 C 18,9 C 58 % 1015,7 hPa 0,0 l/m 12,5 km/h (3 Bft) NO 45 1 min 0,000 mm 0,0 UV-I 220 W/m 11,0 C 17,3 C 16,1 km/h (3 Bft) 96,55 %
19.05.2018 18:33 19,5 C 18,9 C 58 % 1015,7 hPa 0,0 l/m 7,2 km/h (2 Bft) NO 44 1 min 0,000 mm 0,0 UV-I 215 W/m 11,0 C 19,2 C 11,3 km/h (2 Bft) 100,00 %
19.05.2018 18:34 19,5 C 18,9 C 59 % 1015,7 hPa 0,0 l/m 12,4 km/h (3 Bft) NO 48 1 min 0,000 mm 0,0 UV-I 208 W/m 11,3 C 17,3 C 16,1 km/h (3 Bft) 96,67 %
19.05.2018 18:35 19,4 C 18,9 C 60 % 1015,7 hPa 0,0 l/m 9,9 km/h (2 Bft) O-NO 67 1 min 0,000 mm 0,0 UV-I 214 W/m 11,4 C 18,0 C 14,5 km/h (3 Bft) 80,00 %
19.05.2018 18:36 19,4 C 18,9 C 59 % 1015,7 hPa 0,0 l/m 9,5 km/h (2 Bft) O-NO 57 1 min 0,000 mm 0,0 UV-I 219 W/m 11,2 C 18,2 C 14,5 km/h (3 Bft) 100,00 %
19.05.2018 18:37 19,4 C 18,9 C 60 % 1015,7 hPa 0,0 l/m 9,7 km/h (2 Bft) O-NO 61 1 min 0,000 mm 0,0 UV-I 223 W/m 11,4 C 18,1 C 12,9 km/h (3 Bft) 97,14 %
19.05.2018 18:38 19,4 C 18,9 C 60 % 1015,7 hPa 0,0 l/m 7,6 km/h (2 Bft) O 84 1 min 0,000 mm 0,0 UV-I 220 W/m 11,4 C 18,9 C 9,7 km/h (2 Bft) 95,65 %
19.05.2018 18:39 19,5 C 18,9 C 59 % 1015,7 hPa 0,0 l/m 8,2 km/h (2 Bft) O 82 1 min 0,000 mm 0,0 UV-I 214 W/m 11,3 C 18,7 C 14,5 km/h (3 Bft) 95,83 %
19.05.2018 18:40 19,5 C 18,9 C 59 % 1015,7 hPa 0,0 l/m 6,3 km/h (2 Bft) O-NO 77 1 min 0,000 mm 0,0 UV-I 213 W/m 11,3 C 19,5 C 8,0 km/h (2 Bft) 100,00 %
19.05.2018 18:41 19,5 C 18,9 C 60 % 1015,7 hPa 0,0 l/m 8,8 km/h (2 Bft) O-NO 66 1 min 0,000 mm 0,0 UV-I 214 W/m 11,5 C 18,5 C 11,3 km/h (2 Bft) 100,00 %
19.05.2018 18:42 19,6 C 18,9 C 59 % 1015,7 hPa 0,0 l/m 7,8 km/h (2 Bft) NO 45 1 min 0,000 mm 0,0 UV-I 215 W/m 11,4 C 19,0 C 9,7 km/h (2 Bft) 100,00 %
19.05.2018 18:43 19,6 C 18,9 C 61 % 1015,7 hPa 0,0 l/m 7,2 km/h (2 Bft) O-NO 57 1 min 0,000 mm 0,0 UV-I 211 W/m 11,9 C 19,3 C 12,9 km/h (3 Bft) 96,15 %
19.05.2018 18:44 19,6 C 18,9 C 61 % 1015,8 hPa 0,0 l/m 8,3 km/h (2 Bft) O-NO 57 1 min 0,000 mm 0,0 UV-I 204 W/m 11,9 C 18,8 C 11,3 km/h (2 Bft) 100,00 %
19.05.2018 18:45 19,6 C 18,9 C 60 % 1015,8 hPa 0,0 l/m 10,9 km/h (2 Bft) O-NO 62 1 min 0,000 mm 0,0 UV-I 201 W/m 11,6 C 17,9 C 16,1 km/h (3 Bft) 100,00 %
19.05.2018 18:46 19,5 C 18,9 C 61 % 1015,8 hPa 0,0 l/m 11,2 km/h (2 Bft) O-NO 74 1 min 0,000 mm 0,0 UV-I 202 W/m 11,8 C 17,7 C 16,1 km/h (3 Bft) 100,00 %
19.05.2018 18:47 19,5 C 18,9 C 60 % 1015,8 hPa 0,0 l/m 11,0 km/h (2 Bft) NO 55 1 min 0,000 mm 0,0 UV-I 198 W/m 11,5 C 17,8 C 14,5 km/h (3 Bft) 97,56 %
19.05.2018 18:48 19,4 C 18,9 C 61 % 1015,8 hPa 0,0 l/m 11,4 km/h (2 Bft) O-NO 62 1 min 0,000 mm 0,0 UV-I 195 W/m 11,7 C 17,5 C 16,1 km/h (3 Bft) 96,30 %
19.05.2018 18:49 19,4 C 18,9 C 61 % 1015,8 hPa 0,0 l/m 13,0 km/h (3 Bft) NO 50 1 min 0,000 mm 0,0 UV-I 191 W/m 11,7 C 17,1 C 17,7 km/h (3 Bft) 100,00 %
19.05.2018 18:50 19,4 C 18,9 C 61 % 1015,7 hPa 0,0 l/m 11,7 km/h (2 Bft) NO 55 1 min 0,000 mm 0,0 UV-I 188 W/m 11,7 C 17,4 C 14,5 km/h (3 Bft) 100,00 %
19.05.2018 18:51 19,4 C 18,9 C 62 % 1015,7 hPa 0,0 l/m 10,1 km/h (2 Bft) O-NO 68 1 min 0,000 mm 0,0 UV-I 185 W/m 11,9 C 17,9 C 17,7 km/h (3 Bft) 91,30 %
19.05.2018 18:52 19,4 C 18,9 C 62 % 1015,8 hPa 0,0 l/m 14,6 km/h (3 Bft) O-NO 64 1 min 0,000 mm 0,0 UV-I 171 W/m 11,9 C 16,6 C 17,7 km/h (3 Bft) 100,00 %
19.05.2018 18:53 19,3 C 18,9 C 62 % 1015,8 hPa 0,0 l/m 14,9 km/h (3 Bft) O-NO 69 1 min 0,000 mm 0,0 UV-I 164 W/m 11,8 C 16,4 C 19,3 km/h (3 Bft) 100,00 %
19.05.2018 18:54 19,3 C 18,9 C 61 % 1015,8 hPa 0,0 l/m 11,9 km/h (2 Bft) O-NO 67 1 min 0,000 mm 0,0 UV-I 159 W/m 11,6 C 17,3 C 19,3 km/h (3 Bft) 100,00 %
19.05.2018 18:55 19,3 C 18,9 C 61 % 1015,8 hPa 0,0 l/m 14,1 km/h (3 Bft) NO 52 1 min 0,000 mm 0,0 UV-I 152 W/m 11,6 C 16,6 C 17,7 km/h (3 Bft) 100,00 %
19.05.2018 18:56 19,3 C 18,9 C 61 % 1015,8 hPa 0,0 l/m 8,2 km/h (2 Bft) O-NO 57 1 min 0,000 mm 0,0 UV-I 148 W/m 11,6 C 18,5 C 11,3 km/h (2 Bft) 100,00 %
19.05.2018 18:57 19,2 C 18,9 C 62 % 1015,9 hPa 0,0 l/m 13,3 km/h (3 Bft) O-NO 65 1 min 0,000 mm 0,0 UV-I 148 W/m 11,7 C 16,7 C 17,7 km/h (3 Bft) 100,00 %
19.05.2018 18:58 19,2 C 18,9 C 63 % 1015,9 hPa 0,0 l/m 14,0 km/h (3 Bft) O-NO 67 1 min 0,000 mm 0,0 UV-I 146 W/m 12,0 C 16,5 C 19,3 km/h (3 Bft) 100,00 %
19.05.2018 18:59 19,2 C 18,9 C 62 % 1015,9 hPa 0,0 l/m 8,8 km/h (2 Bft) O-NO 59 1 min 0,000 mm 0,0 UV-I 140 W/m 11,7 C 18,2 C 14,5 km/h (3 Bft) 100,00 %
19.05.2018 19:00 19,2 C 18,9 C 63 % 1015,9 hPa 0,0 l/m 10,2 km/h (2 Bft) O-NO 59 0 min 0,177 mm 0,0 UV-I 134 W/m 12,0 C 17,7 C 14,5 km/h (3 Bft) 95,65 %
19.05.2018 19:02 19,2 C 18,9 C 61 % 1015,9 hPa 0,0 l/m 11,1 km/h (2 Bft) NO 54 0 min 0,000 mm 0,0 UV-I 126 W/m 11,5 C 17,4 C 14,5 km/h (3 Bft) 97,56 %
19.05.2018 19:03 19,2 C 18,9 C 62 % 1015,9 hPa 0,0 l/m 10,0 km/h (2 Bft) NO 55 0 min 0,000 mm 0,0 UV-I 122 W/m 11,7 C 17,8 C 16,1 km/h (3 Bft) 100,00 %
19.05.2018 19:04 19,1 C 18,9 C 62 % 1015,9 hPa 0,0 l/m 15,6 km/h (3 Bft) O-NO 58 0 min 0,000 mm 0,0 UV-I 118 W/m 11,6 C 16,0 C 20,9 km/h (4 Bft) 96,15 %
19.05.2018 19:05 19,1 C 18,9 C 62 % 1015,9 hPa 0,0 l/m 9,6 km/h (2 Bft) O 86 0 min 0,000 mm 0,0 UV-I 114 W/m 11,6 C 17,8 C 12,9 km/h (3 Bft) 100,00 %
19.05.2018 19:06 19,1 C 18,9 C 62 % 1015,8 hPa 0,0 l/m 9,1 km/h (2 Bft) NO 49 0 min 0,000 mm 0,0 UV-I 112 W/m 11,6 C 18,0 C 11,3 km/h (2 Bft) 100,00 %
19.05.2018 19:07 19,1 C 18,9 C 62 % 1015,9 hPa 0,0 l/m 7,5 km/h (2 Bft) O 80 0 min 0,000 mm 0,0 UV-I 107 W/m 11,6 C 18,6 C 11,3 km/h (2 Bft) 100,00 %
19.05.2018 19:08 19,1 C 18,9 C 62 % 1015,8 hPa 0,0 l/m 9,8 km/h (2 Bft) NO 46 0 min 0,000 mm 0,0 UV-I 105 W/m 11,6 C 17,7 C 14,5 km/h (3 Bft) 100,00 %
19.05.2018 19:09 19,1 C 18,9 C 63 % 1015,8 hPa 0,0 l/m 11,5 km/h (2 Bft) O 96 0 min 0,000 mm 0,0 UV-I 103 W/m 11,9 C 17,1 C 14,5 km/h (3 Bft) 100,00 %
19.05.2018 19:10 19,0 C 18,9 C 62 % 1015,8 hPa 0,0 l/m 7,2 km/h (2 Bft) NO 49 0 min 0,000 mm 0,0 UV-I 99 W/m 11,6 C 18,6 C 11,3 km/h (2 Bft) 100,00 %
19.05.2018 19:11 19,0 C 18,9 C 63 % 1015,9 hPa 0,0 l/m 8,2 km/h (2 Bft) NO 46 0 min 0,000 mm 0,0 UV-I 98 W/m 11,8 C 18,2 C 12,9 km/h (3 Bft) 100,00 %
19.05.2018 19:12 18,9 C 18,9 C 63 % 1015,8 hPa 0,0 l/m 11,1 km/h (2 Bft) NO 46 0 min 0,000 mm 0,0 UV-I 97 W/m 11,7 C 17,0 C 16,1 km/h (3 Bft) 100,00 %
19.05.2018 19:13 18,9 C 18,9 C 62 % 1015,8 hPa 0,0 l/m 14,8 km/h (3 Bft) O-NO 77 0 min 0,000 mm 0,0 UV-I 95 W/m 11,5 C 16,0 C 19,3 km/h (3 Bft) 100,00 %
19.05.2018 19:14 18,9 C 18,9 C 61 % 1015,9 hPa 0,0 l/m 9,5 km/h (2 Bft) O-NO 69 0 min 0,000 mm 0,0 UV-I 93 W/m 11,2 C 17,6 C 12,9 km/h (3 Bft) 100,00 %
19.05.2018 19:15 18,9 C 18,9 C 62 % 1015,9 hPa 0,0 l/m 10,7 km/h (2 Bft) NO 49 0 min 0,000 mm 0,0 UV-I 91 W/m 11,5 C 17,2 C 17,7 km/h (3 Bft) 100,00 %
19.05.2018 19:16 18,9 C 18,9 C 62 % 1015,8 hPa 0,0 l/m 11,1 km/h (2 Bft) NO 51 0 min 0,000 mm 0,0 UV-I 89 W/m 11,5 C 17,0 C 16,1 km/h (3 Bft) 100,00 %
19.05.2018 19:17 18,8 C 18,9 C 62 % 1015,8 hPa 0,0 l/m 8,9 km/h (2 Bft) O 96 0 min 0,000 mm 0,0 UV-I 87 W/m 11,4 C 17,7 C 12,9 km/h (3 Bft) 96,55 %
19.05.2018 19:18 18,8 C 18,9 C 62 % 1015,9 hPa 0,0 l/m 9,9 km/h (2 Bft) O-NO 70 0 min 0,000 mm 0,0 UV-I 85 W/m 11,4 C 17,4 C 14,5 km/h (3 Bft) 100,00 %
19.05.2018 19:19 18,8 C 18,9 C 63 % 1015,9 hPa 0,0 l/m 9,2 km/h (2 Bft) NO 55 0 min 0,000 mm 0,0 UV-I 83 W/m 11,6 C 17,6 C 12,9 km/h (3 Bft) 100,00 %
19.05.2018 19:20 18,7 C 18,9 C 63 % 1015,9 hPa 0,0 l/m 9,8 km/h (2 Bft) O-NO 58 0 min 0,000 mm 0,0 UV-I 83 W/m 11,5 C 17,3 C 14,5 km/h (3 Bft) 100,00 %
19.05.2018 19:21 18,7 C 18,9 C 63 % 1015,9 hPa 0,0 l/m 7,9 km/h (2 Bft) O-NO 61 0 min 0,000 mm 0,0 UV-I 80 W/m 11,5 C 18,0 C 12,9 km/h (3 Bft) 100,00 %
19.05.2018 19:22 18,6 C 18,9 C 64 % 1015,9 hPa 0,0 l/m 9,3 km/h (2 Bft) NO 40 0 min 0,000 mm 0,0 UV-I 78 W/m 11,7 C 17,4 C 14,5 km/h (3 Bft) 95,83 %
19.05.2018 19:23 18,5 C 18,9 C 64 % 1015,9 hPa 0,0 l/m 9,6 km/h (2 Bft) NO 47 0 min 0,000 mm 0,0 UV-I 77 W/m 11,6 C 17,1 C 14,5 km/h (3 Bft) 100,00 %
19.05.2018 19:24 18,4 C 18,9 C 64 % 1015,9 hPa 0,0 l/m 9,7 km/h (2 Bft) O-NO 67 0 min 0,000 mm 0,0 UV-I 76 W/m 11,5 C 17,0 C 14,5 km/h (3 Bft) 100,00 %
19.05.2018 19:25 18,4 C 18,9 C 65 % 1015,9 hPa 0,0 l/m 8,8 km/h (2 Bft) NO 46 0 min 0,000 mm 0,0 UV-I 74 W/m 11,7 C 17,3 C 14,5 km/h (3 Bft) 100,00 %
19.05.2018 19:26 18,4 C 18,9 C 65 % 1016,0 hPa 0,0 l/m 8,1 km/h (2 Bft) NO 44 0 min 0,000 mm 0,0 UV-I 72 W/m 11,7 C 17,6 C 9,7 km/h (2 Bft) 100,00 %
19.05.2018 19:27 18,3 C 18,9 C 65 % 1016,0 hPa 0,0 l/m 7,7 km/h (2 Bft) NO 45 0 min 0,000 mm 0,0 UV-I 70 W/m 11,6 C 17,7 C 9,7 km/h (2 Bft) 96,55 %
19.05.2018 19:28 18,3 C 18,9 C 65 % 1016,0 hPa 0,0 l/m 7,8 km/h (2 Bft) O-NO 62 0 min 0,000 mm 0,0 UV-I 68 W/m 11,6 C 17,7 C 11,3 km/h (2 Bft) 100,00 %
19.05.2018 19:29 18,3 C 18,9 C 66 % 1016,0 hPa 0,0 l/m 7,1 km/h (2 Bft) N-NO 33 0 min 0,000 mm 0,0 UV-I 66 W/m 11,8 C 18,0 C 9,7 km/h (2 Bft) 96,15 %
19.05.2018 19:30 18,2 C 18,9 C 67 % 1016,0 hPa 0,0 l/m 8,4 km/h (2 Bft) NO 47 0 min 0,000 mm 0,0 UV-I 63 W/m 12,0 C 17,3 C 12,9 km/h (3 Bft) 95,83 %
19.05.2018 19:31 18,2 C 18,9 C 66 % 1016,0 hPa 0,0 l/m 9,5 km/h (2 Bft) NO 47 0 min 0,000 mm 0,0 UV-I 62 W/m 11,7 C 16,8 C 14,5 km/h (3 Bft) 100,00 %
19.05.2018 19:33 18,2 C 18,9 C 66 % 1016,0 hPa 0,0 l/m 10,2 km/h (2 Bft) NO 53 0 min 0,000 mm 0,0 UV-I 60 W/m 11,7 C 16,6 C 16,1 km/h (3 Bft) 98,11 %
19.05.2018 19:34 18,2 C 18,9 C 66 % 1016,0 hPa 0,0 l/m 9,4 km/h (2 Bft) N-NO 28 0 min 0,000 mm 0,0 UV-I 55 W/m 11,7 C 16,9 C 11,3 km/h (2 Bft) 96,15 %
19.05.2018 19:35 18,1 C 18,9 C 66 % 1016,1 hPa 0,0 l/m 8,9 km/h (2 Bft) NO 49 0 min 0,000 mm 0,0 UV-I 52 W/m 11,6 C 17,0 C 9,7 km/h (2 Bft) 100,00 %
19.05.2018 19:36 18,1 C 18,9 C 67 % 1016,1 hPa 0,0 l/m 8,9 km/h (2 Bft) NO 49 0 min 0,000 mm 0,0 UV-I 47 W/m 11,9 C 17,0 C 11,3 km/h (2 Bft) 96,15 %
19.05.2018 19:37 18,1 C 18,9 C 67 % 1016,1 hPa 0,0 l/m 7,0 km/h (2 Bft) NO 48 0 min 0,000 mm 0,0 UV-I 44 W/m 11,9 C 17,8 C 9,7 km/h (2 Bft) 95,83 %
19.05.2018 19:38 18,1 C 18,3 C 67 % 1016,1 hPa 0,0 l/m 6,9 km/h (2 Bft) O-NO 71 0 min 0,000 mm 0,0 UV-I 38 W/m 11,9 C 17,9 C 8,0 km/h (2 Bft) 100,00 %
19.05.2018 19:39 18,0 C 18,9 C 67 % 1016,1 hPa 0,0 l/m 5,9 km/h (2 Bft) O 79 0 min 0,000 mm 0,0 UV-I 34 W/m 11,8 C 18,0 C 8,0 km/h (2 Bft) 100,00 %
19.05.2018 19:40 18,1 C 18,9 C 66 % 1016,1 hPa 0,0 l/m 6,3 km/h (2 Bft) O-NO 76 0 min 0,000 mm 0,0 UV-I 31 W/m 11,6 C 18,1 C 8,0 km/h (2 Bft) 93,55 %
19.05.2018 19:41 18,1 C 18,9 C 66 % 1016,2 hPa 0,0 l/m 6,7 km/h (2 Bft) O-NO 63 0 min 0,000 mm 0,0 UV-I 29 W/m 11,6 C 18,0 C 8,0 km/h (2 Bft) 100,00 %
19.05.2018 19:42 18,2 C 18,9 C 66 % 1016,2 hPa 0,0 l/m 9,3 km/h (2 Bft) O 96 0 min 0,000 mm 0,0 UV-I 26 W/m 11,7 C 16,9 C 12,9 km/h (3 Bft) 96,55 %
19.05.2018 19:43 18,2 C 18,9 C 67 % 1016,2 hPa 0,0 l/m 12,7 km/h (3 Bft) O-SO 103 0 min 0,000 mm 0,0 UV-I 26 W/m 12,0 C 15,7 C 16,1 km/h (3 Bft) 96,30 %
19.05.2018 19:44 18,2 C 18,9 C 66 % 1016,2 hPa 0,0 l/m 12,4 km/h (3 Bft) O 92 0 min 0,000 mm 0,0 UV-I 26 W/m 11,7 C 15,8 C 16,1 km/h (3 Bft) 100,00 %
19.05.2018 19:45 18,2 C 18,9 C 65 % 1016,3 hPa 0,0 l/m 13,9 km/h (3 Bft) O-SO 106 0 min 0,000 mm 0,0 UV-I 26 W/m 11,5 C 15,4 C 19,3 km/h (3 Bft) 91,67 %
19.05.2018 19:46 18,3 C 18,9 C 62 % 1016,2 hPa 0,0 l/m 14,8 km/h (3 Bft) O 91 0 min 0,000 mm 0,0 UV-I 26 W/m 10,9 C 15,2 C 19,3 km/h (3 Bft) 100,00 %
19.05.2018 19:47 18,3 C 18,9 C 62 % 1016,2 hPa 0,0 l/m 14,3 km/h (3 Bft) O-SO 110 0 min 0,000 mm 0,0 UV-I 26 W/m 10,9 C 15,4 C 17,7 km/h (3 Bft) 96,67 %
19.05.2018 19:48 18,3 C 18,9 C 62 % 1016,2 hPa 0,0 l/m 11,5 km/h (2 Bft) O 89 0 min 0,000 mm 0,0 UV-I 26 W/m 10,9 C 16,2 C 14,5 km/h (3 Bft) 100,00 %
19.05.2018 19:49 18,3 C 18,9 C 62 % 1016,2 hPa 0,0 l/m 13,8 km/h (3 Bft) O-SO 121 0 min 0,000 mm 0,0 UV-I 28 W/m 10,9 C 15,5 C 17,7 km/h (3 Bft) 96,15 %
19.05.2018 19:50 18,3 C 18,9 C 61 % 1016,2 hPa 0,0 l/m 10,8 km/h (2 Bft) SO 128 0 min 0,000 mm 0,0 UV-I 28 W/m 10,6 C 16,5 C 16,1 km/h (3 Bft) 96,55 %
19.05.2018 19:51 18,3 C 18,9 C 61 % 1016,3 hPa 0,0 l/m 7,2 km/h (2 Bft) SO 129 0 min 0,000 mm 0,0 UV-I 28 W/m 10,6 C 17,9 C 12,9 km/h (3 Bft) 96,30 %
19.05.2018 19:52 18,2 C 18,9 C 61 % 1016,4 hPa 0,0 l/m 8,7 km/h (2 Bft) O-SO 103 0 min 0,000 mm 0,0 UV-I 28 W/m 10,6 C 17,2 C 11,3 km/h (2 Bft) 95,65 %
19.05.2018 19:53 18,2 C 18,9 C 61 % 1016,3 hPa 0,0 l/m 8,5 km/h (2 Bft) O 98 0 min 0,000 mm 0,0 UV-I 28 W/m 10,6 C 17,2 C 11,3 km/h (2 Bft) 100,00 %
19.05.2018 19:54 18,2 C 18,9 C 61 % 1016,3 hPa 0,0 l/m 9,3 km/h (2 Bft) O-SO 120 0 min 0,000 mm 0,0 UV-I 26 W/m 10,6 C 16,9 C 12,9 km/h (3 Bft) 95,83 %
19.05.2018 19:55 18,1 C 18,9 C 62 % 1016,3 hPa 0,0 l/m 8,7 km/h (2 Bft) O 94 0 min 0,000 mm 0,0 UV-I 26 W/m 10,7 C 17,1 C 11,3 km/h (2 Bft) 98,05 %
19.05.2018 19:56 18,1 C 18,9 C 62 % 1016,3 hPa 0,0 l/m 6,2 km/h (2 Bft) O-NO 67 0 min 0,000 mm 0,0 UV-I 24 W/m 10,7 C 18,1 C 8,0 km/h (2 Bft) 97,56 %
19.05.2018 19:57 18,0 C 18,9 C 63 % 1016,3 hPa 0,0 l/m 6,9 km/h (2 Bft) O 88 0 min 0,000 mm 0,0 UV-I 22 W/m 10,8 C 17,8 C 11,3 km/h (2 Bft) 100,00 %
19.05.2018 19:58 17,9 C 18,3 C 64 % 1016,3 hPa 0,0 l/m 10,1 km/h (2 Bft) O-SO 106 0 min 0,000 mm 0,0 UV-I 21 W/m 11,0 C 16,3 C 12,9 km/h (3 Bft) 96,30 %
19.05.2018 19:59 17,8 C 18,3 C 64 % 1016,4 hPa 0,0 l/m 7,4 km/h (2 Bft) O 91 0 min 0,000 mm 0,0 UV-I 20 W/m 10,9 C 17,3 C 11,3 km/h (2 Bft) 96,15 %
19.05.2018 20:00 17,7 C 18,3 C 65 % 1016,4 hPa 0,0 l/m 7,5 km/h (2 Bft) O 86 0 min 0,000 mm 0,0 UV-I 19 W/m 11,0 C 17,2 C 11,3 km/h (2 Bft) 100,00 %
19.05.2018 20:02 17,5 C 18,3 C 67 % 1016,4 hPa 0,0 l/m 6,4 km/h (2 Bft) O 97 0 min 0,077 mm 0,0 UV-I 19 W/m 11,3 C 17,5 C 9,7 km/h (2 Bft) 95,12 %
19.05.2018 20:03 17,4 C 18,9 C 69 % 1016,4 hPa 0,0 l/m 6,2 km/h (2 Bft) O 98 0 min 0,000 mm 0,0 UV-I 18 W/m 11,7 C 17,4 C 9,7 km/h (2 Bft) 92,31 %
19.05.2018 20:04 17,3 C 18,3 C 67 % 1016,4 hPa 0,0 l/m 6,2 km/h (2 Bft) O 100 0 min 0,000 mm 0,0 UV-I 18 W/m 11,1 C 17,3 C 9,7 km/h (2 Bft) 100,00 %
19.05.2018 20:05 17,3 C 18,3 C 68 % 1016,4 hPa 0,0 l/m 4,0 km/h (1 Bft) O 100 0 min 0,000 mm 0,0 UV-I 18 W/m 11,3 C 17,3 C 6,4 km/h (2 Bft) 92,31 %
19.05.2018 20:06 17,2 C 18,3 C 68 % 1016,5 hPa 0,0 l/m 4,2 km/h (1 Bft) O-SO 103 0 min 0,000 mm 0,0 UV-I 16 W/m 11,2 C 17,2 C 6,4 km/h (2 Bft) 100,00 %
19.05.2018 20:07 17,2 C 18,3 C 67 % 1016,4 hPa 0,0 l/m 5,6 km/h (1 Bft) O 96 0 min 0,000 mm 0,0 UV-I 16 W/m 11,0 C 17,2 C 6,4 km/h (2 Bft) 92,31 %
19.05.2018 20:08 17,1 C 18,3 C 68 % 1016,5 hPa 0,0 l/m 4,6 km/h (1 Bft) O 100 0 min 0,000 mm 0,0 UV-I 16 W/m 11,1 C 17,1 C 6,4 km/h (2 Bft) 95,83 %
19.05.2018 20:09 17,1 C 18,3 C 70 % 1016,5 hPa 0,0 l/m 5,8 km/h (2 Bft) O-SO 107 0 min 0,000 mm 0,0 UV-I 16 W/m 11,6 C 17,1 C 6,4 km/h (2 Bft) 96,55 %
19.05.2018 20:10 17,1 C 18,3 C 68 % 1016,5 hPa 0,0 l/m 5,4 km/h (1 Bft) O 100 0 min 0,000 mm 0,0 UV-I 15 W/m 11,1 C 17,1 C 6,4 km/h (2 Bft) 91,67 %
19.05.2018 20:11 17,1 C 18,3 C 68 % 1016,5 hPa 0,0 l/m 3,4 km/h (1 Bft) O 100 0 min 0,000 mm 0,0 UV-I 14 W/m 11,1 C 17,1 C 4,8 km/h (1 Bft) 100,00 %
19.05.2018 20:12 17,1 C 18,3 C 68 % 1016,5 hPa 0,0 l/m 2,8 km/h (1 Bft) O 100 0 min 0,000 mm 0,0 UV-I 14 W/m 11,1 C 17,1 C 4,8 km/h (1 Bft) 91,67 %
19.05.2018 20:13 17,0 C 18,3 C 69 % 1016,5 hPa 0,0 l/m 4,4 km/h (1 Bft) O 94 0 min 0,000 mm 0,0 UV-I 13 W/m 11,3 C 17,0 C 6,4 km/h (2 Bft) 92,59 %
19.05.2018 20:14 17,0 C 18,9 C 69 % 1016,5 hPa 0,0 l/m 3,6 km/h (1 Bft) O 92 0 min 0,000 mm 0,0 UV-I 12 W/m 11,3 C 17,0 C 6,4 km/h (2 Bft) 86,96 %
19.05.2018 20:15 16,9 C 18,9 C 69 % 1016,4 hPa 0,0 l/m 5,3 km/h (1 Bft) O 94 0 min 0,000 mm 0,0 UV-I 12 W/m 11,2 C 16,9 C 6,4 km/h (2 Bft) 96,30 %
19.05.2018 20:16 16,9 C 18,9 C 69 % 1016,5 hPa 0,0 l/m 5,1 km/h (1 Bft) O 101 0 min 0,000 mm 0,0 UV-I 12 W/m 11,2 C 16,9 C 6,4 km/h (2 Bft) 94,12 %
19.05.2018 20:17 16,9 C 18,9 C 69 % 1016,5 hPa 0,0 l/m 4,9 km/h (1 Bft) O 91 0 min 0,000 mm 0,0 UV-I 12 W/m 11,2 C 16,9 C 6,4 km/h (2 Bft) 96,30 %
19.05.2018 20:18 16,8 C 18,9 C 69 % 1016,5 hPa 0,0 l/m 4,7 km/h (1 Bft) O 97 0 min 0,000 mm 0,0 UV-I 12 W/m 11,1 C 16,8 C 6,4 km/h (2 Bft) 96,55 %
19.05.2018 20:19 16,8 C 18,9 C 69 % 1016,5 hPa 0,0 l/m 5,5 km/h (1 Bft) O 99 0 min 0,000 mm 0,0 UV-I 11 W/m 11,1 C 16,8 C 6,4 km/h (2 Bft) 91,67 %
19.05.2018 20:20 16,8 C 18,9 C 69 % 1016,5 hPa 0,0 l/m 5,4 km/h (1 Bft) O 90 0 min 0,000 mm 0,0 UV-I 11 W/m 11,1 C 16,8 C 6,4 km/h (2 Bft) 96,15 %
19.05.2018 20:21 16,7 C 18,9 C 70 % 1016,5 hPa 0,0 l/m 5,7 km/h (1 Bft) O 100 0 min 0,000 mm 0,0 UV-I 11 W/m 11,2 C 16,7 C 6,4 km/h (2 Bft) 95,83 %
19.05.2018 20:22 16,7 C 18,3 C 71 % 1016,5 hPa 0,0 l/m 6,1 km/h (2 Bft) O 101 0 min 0,000 mm 0,0 UV-I 11 W/m 11,4 C 16,7 C 6,4 km/h (2 Bft) 93,10 %
19.05.2018 20:23 16,7 C 18,3 C 70 % 1016,5 hPa 0,0 l/m 4,8 km/h (1 Bft) O 100 0 min 0,000 mm 0,0 UV-I 11 W/m 11,2 C 16,7 C 4,8 km/h (1 Bft) 94,44 %
19.05.2018 20:24 16,7 C 18,3 C 70 % 1016,5 hPa 0,0 l/m 4,7 km/h (1 Bft) O 101 0 min 0,000 mm 0,0 UV-I 11 W/m 11,2 C 16,7 C 6,4 km/h (2 Bft) 92,31 %
19.05.2018 20:25 16,6 C 18,3 C 70 % 1016,5 hPa 0,0 l/m 5,9 km/h (2 Bft) O 98 0 min 0,000 mm 0,0 UV-I 9 W/m 11,1 C 16,6 C 9,7 km/h (2 Bft) 92,59 %
19.05.2018 20:26 16,6 C 18,3 C 69 % 1016,5 hPa 0,0 l/m 6,2 km/h (2 Bft) O 90 0 min 0,000 mm 0,0 UV-I 9 W/m 10,9 C 16,6 C 9,7 km/h (2 Bft) 96,15 %
19.05.2018 20:27 16,6 C 18,3 C 69 % 1016,5 hPa 0,0 l/m 5,8 km/h (2 Bft) O 96 0 min 0,000 mm 0,0 UV-I 9 W/m 10,9 C 16,6 C 6,4 km/h (2 Bft) 91,67 %
19.05.2018 20:28 16,6 C 18,3 C 71 % 1016,5 hPa 0,0 l/m 5,6 km/h (1 Bft) O 99 0 min 0,000 mm 0,0 UV-I 8 W/m 11,3 C 16,6 C 6,4 km/h (2 Bft) 96,67 %
19.05.2018 20:29 16,6 C 18,3 C 69 % 1016,5 hPa 0,0 l/m 5,9 km/h (2 Bft) O 89 0 min 0,000 mm 0,0 UV-I 7 W/m 10,9 C 16,6 C 9,7 km/h (2 Bft) 96,55 %
19.05.2018 20:30 16,6 C 18,3 C 69 % 1016,5 hPa 0,0 l/m 5,8 km/h (2 Bft) O 84 0 min 0,000 mm 0,0 UV-I 7 W/m 10,9 C 16,6 C 9,7 km/h (2 Bft) 93,33 %
19.05.2018 20:31 16,6 C 18,3 C 68 % 1016,6 hPa 0,0 l/m 5,6 km/h (1 Bft) O 101 0 min 0,000 mm 0,0 UV-I 7 W/m 10,7 C 16,6 C 9,7 km/h (2 Bft) 96,15 %
19.05.2018 20:33 16,7 C 18,3 C 68 % 1016,6 hPa 0,0 l/m 5,1 km/h (1 Bft) O 86 0 min 0,000 mm 0,0 UV-I 6 W/m 10,8 C 16,7 C 6,4 km/h (2 Bft) 96,00 %
19.05.2018 20:34 16,7 C 18,3 C 69 % 1016,6 hPa 0,0 l/m 5,3 km/h (1 Bft) O 94 0 min 0,000 mm 0,0 UV-I 5 W/m 11,0 C 16,7 C 6,4 km/h (2 Bft) 96,30 %
19.05.2018 20:35 16,6 C 18,3 C 69 % 1016,6 hPa 0,0 l/m 6,2 km/h (2 Bft) O 80 0 min 0,000 mm 0,0 UV-I 5 W/m 10,9 C 16,6 C 8,0 km/h (2 Bft) 95,65 %
19.05.2018 20:36 16,6 C 18,3 C 69 % 1016,6 hPa 0,0 l/m 5,2 km/h (1 Bft) O-NO 75 0 min 0,000 mm 0,0 UV-I 5 W/m 10,9 C 16,6 C 6,4 km/h (2 Bft) 100,00 %
19.05.2018 20:37 16,6 C 18,3 C 69 % 1016,6 hPa 0,0 l/m 5,2 km/h (1 Bft) O-SO 102 0 min 0,000 mm 0,0 UV-I 5 W/m 10,9 C 16,6 C 9,7 km/h (2 Bft) 100,00 %
19.05.2018 20:38 16,5 C 18,3 C 70 % 1016,7 hPa 0,0 l/m 5,8 km/h (2 Bft) O-NO 71 0 min 0,000 mm 0,0 UV-I 5 W/m 11,0 C 16,5 C 8,0 km/h (2 Bft) 100,00 %
19.05.2018 20:39 16,5 C 18,3 C 70 % 1016,7 hPa 0,0 l/m 6,3 km/h (2 Bft) O 86 0 min 0,000 mm 0,0 UV-I 5 W/m 11,0 C 16,5 C 8,0 km/h (2 Bft) 100,00 %
19.05.2018 20:40 16,4 C 18,3 C 69 % 1016,7 hPa 0,0 l/m 7,3 km/h (2 Bft) O 79 0 min 0,000 mm 0,0 UV-I 5 W/m 10,7 C 15,9 C 11,3 km/h (2 Bft) 100,00 %
19.05.2018 20:41 16,4 C 18,3 C 68 % 1016,7 hPa 0,0 l/m 6,0 km/h (2 Bft) O 82 0 min 0,000 mm 0,0 UV-I 5 W/m 10,5 C 16,4 C 8,0 km/h (2 Bft) 100,00 %
19.05.2018 20:42 16,4 C 18,3 C 69 % 1016,7 hPa 0,0 l/m 6,6 km/h (2 Bft) O-NO 74 0 min 0,000 mm 0,0 UV-I 5 W/m 10,7 C 16,3 C 8,0 km/h (2 Bft) 100,00 %
19.05.2018 20:43 16,4 C 18,3 C 69 % 1016,7 hPa 0,0 l/m 7,1 km/h (2 Bft) O 91 0 min 0,000 mm 0,0 UV-I 5 W/m 10,7 C 16,0 C 9,7 km/h (2 Bft) 100,00 %
19.05.2018 20:44 16,4 C 18,3 C 69 % 1016,7 hPa 0,0 l/m 8,2 km/h (2 Bft) O 92 0 min 0,000 mm 0,0 UV-I 5 W/m 10,7 C 15,5 C 11,3 km/h (2 Bft) 92,59 %
19.05.2018 20:45 16,4 C 18,3 C 68 % 1016,8 hPa 0,0 l/m 8,5 km/h (2 Bft) O 88 0 min 0,000 mm 0,0 UV-I 5 W/m 10,5 C 15,3 C 11,3 km/h (2 Bft) 96,55 %
19.05.2018 20:46 16,4 C 18,3 C 68 % 1016,7 hPa 0,0 l/m 7,7 km/h (2 Bft) O 94 0 min 0,000 mm 0,0 UV-I 5 W/m 10,5 C 15,7 C 9,7 km/h (2 Bft) 100,00 %
19.05.2018 20:47 16,4 C 18,3 C 68 % 1016,7 hPa 0,0 l/m 6,6 km/h (2 Bft) O-SO 104 0 min 0,000 mm 0,0 UV-I 5 W/m 10,5 C 16,3 C 9,7 km/h (2 Bft) 100,00 %
19.05.2018 20:48 16,4 C 18,3 C 68 % 1016,7 hPa 0,0 l/m 6,7 km/h (2 Bft) O-SO 103 0 min 0,000 mm 0,0 UV-I 0 W/m 10,5 C 16,3 C 9,7 km/h (2 Bft) 100,00 %
19.05.2018 20:49 16,4 C 18,3 C 68 % 1016,8 hPa 0,0 l/m 7,4 km/h (2 Bft) O 97 0 min 0,000 mm 0,0 UV-I 0 W/m 10,5 C 15,9 C 11,3 km/h (2 Bft) 100,00 %
19.05.2018 20:50 16,4 C 18,3 C 68 % 1016,7 hPa 0,0 l/m 6,3 km/h (2 Bft) O 90 0 min 0,000 mm 0,0 UV-I 0 W/m 10,5 C 16,4 C 9,7 km/h (2 Bft) 100,00 %
19.05.2018 20:51 16,4 C 18,3 C 67 % 1016,7 hPa 0,0 l/m 5,7 km/h (1 Bft) O 88 0 min 0,000 mm 0,0 UV-I 0 W/m 10,3 C 16,4 C 6,4 km/h (2 Bft) 100,00 %
19.05.2018 20:52 16,5 C 18,3 C 67 % 1016,8 hPa 0,0 l/m 4,6 km/h (1 Bft) O-NO 75 0 min 0,000 mm 0,0 UV-I 0 W/m 10,4 C 16,5 C 6,4 km/h (2 Bft) 100,00 %
19.05.2018 20:53 16,5 C 18,3 C 67 % 1016,8 hPa 0,0 l/m 5,8 km/h (2 Bft) O-NO 72 0 min 0,000 mm 0,0 UV-I 0 W/m 10,4 C 16,5 C 6,4 km/h (2 Bft) 100,00 %
19.05.2018 20:54 16,4 C 18,3 C 67 % 1016,8 hPa 0,0 l/m 5,3 km/h (1 Bft) O-NO 67 0 min 0,000 mm 0,0 UV-I 0 W/m 10,3 C 16,4 C 6,4 km/h (2 Bft) 100,00 %
19.05.2018 20:55 16,3 C 18,3 C 70 % 1016,8 hPa 0,0 l/m 4,6 km/h (1 Bft) O-NO 65 0 min 0,000 mm 0,0 UV-I 0 W/m 10,8 C 16,3 C 6,4 km/h (2 Bft) 100,00 %
19.05.2018 20:56 16,2 C 18,3 C 70 % 1016,8 hPa 0,0 l/m 5,8 km/h (2 Bft) NO 55 0 min 0,000 mm 0,0 UV-I 0 W/m 10,7 C 16,2 C 8,0 km/h (2 Bft) 100,00 %
19.05.2018 20:57 16,1 C 18,3 C 71 % 1016,8 hPa 0,0 l/m 8,7 km/h (2 Bft) N-NO 33 0 min 0,000 mm 0,0 UV-I 0 W/m 10,8 C 14,9 C 11,3 km/h (2 Bft) 100,00 %
19.05.2018 20:58 16,1 C 18,3 C 70 % 1016,9 hPa 0,0 l/m 11,5 km/h (2 Bft) NO 52 0 min 0,000 mm 0,0 UV-I 0 W/m 10,6 C 13,7 C 16,1 km/h (3 Bft) 100,00 %
19.05.2018 20:59 16,1 C 18,3 C 71 % 1016,8 hPa 0,0 l/m 15,2 km/h (3 Bft) NO 49 0 min 0,000 mm 0,0 UV-I 0 W/m 10,8 C 12,5 C 19,3 km/h (3 Bft) 100,00 %
19.05.2018 21:00 16,1 C 18,3 C 71 % 1016,9 hPa 0,0 l/m 16,7 km/h (3 Bft) NO 55 0 min 0,025 mm 0,0 UV-I 0 W/m 10,8 C 12,0 C 19,3 km/h (3 Bft) 100,00 %
19.05.2018 21:02 16,1 C 18,3 C 71 % 1016,9 hPa 0,0 l/m 15,2 km/h (3 Bft) NO 34 0 min 0,000 mm 0,0 UV-I 0 W/m 10,8 C 12,5 C 20,9 km/h (4 Bft) 100,00 %
19.05.2018 21:03 16,1 C 18,3 C 72 % 1016,9 hPa 0,0 l/m 16,2 km/h (3 Bft) O-NO 59 0 min 0,000 mm 0,0 UV-I 0 W/m 11,0 C 12,2 C 19,3 km/h (3 Bft) 100,00 %
19.05.2018 21:04 16,1 C 18,3 C 72 % 1016,9 hPa 0,0 l/m 14,5 km/h (3 Bft) O-NO 69 0 min 0,000 mm 0,0 UV-I 0 W/m 11,0 C 12,7 C 19,3 km/h (3 Bft) 100,00 %
19.05.2018 21:05 16,1 C 18,3 C 72 % 1016,9 hPa 0,0 l/m 15,6 km/h (3 Bft) NO 55 0 min 0,000 mm 0,0 UV-I 0 W/m 11,0 C 12,3 C 24,1 km/h (4 Bft) 100,00 %
19.05.2018 21:06 16,1 C 18,3 C 72 % 1017,0 hPa 0,0 l/m 14,4 km/h (3 Bft) NO 35 0 min 0,000 mm 0,0 UV-I 0 W/m 11,0 C 12,7 C 19,3 km/h (3 Bft) 100,00 %
19.05.2018 21:07 16,1 C 18,3 C 72 % 1017,0 hPa 0,0 l/m 10,7 km/h (2 Bft) N-NO 29 0 min 0,000 mm 0,0 UV-I 0 W/m 11,0 C 14,0 C 14,5 km/h (3 Bft) 100,00 %
19.05.2018 21:08 16,1 C 18,3 C 72 % 1017,0 hPa 0,0 l/m 13,9 km/h (3 Bft) O-NO 60 0 min 0,000 mm 0,0 UV-I 0 W/m 11,0 C 12,9 C 17,7 km/h (3 Bft) 100,00 %
19.05.2018 21:09 16,0 C 18,3 C 73 % 1017,0 hPa 0,0 l/m 16,1 km/h (3 Bft) NO 55 0 min 0,000 mm 0,0 UV-I 0 W/m 11,2 C 12,1 C 24,1 km/h (4 Bft) 100,00 %
19.05.2018 21:10 16,0 C 18,3 C 74 % 1017,1 hPa 0,0 l/m 13,7 km/h (3 Bft) NO 37 0 min 0,000 mm 0,0 UV-I 0 W/m 11,4 C 12,8 C 19,3 km/h (3 Bft) 96,30 %
19.05.2018 21:11 15,9 C 18,3 C 74 % 1017,1 hPa 0,0 l/m 16,4 km/h (3 Bft) NO 37 0 min 0,000 mm 0,0 UV-I 0 W/m 11,3 C 11,9 C 20,9 km/h (4 Bft) 100,00 %
19.05.2018 21:12 15,8 C 18,3 C 74 % 1017,1 hPa 0,0 l/m 14,0 km/h (3 Bft) N 10 0 min 0,000 mm 0,0 UV-I 0 W/m 11,2 C 12,5 C 16,1 km/h (3 Bft) 100,00 %
19.05.2018 21:13 15,8 C 18,3 C 75 % 1017,1 hPa 0,0 l/m 12,3 km/h (3 Bft) NO 34 0 min 0,000 mm 0,0 UV-I 0 W/m 11,4 C 13,1 C 17,7 km/h (3 Bft) 100,00 %
19.05.2018 21:14 15,7 C 18,3 C 75 % 1017,1 hPa 0,0 l/m 9,7 km/h (2 Bft) O-NO 58 0 min 0,000 mm 0,0 UV-I 0 W/m 11,3 C 14,0 C 14,5 km/h (3 Bft) 100,00 %
19.05.2018 21:15 15,6 C 18,3 C 76 % 1017,2 hPa 0,0 l/m 12,4 km/h (3 Bft) O-NO 59 0 min 0,000 mm 0,0 UV-I 0 W/m 11,4 C 12,8 C 16,1 km/h (3 Bft) 100,00 %
19.05.2018 21:18 15,6 C 18,3 C 76 % 1017,2 hPa 0,0 l/m 8,3 km/h (2 Bft) O-NO 61 0 min 0,000 mm 0,0 UV-I 0 W/m 11,4 C 14,6 C 12,9 km/h (3 Bft) 100,00 %
19.05.2018 21:19 15,6 C 18,3 C 76 % 1017,2 hPa 0,0 l/m 6,6 km/h (2 Bft) O-NO 67 0 min 0,000 mm 0,0 UV-I 0 W/m 11,4 C 15,5 C 9,7 km/h (2 Bft) 100,00 %
19.05.2018 21:20 15,5 C 18,3 C 76 % 1017,2 hPa 0,0 l/m 8,0 km/h (2 Bft) NO 45 0 min 0,000 mm 0,0 UV-I 0 W/m 11,3 C 14,6 C 14,5 km/h (3 Bft) 100,00 %
19.05.2018 21:24 15,4 C 18,3 C 76 % 1017,3 hPa 0,0 l/m 7,5 km/h (2 Bft) NO 54 0 min 0,000 mm 0,0 UV-I 0 W/m 11,2 C 14,8 C 14,5 km/h (3 Bft) 100,00 %
19.05.2018 21:25 15,4 C 18,3 C 75 % 1017,3 hPa 0,0 l/m 9,7 km/h (2 Bft) O-NO 67 0 min 0,000 mm 0,0 UV-I 0 W/m 11,0 C 13,7 C 14,5 km/h (3 Bft) 100,00 %
19.05.2018 21:27 15,3 C 18,3 C 75 % 1017,3 hPa 0,0 l/m 6,9 km/h (2 Bft) NO 36 0 min 0,000 mm 0,0 UV-I 0 W/m 10,9 C 15,0 C 9,7 km/h (2 Bft) 95,71 %
19.05.2018 21:28 15,3 C 18,3 C 75 % 1017,3 hPa 0,0 l/m 6,1 km/h (2 Bft) NO 40 0 min 0,000 mm 0,0 UV-I 0 W/m 10,9 C 15,3 C 8,0 km/h (2 Bft) 100,00 %
19.05.2018 21:29 15,3 C 18,3 C 75 % 1017,3 hPa 0,0 l/m 9,0 km/h (2 Bft) NO 46 0 min 0,000 mm 0,0 UV-I 0 W/m 10,9 C 13,9 C 11,3 km/h (2 Bft) 100,00 %
19.05.2018 21:30 15,3 C 18,3 C 75 % 1017,4 hPa 0,0 l/m 8,0 km/h (2 Bft) NO 53 0 min 0,000 mm 0,0 UV-I 0 W/m 10,9 C 14,4 C 11,3 km/h (2 Bft) 96,30 %
19.05.2018 21:31 15,3 C 18,3 C 75 % 1017,4 hPa 0,0 l/m 8,4 km/h (2 Bft) O-NO 60 0 min 0,000 mm 0,0 UV-I 0 W/m 10,9 C 14,2 C 12,9 km/h (3 Bft) 100,00 %
19.05.2018 21:32 15,3 C 18,3 C 74 % 1017,4 hPa 0,0 l/m 10,6 km/h (2 Bft) O-NO 61 0 min 0,000 mm 0,0 UV-I 0 W/m 10,7 C 13,2 C 16,1 km/h (3 Bft) 100,00 %
19.05.2018 21:33 15,3 C 18,3 C 74 % 1017,3 hPa 0,0 l/m 10,2 km/h (2 Bft) O-NO 67 0 min 0,000 mm 0,0 UV-I 0 W/m 10,7 C 13,4 C 14,5 km/h (3 Bft) 96,15 %
19.05.2018 21:34 15,3 C 18,3 C 74 % 1017,4 hPa 0,0 l/m 11,7 km/h (2 Bft) O-NO 71 0 min 0,000 mm 0,0 UV-I 0 W/m 10,7 C 12,7 C 14,5 km/h (3 Bft) 100,00 %
19.05.2018 21:35 15,3 C 18,3 C 74 % 1017,4 hPa 0,0 l/m 8,8 km/h (2 Bft) NO 52 0 min 0,000 mm 0,0 UV-I 0 W/m 10,7 C 14,0 C 11,3 km/h (2 Bft) 98,00 %
19.05.2018 21:36 15,3 C 18,3 C 74 % 1017,4 hPa 0,0 l/m 11,3 km/h (2 Bft) NO 35 0 min 0,000 mm 0,0 UV-I 0 W/m 10,7 C 12,9 C 16,1 km/h (3 Bft) 100,00 %
19.05.2018 21:37 15,4 C 18,3 C 73 % 1017,4 hPa 0,0 l/m 9,9 km/h (2 Bft) NO 47 0 min 0,000 mm 0,0 UV-I 0 W/m 10,6 C 13,6 C 16,1 km/h (3 Bft) 100,00 %
19.05.2018 21:38 15,4 C 18,3 C 74 % 1017,4 hPa 0,0 l/m 14,4 km/h (3 Bft) O 86 0 min 0,000 mm 0,0 UV-I 0 W/m 10,8 C 11,9 C 17,7 km/h (3 Bft) 93,33 %
19.05.2018 21:39 15,4 C 18,3 C 73 % 1017,4 hPa 0,0 l/m 9,2 km/h (2 Bft) O-NO 69 0 min 0,000 mm 0,0 UV-I 0 W/m 10,6 C 13,9 C 14,5 km/h (3 Bft) 100,00 %
19.05.2018 21:40 15,4 C 18,3 C 74 % 1017,4 hPa 0,0 l/m 10,9 km/h (2 Bft) NO 46 0 min 0,000 mm 0,0 UV-I 0 W/m 10,8 C 13,2 C 16,1 km/h (3 Bft) 100,00 %
19.05.2018 21:41 15,4 C 18,3 C 74 % 1017,4 hPa 0,0 l/m 10,4 km/h (2 Bft) O-NO 74 0 min 0,000 mm 0,0 UV-I 0 W/m 10,8 C 13,4 C 14,5 km/h (3 Bft) 100,00 %
19.05.2018 21:45 15,4 C 18,3 C 74 % 1017,4 hPa 0,0 l/m 9,7 km/h (2 Bft) O-NO 67 0 min 0,000 mm 0,0 UV-I 0 W/m 10,8 C 13,7 C 17,7 km/h (3 Bft) 96,49 %
19.05.2018 21:50 15,2 C 18,3 C 75 % 1017,4 hPa 0,0 l/m 11,3 km/h (2 Bft) O-NO 67 0 min 0,000 mm 0,0 UV-I 0 W/m 10,8 C 12,8 C 16,1 km/h (3 Bft) 98,25 %
19.05.2018 21:54 15,1 C 18,3 C 76 % 1017,5 hPa 0,0 l/m 5,8 km/h (2 Bft) NO 56 0 min 0,000 mm 0,0 UV-I 0 W/m 10,9 C 15,1 C 11,3 km/h (2 Bft) 99,36 %
19.05.2018 21:55 15,0 C 18,3 C 76 % 1017,5 hPa 0,0 l/m 10,8 km/h (2 Bft) O-NO 60 0 min 0,000 mm 0,0 UV-I 0 W/m 10,8 C 12,8 C 14,5 km/h (3 Bft) 100,00 %
19.05.2018 21:56 14,9 C 18,3 C 77 % 1017,4 hPa 0,0 l/m 8,9 km/h (2 Bft) O-NO 59 0 min 0,000 mm 0,0 UV-I 0 W/m 10,9 C 13,5 C 12,9 km/h (3 Bft) 100,00 %
19.05.2018 21:57 14,8 C 18,3 C 77 % 1017,4 hPa 0,0 l/m 9,9 km/h (2 Bft) O-NO 61 0 min 0,000 mm 0,0 UV-I 0 W/m 10,8 C 12,9 C 14,5 km/h (3 Bft) 100,00 %
19.05.2018 21:58 14,8 C 18,3 C 77 % 1017,5 hPa 0,0 l/m 10,1 km/h (2 Bft) NO 47 0 min 0,000 mm 0,0 UV-I 0 W/m 10,8 C 12,9 C 14,5 km/h (3 Bft) 100,00 %
19.05.2018 21:59 14,7 C 18,3 C 77 % 1017,4 hPa 0,0 l/m 8,4 km/h (2 Bft) O-NO 63 0 min 0,000 mm 0,0 UV-I 0 W/m 10,7 C 13,6 C 12,9 km/h (3 Bft) 100,00 %
19.05.2018 22:00 14,7 C 18,3 C 77 % 1017,5 hPa 0,0 l/m 8,6 km/h (2 Bft) O-NO 67 0 min 0,000 mm 0,0 UV-I 0 W/m 10,7 C 13,5 C 11,3 km/h (2 Bft) 100,00 %
19.05.2018 22:02 14,7 C 18,3 C 77 % 1017,5 hPa 0,0 l/m 9,0 km/h (2 Bft) O 82 0 min 0,051 mm 0,0 UV-I 0 W/m 10,7 C 13,3 C 14,5 km/h (3 Bft) 96,00 %
19.05.2018 22:03 14,8 C 18,3 C 77 % 1017,5 hPa 0,0 l/m 7,8 km/h (2 Bft) O 96 0 min 0,000 mm 0,0 UV-I 0 W/m 10,8 C 14,0 C 9,7 km/h (2 Bft) 93,33 %
19.05.2018 22:04 14,7 C 18,3 C 77 % 1017,6 hPa 0,0 l/m 9,6 km/h (2 Bft) O 96 0 min 0,000 mm 0,0 UV-I 0 W/m 10,7 C 13,0 C 12,9 km/h (3 Bft) 100,00 %
19.05.2018 22:05 14,7 C 18,3 C 77 % 1017,5 hPa 0,0 l/m 9,2 km/h (2 Bft) NO 56 0 min 0,000 mm 0,0 UV-I 0 W/m 10,7 C 13,2 C 12,9 km/h (3 Bft) 96,15 %
19.05.2018 22:06 14,7 C 18,3 C 77 % 1017,6 hPa 0,0 l/m 9,7 km/h (2 Bft) O-NO 73 0 min 0,000 mm 0,0 UV-I 0 W/m 10,7 C 12,9 C 16,1 km/h (3 Bft) 96,30 %
19.05.2018 22:07 14,7 C 18,3 C 77 % 1017,6 hPa 0,0 l/m 7,7 km/h (2 Bft) O-NO 62 0 min 0,000 mm 0,0 UV-I 0 W/m 10,7 C 14,0 C 11,3 km/h (2 Bft) 96,15 %
19.05.2018 22:08 14,7 C 18,3 C 77 % 1017,6 hPa 0,0 l/m 6,7 km/h (2 Bft) O-NO 74 0 min 0,000 mm 0,0 UV-I 0 W/m 10,7 C 14,5 C 11,3 km/h (2 Bft) 95,65 %
19.05.2018 22:09 14,7 C 18,3 C 77 % 1017,6 hPa 0,0 l/m 11,6 km/h (2 Bft) O-NO 76 0 min 0,000 mm 0,0 UV-I 0 W/m 10,7 C 12,1 C 17,7 km/h (3 Bft) 100,00 %
19.05.2018 22:12 14,8 C 18,3 C 74 % 1017,7 hPa 0,0 l/m 23,7 km/h (4 Bft) O 86 0 min 0,000 mm 0,0 UV-I 0 W/m 10,2 C 8,6 C 29,0 km/h (5 Bft) 97,50 %
19.05.2018 22:13 14,9 C 18,3 C 73 % 1017,9 hPa 0,0 l/m 21,8 km/h (4 Bft) O 83 0 min 0,000 mm 0,0 UV-I 0 W/m 10,1 C 9,2 C 27,4 km/h (4 Bft) 92,31 %
19.05.2018 22:14 15,0 C 18,3 C 72 % 1017,8 hPa 0,0 l/m 18,4 km/h (3 Bft) O 88 0 min 0,000 mm 0,0 UV-I 0 W/m 10,0 C 10,2 C 27,4 km/h (4 Bft) 100,00 %
19.05.2018 22:15 15,1 C 18,3 C 72 % 1017,8 hPa 0,0 l/m 17,6 km/h (3 Bft) O 80 0 min 0,000 mm 0,0 UV-I 0 W/m 10,1 C 10,5 C 24,1 km/h (4 Bft) 96,15 %
19.05.2018 22:16 15,1 C 18,3 C 72 % 1017,7 hPa 0,0 l/m 16,5 km/h (3 Bft) O-NO 73 0 min 0,000 mm 0,0 UV-I 0 W/m 10,1 C 10,8 C 19,3 km/h (3 Bft) 96,67 %
19.05.2018 22:17 15,0 C 18,3 C 72 % 1017,8 hPa 0,0 l/m 14,9 km/h (3 Bft) SO 126 0 min 0,000 mm 0,0 UV-I 0 W/m 10,0 C 11,2 C 20,9 km/h (4 Bft) 92,31 %
19.05.2018 22:18 14,9 C 18,3 C 72 % 1017,8 hPa 0,0 l/m 14,6 km/h (3 Bft) O 88 0 min 0,000 mm 0,0 UV-I 0 W/m 9,9 C 11,2 C 19,3 km/h (3 Bft) 93,33 %
19.05.2018 22:19 14,9 C 18,3 C 72 % 1017,8 hPa 0,0 l/m 18,0 km/h (3 Bft) O-SO 103 0 min 0,000 mm 0,0 UV-I 0 W/m 9,9 C 10,2 C 20,9 km/h (4 Bft) 95,83 %
19.05.2018 22:20 14,9 C 18,3 C 72 % 1017,8 hPa 0,0 l/m 13,0 km/h (3 Bft) O-SO 102 0 min 0,000 mm 0,0 UV-I 0 W/m 9,9 C 11,8 C 17,7 km/h (3 Bft) 100,00 %
19.05.2018 22:21 14,9 C 18,3 C 72 % 1017,8 hPa 0,0 l/m 14,5 km/h (3 Bft) O 80 0 min 0,000 mm 0,0 UV-I 0 W/m 9,9 C 11,2 C 19,3 km/h (3 Bft) 92,31 %
19.05.2018 22:22 14,9 C 18,3 C 72 % 1017,8 hPa 0,0 l/m 13,1 km/h (3 Bft) O-NO 70 0 min 0,000 mm 0,0 UV-I 0 W/m 9,9 C 11,7 C 16,1 km/h (3 Bft) 100,00 %
19.05.2018 22:23 14,8 C 18,3 C 73 % 1017,8 hPa 0,0 l/m 18,1 km/h (3 Bft) O 81 0 min 0,000 mm 0,0 UV-I 0 W/m 10,0 C 10,0 C 20,9 km/h (4 Bft) 91,67 %
19.05.2018 22:24 14,8 C 18,3 C 73 % 1017,8 hPa 0,0 l/m 18,2 km/h (3 Bft) O 80 0 min 0,000 mm 0,0 UV-I 0 W/m 10,0 C 10,0 C 20,9 km/h (4 Bft) 100,00 %
19.05.2018 22:25 14,8 C 18,3 C 73 % 1017,8 hPa 0,0 l/m 18,0 km/h (3 Bft) O-SO 102 0 min 0,000 mm 0,0 UV-I 0 W/m 10,0 C 10,0 C 25,7 km/h (4 Bft) 95,83 %
19.05.2018 22:26 14,8 C 18,3 C 73 % 1017,9 hPa 0,0 l/m 15,1 km/h (3 Bft) O 85 0 min 0,000 mm 0,0 UV-I 0 W/m 10,0 C 10,9 C 20,9 km/h (4 Bft) 96,55 %
19.05.2018 22:27 14,7 C 18,3 C 73 % 1017,8 hPa 0,0 l/m 13,3 km/h (3 Bft) O 86 0 min 0,000 mm 0,0 UV-I 0 W/m 9,9 C 11,4 C 16,1 km/h (3 Bft) 93,33 %
19.05.2018 22:28 14,7 C 18,3 C 73 % 1017,9 hPa 0,0 l/m 15,4 km/h (3 Bft) O 90 0 min 0,000 mm 0,0 UV-I 0 W/m 9,9 C 10,7 C 20,9 km/h (4 Bft) 96,55 %
19.05.2018 22:29 14,7 C 18,3 C 73 % 1017,8 hPa 0,0 l/m 15,3 km/h (3 Bft) O-NO 68 0 min 0,000 mm 0,0 UV-I 0 W/m 9,9 C 10,7 C 19,3 km/h (3 Bft) 100,00 %
19.05.2018 22:30 14,7 C 18,3 C 73 % 1017,8 hPa 0,0 l/m 13,1 km/h (3 Bft) O 90 0 min 0,000 mm 0,0 UV-I 0 W/m 9,9 C 11,5 C 22,5 km/h (4 Bft) 95,65 %
19.05.2018 22:31 14,7 C 18,3 C 73 % 1017,7 hPa 0,0 l/m 15,2 km/h (3 Bft) O-NO 61 0 min 0,000 mm 0,0 UV-I 0 W/m 9,9 C 10,8 C 22,5 km/h (4 Bft) 96,30 %
19.05.2018 22:32 14,7 C 18,3 C 74 % 1017,9 hPa 0,0 l/m 11,7 km/h (2 Bft) O-NO 65 0 min 0,000 mm 0,0 UV-I 0 W/m 10,1 C 12,0 C 16,1 km/h (3 Bft) 100,00 %
19.05.2018 22:33 14,7 C 18,3 C 74 % 1017,8 hPa 0,0 l/m 11,8 km/h (2 Bft) O 90 0 min 0,000 mm 0,0 UV-I 0 W/m 10,1 C 12,0 C 14,5 km/h (3 Bft) 96,30 %
19.05.2018 22:34 14,6 C 18,3 C 74 % 1017,8 hPa 0,0 l/m 12,0 km/h (2 Bft) O 89 0 min 0,000 mm 0,0 UV-I 0 W/m 10,0 C 11,8 C 16,1 km/h (3 Bft) 100,00 %
19.05.2018 22:35 14,6 C 18,3 C 74 % 1017,9 hPa 0,0 l/m 11,8 km/h (2 Bft) O 81 0 min 0,000 mm 0,0 UV-I 0 W/m 10,0 C 11,9 C 12,9 km/h (3 Bft) 100,00 %
19.05.2018 22:36 14,5 C 18,3 C 74 % 1017,8 hPa 0,0 l/m 14,5 km/h (3 Bft) O-SO 106 0 min 0,000 mm 0,0 UV-I 0 W/m 9,9 C 10,8 C 19,3 km/h (3 Bft) 100,00 %
19.05.2018 22:37 14,5 C 18,3 C 74 % 1017,8 hPa 0,0 l/m 14,5 km/h (3 Bft) O 85 0 min 0,000 mm 0,0 UV-I 0 W/m 9,9 C 10,8 C 20,9 km/h (4 Bft) 93,33 %
19.05.2018 22:38 14,5 C 18,3 C 74 % 1017,9 hPa 0,0 l/m 14,2 km/h (3 Bft) O 86 0 min 0,000 mm 0,0 UV-I 0 W/m 9,9 C 10,9 C 17,7 km/h (3 Bft) 96,88 %
19.05.2018 22:39 14,5 C 18,3 C 75 % 1017,9 hPa 0,0 l/m 13,0 km/h (3 Bft) O 92 0 min 0,000 mm 0,0 UV-I 0 W/m 10,1 C 11,3 C 14,5 km/h (3 Bft) 100,00 %
19.05.2018 22:40 14,4 C 18,3 C 75 % 1017,9 hPa 0,0 l/m 12,0 km/h (2 Bft) O 98 0 min 0,000 mm 0,0 UV-I 0 W/m 10,0 C 11,6 C 14,5 km/h (3 Bft) 96,15 %
19.05.2018 22:41 14,4 C 18,3 C 75 % 1017,9 hPa 0,0 l/m 14,2 km/h (3 Bft) O 98 0 min 0,000 mm 0,0 UV-I 0 W/m 10,0 C 10,7 C 17,7 km/h (3 Bft) 100,00 %
19.05.2018 22:42 14,4 C 18,3 C 75 % 1017,9 hPa 0,0 l/m 11,4 km/h (2 Bft) O 93 0 min 0,000 mm 0,0 UV-I 0 W/m 10,0 C 11,8 C 16,1 km/h (3 Bft) 100,00 %
19.05.2018 22:43 14,4 C 18,3 C 76 % 1017,8 hPa 0,0 l/m 14,0 km/h (3 Bft) O 98 0 min 0,000 mm 0,0 UV-I 0 W/m 10,2 C 10,8 C 16,1 km/h (3 Bft) 100,00 %
19.05.2018 22:44 14,4 C 18,3 C 76 % 1017,8 hPa 0,0 l/m 13,2 km/h (3 Bft) O-SO 109 0 min 0,000 mm 0,0 UV-I 0 W/m 10,2 C 11,1 C 19,3 km/h (3 Bft) 100,00 %
19.05.2018 22:45 14,3 C 18,3 C 76 % 1017,9 hPa 0,0 l/m 11,2 km/h (2 Bft) O 98 0 min 0,000 mm 0,0 UV-I 0 W/m 10,1 C 11,8 C 14,5 km/h (3 Bft) 100,00 %
19.05.2018 22:46 14,4 C 18,3 C 76 % 1017,8 hPa 0,0 l/m 14,3 km/h (3 Bft) O-SO 119 0 min 0,000 mm 0,0 UV-I 0 W/m 10,2 C 10,7 C 19,3 km/h (3 Bft) 100,00 %
19.05.2018 22:48 14,3 C 18,3 C 76 % 1017,9 hPa 0,0 l/m 12,7 km/h (3 Bft) O 84 0 min 0,000 mm 0,0 UV-I 0 W/m 10,1 C 11,2 C 19,3 km/h (3 Bft) 100,00 %
19.05.2018 22:49 14,3 C 18,3 C 76 % 1017,9 hPa 0,0 l/m 14,5 km/h (3 Bft) O-SO 107 0 min 0,000 mm 0,0 UV-I 0 W/m 10,1 C 10,5 C 16,1 km/h (3 Bft) 100,00 %
19.05.2018 22:50 14,3 C 18,3 C 76 % 1017,9 hPa 0,0 l/m 13,2 km/h (3 Bft) O 92 0 min 0,000 mm 0,0 UV-I 0 W/m 10,1 C 11,0 C 16,1 km/h (3 Bft) 100,00 %
19.05.2018 22:51 14,3 C 18,3 C 76 % 1017,9 hPa 0,0 l/m 13,2 km/h (3 Bft) O-NO 74 0 min 0,000 mm 0,0 UV-I 0 W/m 10,1 C 11,0 C 16,1 km/h (3 Bft) 96,30 %
19.05.2018 22:52 14,3 C 18,3 C 77 % 1017,8 hPa 0,0 l/m 13,1 km/h (3 Bft) O-NO 73 0 min 0,000 mm 0,0 UV-I 0 W/m 10,3 C 11,0 C 17,7 km/h (3 Bft) 100,00 %
19.05.2018 22:53 14,3 C 18,3 C 77 % 1017,8 hPa 0,0 l/m 13,6 km/h (3 Bft) O 92 0 min 0,000 mm 0,0 UV-I 0 W/m 10,3 C 10,8 C 16,1 km/h (3 Bft) 100,00 %
19.05.2018 22:54 14,3 C 18,3 C 77 % 1017,9 hPa 0,0 l/m 10,6 km/h (2 Bft) O-SO 103 0 min 0,000 mm 0,0 UV-I 0 W/m 10,3 C 12,1 C 14,5 km/h (3 Bft) 100,00 %
19.05.2018 22:55 14,2 C 18,3 C 77 % 1017,9 hPa 0,0 l/m 10,9 km/h (2 Bft) O 84 0 min 0,000 mm 0,0 UV-I 0 W/m 10,2 C 11,8 C 12,9 km/h (3 Bft) 100,00 %
19.05.2018 22:56 14,2 C 18,3 C 78 % 1017,9 hPa 0,0 l/m 11,6 km/h (2 Bft) O-SO 110 0 min 0,000 mm 0,0 UV-I 0 W/m 10,4 C 11,5 C 14,5 km/h (3 Bft) 100,00 %
19.05.2018 22:58 14,2 C 18,3 C 78 % 1017,9 hPa 0,0 l/m 11,3 km/h (2 Bft) O 101 0 min 0,000 mm 0,0 UV-I 0 W/m 10,4 C 11,6 C 16,1 km/h (3 Bft) 100,00 %
19.05.2018 22:59 14,2 C 18,3 C 78 % 1017,9 hPa 0,0 l/m 9,4 km/h (2 Bft) O 88 0 min 0,000 mm 0,0 UV-I 0 W/m 10,4 C 12,5 C 12,9 km/h (3 Bft) 100,00 %
19.05.2018 23:00 14,1 C 18,3 C 78 % 1017,9 hPa 0,0 l/m 8,3 km/h (2 Bft) O 84 0 min 0,000 mm 0,0 UV-I 0 W/m 10,3 C 13,0 C 12,9 km/h (3 Bft) 100,00 %
19.05.2018 23:02 14,1 C 18,3 C 78 % 1017,9 hPa 0,0 l/m 9,5 km/h (2 Bft) O 98 0 min 0,051 mm 0,0 UV-I 0 W/m 10,3 C 12,4 C 14,5 km/h (3 Bft) 100,00 %
19.05.2018 23:03 14,1 C 18,3 C 78 % 1017,9 hPa 0,0 l/m 9,6 km/h (2 Bft) O 87 0 min 0,000 mm 0,0 UV-I 0 W/m 10,3 C 12,3 C 12,9 km/h (3 Bft) 100,00 %
19.05.2018 23:04 14,1 C 18,3 C 78 % 1017,9 hPa 0,0 l/m 8,9 km/h (2 Bft) O-NO 69 0 min 0,000 mm 0,0 UV-I 0 W/m 10,3 C 12,7 C 12,9 km/h (3 Bft) 100,00 %
19.05.2018 23:05 14,2 C 18,3 C 78 % 1017,9 hPa 0,0 l/m 8,3 km/h (2 Bft) O 91 0 min 0,000 mm 0,0 UV-I 0 W/m 10,4 C 13,1 C 11,3 km/h (2 Bft) 100,00 %
19.05.2018 23:06 14,1 C 18,3 C 79 % 1017,9 hPa 0,0 l/m 6,5 km/h (2 Bft) O-NO 72 0 min 0,000 mm 0,0 UV-I 0 W/m 10,5 C 14,1 C 9,7 km/h (2 Bft) 100,00 %
19.05.2018 23:07 14,1 C 18,3 C 79 % 1017,9 hPa 0,0 l/m 7,6 km/h (2 Bft) O-NO 69 0 min 0,000 mm 0,0 UV-I 0 W/m 10,5 C 13,4 C 12,9 km/h (3 Bft) 100,00 %
19.05.2018 23:08 14,1 C 18,3 C 79 % 1017,9 hPa 0,0 l/m 5,0 km/h (1 Bft) O-NO 67 0 min 0,000 mm 0,0 UV-I 0 W/m 10,5 C 14,1 C 8,0 km/h (2 Bft) 95,65 %
19.05.2018 23:09 14,1 C 18,3 C 79 % 1017,9 hPa 0,0 l/m 5,5 km/h (1 Bft) O 85 0 min 0,000 mm 0,0 UV-I 0 W/m 10,5 C 14,1 C 8,0 km/h (2 Bft) 100,00 %
19.05.2018 23:10 14,1 C 18,3 C 79 % 1017,9 hPa 0,0 l/m 7,7 km/h (2 Bft) O 79 0 min 0,000 mm 0,0 UV-I 0 W/m 10,5 C 13,3 C 12,9 km/h (3 Bft) 100,00 %
19.05.2018 23:11 14,1 C 18,3 C 79 % 1017,9 hPa 0,0 l/m 9,0 km/h (2 Bft) O 87 0 min 0,000 mm 0,0 UV-I 0 W/m 10,5 C 12,6 C 12,9 km/h (3 Bft) 100,00 %
19.05.2018 23:12 14,1 C 18,3 C 79 % 1017,9 hPa 0,0 l/m 7,8 km/h (2 Bft) O-NO 69 0 min 0,000 mm 0,0 UV-I 0 W/m 10,5 C 13,3 C 11,3 km/h (2 Bft) 100,00 %
19.05.2018 23:13 14,1 C 18,3 C 80 % 1017,9 hPa 0,0 l/m 5,3 km/h (1 Bft) O 88 0 min 0,000 mm 0,0 UV-I 0 W/m 10,7 C 14,1 C 6,4 km/h (2 Bft) 100,00 %
19.05.2018 23:14 14,1 C 18,3 C 80 % 1017,9 hPa 0,0 l/m 6,0 km/h (2 Bft) O 80 0 min 0,000 mm 0,0 UV-I 0 W/m 10,7 C 14,1 C 9,7 km/h (2 Bft) 100,00 %
19.05.2018 23:15 14,1 C 18,3 C 80 % 1017,9 hPa 0,0 l/m 5,7 km/h (1 Bft) O-NO 66 0 min 0,000 mm 0,0 UV-I 0 W/m 10,7 C 14,1 C 8,0 km/h (2 Bft) 100,00 %
19.05.2018 23:16 14,1 C 18,3 C 80 % 1017,9 hPa 0,0 l/m 7,3 km/h (2 Bft) O-NO 69 0 min 0,000 mm 0,0 UV-I 0 W/m 10,7 C 13,6 C 14,5 km/h (3 Bft) 100,00 %
19.05.2018 23:18 14,1 C 18,3 C 80 % 1018,0 hPa 0,0 l/m 8,2 km/h (2 Bft) O 84 0 min 0,000 mm 0,0 UV-I 0 W/m 10,7 C 13,0 C 14,5 km/h (3 Bft) 100,00 %
19.05.2018 23:19 14,1 C 18,3 C 80 % 1018,0 hPa 0,0 l/m 5,8 km/h (2 Bft) NO 46 0 min 0,000 mm 0,0 UV-I 0 W/m 10,7 C 14,1 C 8,0 km/h (2 Bft) 91,67 %
19.05.2018 23:20 14,1 C 18,3 C 80 % 1017,9 hPa 0,0 l/m 5,9 km/h (2 Bft) O 84 0 min 0,000 mm 0,0 UV-I 0 W/m 10,7 C 14,1 C 8,0 km/h (2 Bft) 100,00 %
19.05.2018 23:21 14,1 C 18,3 C 80 % 1018,0 hPa 0,0 l/m 7,7 km/h (2 Bft) O-NO 71 0 min 0,000 mm 0,0 UV-I 0 W/m 10,7 C 13,3 C 9,7 km/h (2 Bft) 100,00 %
19.05.2018 23:22 14,1 C 18,3 C 80 % 1018,0 hPa 0,0 l/m 6,6 km/h (2 Bft) O-NO 63 0 min 0,000 mm 0,0 UV-I 0 W/m 10,7 C 14,0 C 9,7 km/h (2 Bft) 100,00 %
19.05.2018 23:23 14,1 C 18,3 C 80 % 1018,0 hPa 0,0 l/m 6,5 km/h (2 Bft) O-NO 76 0 min 0,000 mm 0,0 UV-I 0 W/m 10,7 C 14,1 C 9,7 km/h (2 Bft) 100,00 %
19.05.2018 23:24 14,1 C 18,3 C 80 % 1018,0 hPa 0,0 l/m 6,7 km/h (2 Bft) O-NO 65 0 min 0,000 mm 0,0 UV-I 0 W/m 10,7 C 13,9 C 11,3 km/h (2 Bft) 96,30 %
19.05.2018 23:25 14,1 C 18,3 C 80 % 1018,0 hPa 0,0 l/m 8,3 km/h (2 Bft) NO 53 0 min 0,000 mm 0,0 UV-I 0 W/m 10,7 C 13,0 C 12,9 km/h (3 Bft) 98,07 %
19.05.2018 23:26 14,1 C 18,3 C 80 % 1018,0 hPa 0,0 l/m 6,6 km/h (2 Bft) NO 48 0 min 0,000 mm 0,0 UV-I 0 W/m 10,7 C 14,0 C 9,7 km/h (2 Bft) 97,56 %
19.05.2018 23:27 14,1 C 18,3 C 81 % 1018,0 hPa 0,0 l/m 7,5 km/h (2 Bft) O 84 0 min 0,000 mm 0,0 UV-I 0 W/m 10,9 C 13,4 C 12,9 km/h (3 Bft) 100,00 %
19.05.2018 23:28 14,1 C 18,3 C 81 % 1018,0 hPa 0,0 l/m 9,7 km/h (2 Bft) O-NO 60 0 min 0,000 mm 0,0 UV-I 0 W/m 10,9 C 12,3 C 16,1 km/h (3 Bft) 92,59 %
19.05.2018 23:29 14,1 C 18,3 C 81 % 1018,0 hPa 0,0 l/m 7,5 km/h (2 Bft) O-NO 57 0 min 0,000 mm 0,0 UV-I 0 W/m 10,9 C 13,4 C 9,7 km/h (2 Bft) 100,00 %
19.05.2018 23:30 14,1 C 18,3 C 81 % 1018,0 hPa 0,0 l/m 11,3 km/h (2 Bft) O-NO 65 0 min 0,000 mm 0,0 UV-I 0 W/m 10,9 C 11,5 C 16,1 km/h (3 Bft) 93,33 %
19.05.2018 23:31 14,0 C 18,3 C 81 % 1018,0 hPa 0,0 l/m 9,3 km/h (2 Bft) O-NO 72 0 min 0,000 mm 0,0 UV-I 0 W/m 10,8 C 12,4 C 12,9 km/h (3 Bft) 100,00 %
19.05.2018 23:32 14,0 C 18,3 C 81 % 1018,0 hPa 0,0 l/m 12,1 km/h (2 Bft) NO 53 0 min 0,000 mm 0,0 UV-I 0 W/m 10,8 C 11,1 C 19,3 km/h (3 Bft) 92,59 %
19.05.2018 23:33 14,0 C 18,3 C 81 % 1018,0 hPa 0,0 l/m 7,7 km/h (2 Bft) O-NO 63 0 min 0,000 mm 0,0 UV-I 0 W/m 10,8 C 13,2 C 12,9 km/h (3 Bft) 92,31 %
19.05.2018 23:34 14,0 C 18,3 C 81 % 1018,0 hPa 0,0 l/m 10,7 km/h (2 Bft) O-NO 76 0 min 0,000 mm 0,0 UV-I 0 W/m 10,8 C 11,7 C 12,9 km/h (3 Bft) 100,00 %
19.05.2018 23:35 14,0 C 18,3 C 81 % 1018,0 hPa 0,0 l/m 9,7 km/h (2 Bft) O 88 0 min 0,000 mm 0,0 UV-I 0 W/m 10,8 C 12,2 C 12,9 km/h (3 Bft) 96,55 %
19.05.2018 23:36 14,0 C 18,3 C 81 % 1017,9 hPa 0,0 l/m 11,3 km/h (2 Bft) O-NO 63 0 min 0,000 mm 0,0 UV-I 0 W/m 10,8 C 11,4 C 14,5 km/h (3 Bft) 100,00 %
19.05.2018 23:37 14,1 C 18,3 C 81 % 1017,9 hPa 0,0 l/m 10,1 km/h (2 Bft) O-NO 78 0 min 0,000 mm 0,0 UV-I 0 W/m 10,9 C 12,1 C 12,9 km/h (3 Bft) 93,33 %
19.05.2018 23:38 14,1 C 18,3 C 81 % 1018,0 hPa 0,0 l/m 10,0 km/h (2 Bft) O 98 0 min 0,000 mm 0,0 UV-I 0 W/m 10,9 C 12,1 C 14,5 km/h (3 Bft) 100,00 %
19.05.2018 23:39 14,0 C 18,3 C 82 % 1017,9 hPa 0,0 l/m 12,2 km/h (2 Bft) O-NO 67 0 min 0,000 mm 0,0 UV-I 0 W/m 11,0 C 11,0 C 14,5 km/h (3 Bft) 96,30 %
19.05.2018 23:40 14,1 C 18,3 C 82 % 1017,9 hPa 0,0 l/m 9,8 km/h (2 Bft) O 95 0 min 0,000 mm 0,0 UV-I 0 W/m 11,1 C 12,2 C 14,5 km/h (3 Bft) 100,00 %
19.05.2018 23:41 14,1 C 18,3 C 82 % 1018,0 hPa 0,0 l/m 12,0 km/h (2 Bft) O 88 0 min 0,000 mm 0,0 UV-I 0 W/m 11,1 C 11,2 C 16,1 km/h (3 Bft) 93,33 %
19.05.2018 23:42 14,1 C 18,3 C 81 % 1018,0 hPa 0,0 l/m 8,9 km/h (2 Bft) O-NO 78 0 min 0,000 mm 0,0 UV-I 0 W/m 10,9 C 12,7 C 14,5 km/h (3 Bft) 100,00 %
19.05.2018 23:43 14,1 C 18,3 C 82 % 1017,9 hPa 0,0 l/m 9,5 km/h (2 Bft) O 85 0 min 0,000 mm 0,0 UV-I 0 W/m 11,1 C 12,4 C 12,9 km/h (3 Bft) 96,30 %
19.05.2018 23:44 14,1 C 18,3 C 82 % 1017,9 hPa 0,0 l/m 9,9 km/h (2 Bft) O 82 0 min 0,000 mm 0,0 UV-I 0 W/m 11,1 C 12,2 C 12,9 km/h (3 Bft) 96,15 %
19.05.2018 23:45 14,1 C 18,3 C 82 % 1018,0 hPa 0,0 l/m 11,3 km/h (2 Bft) O-NO 61 0 min 0,000 mm 0,0 UV-I 0 W/m 11,1 C 11,5 C 14,5 km/h (3 Bft) 100,00 %
19.05.2018 23:46 14,1 C 18,3 C 82 % 1018,0 hPa 0,0 l/m 9,5 km/h (2 Bft) O-NO 76 0 min 0,000 mm 0,0 UV-I 0 W/m 11,1 C 12,4 C 14,5 km/h (3 Bft) 97,14 %
19.05.2018 23:47 14,1 C 18,3 C 82 % 1017,9 hPa 0,0 l/m 8,6 km/h (2 Bft) O 84 0 min 0,000 mm 0,0 UV-I 0 W/m 11,1 C 12,8 C 11,3 km/h (2 Bft) 100,00 %
19.05.2018 23:48 14,1 C 18,3 C 82 % 1017,9 hPa 0,0 l/m 8,5 km/h (2 Bft) O-NO 70 0 min 0,000 mm 0,0 UV-I 0 W/m 11,1 C 12,9 C 12,9 km/h (3 Bft) 96,15 %
19.05.2018 23:49 14,1 C 18,3 C 82 % 1017,9 hPa 0,0 l/m 7,6 km/h (2 Bft) O-NO 73 0 min 0,000 mm 0,0 UV-I 0 W/m 11,1 C 13,4 C 11,3 km/h (2 Bft) 96,30 %
19.05.2018 23:50 14,1 C 18,3 C 82 % 1017,9 hPa 0,0 l/m 9,9 km/h (2 Bft) O-NO 65 0 min 0,000 mm 0,0 UV-I 0 W/m 11,1 C 12,2 C 12,9 km/h (3 Bft) 92,31 %
19.05.2018 23:51 14,1 C 18,3 C 82 % 1017,9 hPa 0,0 l/m 9,4 km/h (2 Bft) O-NO 68 0 min 0,000 mm 0,0 UV-I 0 W/m 11,1 C 12,4 C 12,9 km/h (3 Bft) 100,00 %
19.05.2018 23:52 14,1 C 18,3 C 82 % 1017,9 hPa 0,0 l/m 9,0 km/h (2 Bft) O-NO 65 0 min 0,000 mm 0,0 UV-I 0 W/m 11,1 C 12,6 C 14,5 km/h (3 Bft) 91,30 %
19.05.2018 23:53 14,1 C 18,3 C 82 % 1018,0 hPa 0,0 l/m 9,9 km/h (2 Bft) O 93 0 min 0,000 mm 0,0 UV-I 0 W/m 11,1 C 12,2 C 14,5 km/h (3 Bft) 100,00 %
19.05.2018 23:54 14,1 C 18,3 C 82 % 1017,9 hPa 0,0 l/m 8,8 km/h (2 Bft) O 79 0 min 0,000 mm 0,0 UV-I 0 W/m 11,1 C 12,7 C 12,9 km/h (3 Bft) 93,33 %
19.05.2018 23:55 14,1 C 18,3 C 82 % 1018,0 hPa 0,0 l/m 9,3 km/h (2 Bft) O-NO 57 0 min 0,000 mm 0,0 UV-I 0 W/m 11,1 C 12,5 C 12,9 km/h (3 Bft) 97,56 %
19.05.2018 23:56 14,1 C 18,3 C 82 % 1018,0 hPa 0,0 l/m 8,6 km/h (2 Bft) O 80 0 min 0,000 mm 0,0 UV-I 0 W/m 11,1 C 12,8 C 12,9 km/h (3 Bft) 100,00 %
19.05.2018 23:57 14,1 C 18,3 C 82 % 1018,0 hPa 0,0 l/m 10,0 km/h (2 Bft) O 82 0 min 0,000 mm 0,0 UV-I 0 W/m 11,1 C 12,1 C 12,9 km/h (3 Bft) 98,03 %
19.05.2018 23:58 14,1 C 18,3 C 82 % 1018,0 hPa 0,0 l/m 8,8 km/h (2 Bft) O 80 0 min 0,000 mm 0,0 UV-I 0 W/m 11,1 C 12,7 C 12,9 km/h (3 Bft) 97,56 %
19.05.2018 23:59 14,1 C 18,3 C 82 % 1018,0 hPa 0,0 l/m 9,4 km/h (2 Bft) O 88 0 min 0,000 mm 0,0 UV-I 0 W/m 11,1 C 12,4 C 12,9 km/h (3 Bft) 92,31 %
_ Min-Zeit 01:34 00:00 17:13 16:57 - 00:10 - - - - - - 17:16 22:12 00:10 10:54
Minimum _ 10,6 C 16,7 C 48 % 1015,7 hPa - 0,0 km/h (0 Bft) - - - - - - 8,7 C 8,6 C 0,0 km/h (0 Bft) 72,73 %
_ Max-Zeit 14:53 15:22 05:55 23:18 00:00 22:12 - - 05:35 13:00 12:54 14:50 13:19 13:55 14:06 00:04
Maximum _ 21,6 C 18,9 C 95 % 1018,0 hPa 0,0 l/m 23,7 km/h
O (4 Bft)
- - 5 min 0,559 mm 4,6 UV-I 993 W/m 14,6 C 21,0 C 29,0 km/h
O (5 Bft)
100,00 %
Durchschnitt _ 15,7 C 17,6 C 75 % 1017,0 hPa #0,0 l/m 8,7 km/h (2 Bft) O-NO - #11:55 h #4,547 mm 2,4 UV-I 420 W/m 11,0 C 14,5 C 12,3 km/h (3 Bft) 97,90 %